<?xml version="1.0" encoding="UTF-8" standalone="no" ?>
<gpx xmlns="http://www.topografix.com/GPX/1/1" xmlns:xsi="http://www.w3.org/2001/XMLSchema-instance" xsi:schemaLocation="http://www.topografix.com/GPX/1/1 http://www.topografix.com/GPX/1/1/gpx.xsd" version="1.1" creator="VisuGPX - https://www.visugpx.com">
  <metadata>
    <name>circuit orbeil st babel</name>
    <desc><![CDATA[un peu de route
un PB chaine en cours
trou gps au départ de700 à 800m]]></desc>
  </metadata>
  <trk>
    <name><![CDATA[2012-08-29 11:14]]></name>
    <desc><![CDATA[<h1>OruxMaps</h1><br /><hr align="center" width="480" style="height: 2px; width: 517px"/><h2>Nom: 2012-08-29 11:14</h2><br /><p>Temps de départ: 08/29/2012 11:14</p><p>Temps d'arrivée: 08/29/2012 13:06</p><p>Distance: 32,1 km (01:48)</p><p>Temps déplacement: 01:41</p><p>Vitesse moyenne: 17,7 km/h</p><p>Vitesse moyenne: 19 km/h</p><p>Vitess Max.: 55 km/h</p><p>Altitude minimale: 368 m</p><p>Altitude maximale: 570 m</p><p>Vitesse d'élévation: 659,3 m/h</p><p>Vitesse de descente: -1078,8 m/h</p><p>Gain Altitude: 618 m</p><p>Perte Altitude: -613 m</p><p>Temps d'élévation: 00:56</p><p>Temps de descente: 00:34</p><hr align="center" width="480" style="height: 2px; width: 517px"/>]]></desc>
    <trkseg>
      <trkpt lat="45.50835" lon="3.21938">
        <ele>561.709</ele>
        <time>2012-08-29T09:18:01Z</time>
      </trkpt>
      <trkpt lat="45.50862" lon="3.21935">
        <ele>561.609</ele>
        <time>2012-08-29T09:18:05Z</time>
      </trkpt>
      <trkpt lat="45.50885" lon="3.21931">
        <ele>560.1621</ele>
        <time>2012-08-29T09:18:08Z</time>
      </trkpt>
      <trkpt lat="45.5091" lon="3.21926">
        <ele>559.47516</ele>
        <time>2012-08-29T09:18:11Z</time>
      </trkpt>
      <trkpt lat="45.5093" lon="3.21921">
        <ele>559.9025</ele>
        <time>2012-08-29T09:18:14Z</time>
      </trkpt>
      <trkpt lat="45.50948" lon="3.21913">
        <ele>560.4094</ele>
        <time>2012-08-29T09:18:17Z</time>
      </trkpt>
      <trkpt lat="45.50968" lon="3.21908">
        <ele>560.7935</ele>
        <time>2012-08-29T09:18:20Z</time>
      </trkpt>
      <trkpt lat="45.50989" lon="3.21902">
        <ele>559.8634</ele>
        <time>2012-08-29T09:18:23Z</time>
      </trkpt>
      <trkpt lat="45.51007" lon="3.21896">
        <ele>559.24445</ele>
        <time>2012-08-29T09:18:26Z</time>
      </trkpt>
      <trkpt lat="45.51026" lon="3.21889">
        <ele>559.8458</ele>
        <time>2012-08-29T09:18:29Z</time>
      </trkpt>
      <trkpt lat="45.51044" lon="3.21882">
        <ele>561.2808</ele>
        <time>2012-08-29T09:18:32Z</time>
      </trkpt>
      <trkpt lat="45.51063" lon="3.21874">
        <ele>562.04083</ele>
        <time>2012-08-29T09:18:35Z</time>
      </trkpt>
      <trkpt lat="45.51081" lon="3.21869">
        <ele>563.1662</ele>
        <time>2012-08-29T09:18:38Z</time>
      </trkpt>
      <trkpt lat="45.51105" lon="3.21863">
        <ele>565.1021</ele>
        <time>2012-08-29T09:18:42Z</time>
      </trkpt>
      <trkpt lat="45.51124" lon="3.21864">
        <ele>565.73267</ele>
        <time>2012-08-29T09:18:45Z</time>
      </trkpt>
      <trkpt lat="45.51148" lon="3.21861">
        <ele>566.3325</ele>
        <time>2012-08-29T09:18:49Z</time>
      </trkpt>
      <trkpt lat="45.51166" lon="3.21859">
        <ele>566.8142</ele>
        <time>2012-08-29T09:18:52Z</time>
      </trkpt>
      <trkpt lat="45.51184" lon="3.2186">
        <ele>566.53467</ele>
        <time>2012-08-29T09:18:55Z</time>
      </trkpt>
      <trkpt lat="45.51203" lon="3.21858">
        <ele>566.4667</ele>
        <time>2012-08-29T09:18:58Z</time>
      </trkpt>
      <trkpt lat="45.51222" lon="3.21859">
        <ele>566.2068</ele>
        <time>2012-08-29T09:19:01Z</time>
      </trkpt>
      <trkpt lat="45.51242" lon="3.21863">
        <ele>566.42523</ele>
        <time>2012-08-29T09:19:04Z</time>
      </trkpt>
      <trkpt lat="45.51258" lon="3.21874">
        <ele>566.4784</ele>
        <time>2012-08-29T09:19:07Z</time>
      </trkpt>
      <trkpt lat="45.5128" lon="3.21882">
        <ele>566.7454</ele>
        <time>2012-08-29T09:19:11Z</time>
      </trkpt>
      <trkpt lat="45.51298" lon="3.21882">
        <ele>567.5759</ele>
        <time>2012-08-29T09:19:14Z</time>
      </trkpt>
      <trkpt lat="45.51322" lon="3.21881">
        <ele>569.88837</ele>
        <time>2012-08-29T09:19:18Z</time>
      </trkpt>
      <trkpt lat="45.5134" lon="3.21882">
        <ele>570.8378</ele>
        <time>2012-08-29T09:19:21Z</time>
      </trkpt>
      <trkpt lat="45.51359" lon="3.21892">
        <ele>570.5212</ele>
        <time>2012-08-29T09:19:24Z</time>
      </trkpt>
      <trkpt lat="45.51378" lon="3.21903">
        <ele>570.9157</ele>
        <time>2012-08-29T09:19:27Z</time>
      </trkpt>
      <trkpt lat="45.51397" lon="3.21913">
        <ele>570.4868</ele>
        <time>2012-08-29T09:19:30Z</time>
      </trkpt>
      <trkpt lat="45.51415" lon="3.21925">
        <ele>569.7106</ele>
        <time>2012-08-29T09:19:33Z</time>
      </trkpt>
      <trkpt lat="45.51434" lon="3.21942">
        <ele>569.46277</ele>
        <time>2012-08-29T09:19:36Z</time>
      </trkpt>
      <trkpt lat="45.51454" lon="3.21955">
        <ele>567.8598</ele>
        <time>2012-08-29T09:19:39Z</time>
      </trkpt>
      <trkpt lat="45.51472" lon="3.21958">
        <ele>566.89136</ele>
        <time>2012-08-29T09:19:41Z</time>
      </trkpt>
      <trkpt lat="45.51489" lon="3.21946">
        <ele>565.77185</ele>
        <time>2012-08-29T09:19:45Z</time>
      </trkpt>
      <trkpt lat="45.51508" lon="3.21943">
        <ele>563.3262</ele>
        <time>2012-08-29T09:19:48Z</time>
      </trkpt>
      <trkpt lat="45.51526" lon="3.21944">
        <ele>560.3225</ele>
        <time>2012-08-29T09:19:51Z</time>
      </trkpt>
      <trkpt lat="45.51551" lon="3.21952">
        <ele>557.0772</ele>
        <time>2012-08-29T09:19:54Z</time>
      </trkpt>
      <trkpt lat="45.51576" lon="3.21959">
        <ele>555.95966</ele>
        <time>2012-08-29T09:19:57Z</time>
      </trkpt>
      <trkpt lat="45.51596" lon="3.21964">
        <ele>554.5375</ele>
        <time>2012-08-29T09:19:59Z</time>
      </trkpt>
      <trkpt lat="45.51615" lon="3.21969">
        <ele>552.5688</ele>
        <time>2012-08-29T09:20:01Z</time>
      </trkpt>
      <trkpt lat="45.51633" lon="3.21978">
        <ele>550.71765</ele>
        <time>2012-08-29T09:20:03Z</time>
      </trkpt>
      <trkpt lat="45.5165" lon="3.21992">
        <ele>548.9576</ele>
        <time>2012-08-29T09:20:05Z</time>
      </trkpt>
      <trkpt lat="45.51665" lon="3.22012">
        <ele>548.13635</ele>
        <time>2012-08-29T09:20:07Z</time>
      </trkpt>
      <trkpt lat="45.51681" lon="3.22027">
        <ele>547.2494</ele>
        <time>2012-08-29T09:20:09Z</time>
      </trkpt>
      <trkpt lat="45.517" lon="3.22037">
        <ele>545.8192</ele>
        <time>2012-08-29T09:20:11Z</time>
      </trkpt>
      <trkpt lat="45.5172" lon="3.22048">
        <ele>543.5085</ele>
        <time>2012-08-29T09:20:13Z</time>
      </trkpt>
      <trkpt lat="45.51738" lon="3.22059">
        <ele>541.4337</ele>
        <time>2012-08-29T09:20:15Z</time>
      </trkpt>
      <trkpt lat="45.51757" lon="3.22068">
        <ele>539.7104</ele>
        <time>2012-08-29T09:20:17Z</time>
      </trkpt>
      <trkpt lat="45.51783" lon="3.22075">
        <ele>538.23773</ele>
        <time>2012-08-29T09:20:20Z</time>
      </trkpt>
      <trkpt lat="45.5181" lon="3.22068">
        <ele>536.53204</ele>
        <time>2012-08-29T09:20:23Z</time>
      </trkpt>
      <trkpt lat="45.51828" lon="3.22064">
        <ele>535.9032</ele>
        <time>2012-08-29T09:20:25Z</time>
      </trkpt>
      <trkpt lat="45.51853" lon="3.22062">
        <ele>536.3331</ele>
        <time>2012-08-29T09:20:28Z</time>
      </trkpt>
      <trkpt lat="45.51879" lon="3.22055">
        <ele>538.44415</ele>
        <time>2012-08-29T09:20:31Z</time>
      </trkpt>
      <trkpt lat="45.51897" lon="3.22061">
        <ele>538.54126</ele>
        <time>2012-08-29T09:20:33Z</time>
      </trkpt>
      <trkpt lat="45.51923" lon="3.22066">
        <ele>538.08826</ele>
        <time>2012-08-29T09:20:36Z</time>
      </trkpt>
      <trkpt lat="45.51943" lon="3.22072">
        <ele>536.5971</ele>
        <time>2012-08-29T09:20:39Z</time>
      </trkpt>
      <trkpt lat="45.51965" lon="3.22081">
        <ele>535.80084</ele>
        <time>2012-08-29T09:20:42Z</time>
      </trkpt>
      <trkpt lat="45.51988" lon="3.22088">
        <ele>534.89465</ele>
        <time>2012-08-29T09:20:45Z</time>
      </trkpt>
      <trkpt lat="45.52013" lon="3.22095">
        <ele>534.01697</ele>
        <time>2012-08-29T09:20:48Z</time>
      </trkpt>
      <trkpt lat="45.52031" lon="3.221">
        <ele>533.026</ele>
        <time>2012-08-29T09:20:50Z</time>
      </trkpt>
      <trkpt lat="45.52052" lon="3.22105">
        <ele>530.30676</ele>
        <time>2012-08-29T09:20:53Z</time>
      </trkpt>
      <trkpt lat="45.52073" lon="3.2212">
        <ele>525.7786</ele>
        <time>2012-08-29T09:20:57Z</time>
      </trkpt>
      <trkpt lat="45.52089" lon="3.22135">
        <ele>523.75085</ele>
        <time>2012-08-29T09:21:00Z</time>
      </trkpt>
      <trkpt lat="45.52107" lon="3.22151">
        <ele>521.8673</ele>
        <time>2012-08-29T09:21:03Z</time>
      </trkpt>
      <trkpt lat="45.52122" lon="3.22167">
        <ele>518.86487</ele>
        <time>2012-08-29T09:21:06Z</time>
      </trkpt>
      <trkpt lat="45.52138" lon="3.22184">
        <ele>515.93256</ele>
        <time>2012-08-29T09:21:09Z</time>
      </trkpt>
      <trkpt lat="45.52153" lon="3.22199">
        <ele>513.5799</ele>
        <time>2012-08-29T09:21:12Z</time>
      </trkpt>
      <trkpt lat="45.52169" lon="3.22217">
        <ele>512.21545</ele>
        <time>2012-08-29T09:21:14Z</time>
      </trkpt>
      <trkpt lat="45.52186" lon="3.22241">
        <ele>509.47736</ele>
        <time>2012-08-29T09:21:18Z</time>
      </trkpt>
      <trkpt lat="45.52201" lon="3.22269">
        <ele>506.20346</ele>
        <time>2012-08-29T09:21:21Z</time>
      </trkpt>
      <trkpt lat="45.52214" lon="3.22296">
        <ele>503.72855</ele>
        <time>2012-08-29T09:21:23Z</time>
      </trkpt>
      <trkpt lat="45.52228" lon="3.22318">
        <ele>502.62192</ele>
        <time>2012-08-29T09:21:27Z</time>
      </trkpt>
      <trkpt lat="45.52245" lon="3.2234">
        <ele>502.52228</ele>
        <time>2012-08-29T09:21:29Z</time>
      </trkpt>
      <trkpt lat="45.52261" lon="3.22354">
        <ele>502.5602</ele>
        <time>2012-08-29T09:21:32Z</time>
      </trkpt>
      <trkpt lat="45.52282" lon="3.22367">
        <ele>502.88687</ele>
        <time>2012-08-29T09:21:34Z</time>
      </trkpt>
      <trkpt lat="45.52303" lon="3.22384">
        <ele>503.02777</ele>
        <time>2012-08-29T09:21:38Z</time>
      </trkpt>
      <trkpt lat="45.52326" lon="3.22407">
        <ele>503.25757</ele>
        <time>2012-08-29T09:21:41Z</time>
      </trkpt>
      <trkpt lat="45.52342" lon="3.22421">
        <ele>503.59256</ele>
        <time>2012-08-29T09:21:43Z</time>
      </trkpt>
      <trkpt lat="45.52357" lon="3.22439">
        <ele>503.83643</ele>
        <time>2012-08-29T09:21:46Z</time>
      </trkpt>
      <trkpt lat="45.52376" lon="3.22455">
        <ele>503.61588</ele>
        <time>2012-08-29T09:21:49Z</time>
      </trkpt>
      <trkpt lat="45.52395" lon="3.2247">
        <ele>503.07285</ele>
        <time>2012-08-29T09:21:51Z</time>
      </trkpt>
      <trkpt lat="45.52407" lon="3.22493">
        <ele>502.5574</ele>
        <time>2012-08-29T09:21:54Z</time>
      </trkpt>
      <trkpt lat="45.52424" lon="3.22524">
        <ele>501.79504</ele>
        <time>2012-08-29T09:21:57Z</time>
      </trkpt>
      <trkpt lat="45.52443" lon="3.22553">
        <ele>499.56873</ele>
        <time>2012-08-29T09:22:00Z</time>
      </trkpt>
      <trkpt lat="45.52458" lon="3.22573">
        <ele>497.61136</ele>
        <time>2012-08-29T09:22:02Z</time>
      </trkpt>
      <trkpt lat="45.52477" lon="3.2259">
        <ele>496.6916</ele>
        <time>2012-08-29T09:22:04Z</time>
      </trkpt>
      <trkpt lat="45.52501" lon="3.22592">
        <ele>495.04852</ele>
        <time>2012-08-29T09:22:07Z</time>
      </trkpt>
      <trkpt lat="45.52521" lon="3.22599">
        <ele>494.3038</ele>
        <time>2012-08-29T09:22:10Z</time>
      </trkpt>
      <trkpt lat="45.52534" lon="3.22626">
        <ele>492.8396</ele>
        <time>2012-08-29T09:22:13Z</time>
      </trkpt>
      <trkpt lat="45.52544" lon="3.2265">
        <ele>490.72034</ele>
        <time>2012-08-29T09:22:16Z</time>
      </trkpt>
      <trkpt lat="45.5256" lon="3.22672">
        <ele>489.74734</ele>
        <time>2012-08-29T09:22:20Z</time>
      </trkpt>
      <trkpt lat="45.52574" lon="3.22689">
        <ele>490.1848</ele>
        <time>2012-08-29T09:22:24Z</time>
      </trkpt>
      <trkpt lat="45.52591" lon="3.22704">
        <ele>489.53378</ele>
        <time>2012-08-29T09:22:28Z</time>
      </trkpt>
      <trkpt lat="45.52611" lon="3.22716">
        <ele>486.0636</ele>
        <time>2012-08-29T09:22:33Z</time>
      </trkpt>
      <trkpt lat="45.52616" lon="3.22691">
        <ele>481.6497</ele>
        <time>2012-08-29T09:22:40Z</time>
      </trkpt>
      <trkpt lat="45.52616" lon="3.22661">
        <ele>480.082</ele>
        <time>2012-08-29T09:22:46Z</time>
      </trkpt>
      <trkpt lat="45.52625" lon="3.22637">
        <ele>476.38358</ele>
        <time>2012-08-29T09:22:52Z</time>
      </trkpt>
      <trkpt lat="45.52631" lon="3.22608">
        <ele>474.7735</ele>
        <time>2012-08-29T09:22:58Z</time>
      </trkpt>
      <trkpt lat="45.52636" lon="3.22581">
        <ele>475.9707</ele>
        <time>2012-08-29T09:23:04Z</time>
      </trkpt>
      <trkpt lat="45.52645" lon="3.22558">
        <ele>478.2929</ele>
        <time>2012-08-29T09:23:11Z</time>
      </trkpt>
      <trkpt lat="45.52661" lon="3.22574">
        <ele>481.17737</ele>
        <time>2012-08-29T09:23:17Z</time>
      </trkpt>
      <trkpt lat="45.52675" lon="3.22592">
        <ele>483.49118</ele>
        <time>2012-08-29T09:23:21Z</time>
      </trkpt>
      <trkpt lat="45.52693" lon="3.2261">
        <ele>484.4272</ele>
        <time>2012-08-29T09:23:25Z</time>
      </trkpt>
      <trkpt lat="45.5271" lon="3.2263">
        <ele>484.7878</ele>
        <time>2012-08-29T09:23:29Z</time>
      </trkpt>
      <trkpt lat="45.52731" lon="3.22646">
        <ele>483.2601</ele>
        <time>2012-08-29T09:23:33Z</time>
      </trkpt>
      <trkpt lat="45.5275" lon="3.22658">
        <ele>481.49463</ele>
        <time>2012-08-29T09:23:36Z</time>
      </trkpt>
      <trkpt lat="45.52769" lon="3.2267">
        <ele>479.65918</ele>
        <time>2012-08-29T09:23:39Z</time>
      </trkpt>
      <trkpt lat="45.5279" lon="3.22685">
        <ele>477.38174</ele>
        <time>2012-08-29T09:23:42Z</time>
      </trkpt>
      <trkpt lat="45.52811" lon="3.22706">
        <ele>475.36624</ele>
        <time>2012-08-29T09:23:45Z</time>
      </trkpt>
      <trkpt lat="45.52831" lon="3.22726">
        <ele>473.36127</ele>
        <time>2012-08-29T09:23:48Z</time>
      </trkpt>
      <trkpt lat="45.52849" lon="3.22742">
        <ele>471.87637</ele>
        <time>2012-08-29T09:23:51Z</time>
      </trkpt>
      <trkpt lat="45.52868" lon="3.22759">
        <ele>470.38586</ele>
        <time>2012-08-29T09:23:54Z</time>
      </trkpt>
      <trkpt lat="45.52886" lon="3.22773">
        <ele>468.93362</ele>
        <time>2012-08-29T09:23:57Z</time>
      </trkpt>
      <trkpt lat="45.52902" lon="3.22791">
        <ele>468.38812</ele>
        <time>2012-08-29T09:24:00Z</time>
      </trkpt>
      <trkpt lat="45.52921" lon="3.22811">
        <ele>467.6821</ele>
        <time>2012-08-29T09:24:04Z</time>
      </trkpt>
      <trkpt lat="45.52937" lon="3.22827">
        <ele>466.79764</ele>
        <time>2012-08-29T09:24:07Z</time>
      </trkpt>
      <trkpt lat="45.52954" lon="3.22846">
        <ele>465.6007</ele>
        <time>2012-08-29T09:24:11Z</time>
      </trkpt>
      <trkpt lat="45.5297" lon="3.2287">
        <ele>464.46066</ele>
        <time>2012-08-29T09:24:15Z</time>
      </trkpt>
      <trkpt lat="45.52981" lon="3.22892">
        <ele>463.99017</ele>
        <time>2012-08-29T09:24:18Z</time>
      </trkpt>
      <trkpt lat="45.52989" lon="3.22916">
        <ele>463.6151</ele>
        <time>2012-08-29T09:24:21Z</time>
      </trkpt>
      <trkpt lat="45.52997" lon="3.2294">
        <ele>463.23657</ele>
        <time>2012-08-29T09:24:24Z</time>
      </trkpt>
      <trkpt lat="45.53005" lon="3.22967">
        <ele>463.13626</ele>
        <time>2012-08-29T09:24:27Z</time>
      </trkpt>
      <trkpt lat="45.53015" lon="3.22992">
        <ele>464.38208</ele>
        <time>2012-08-29T09:24:31Z</time>
      </trkpt>
      <trkpt lat="45.53025" lon="3.23017">
        <ele>465.43835</ele>
        <time>2012-08-29T09:24:35Z</time>
      </trkpt>
      <trkpt lat="45.53038" lon="3.23036">
        <ele>465.18387</ele>
        <time>2012-08-29T09:24:38Z</time>
      </trkpt>
      <trkpt lat="45.53052" lon="3.23056">
        <ele>464.4984</ele>
        <time>2012-08-29T09:24:41Z</time>
      </trkpt>
      <trkpt lat="45.53068" lon="3.23069">
        <ele>464.04984</ele>
        <time>2012-08-29T09:24:44Z</time>
      </trkpt>
      <trkpt lat="45.53088" lon="3.23083">
        <ele>465.03287</ele>
        <time>2012-08-29T09:24:48Z</time>
      </trkpt>
      <trkpt lat="45.53105" lon="3.23094">
        <ele>464.98627</ele>
        <time>2012-08-29T09:24:51Z</time>
      </trkpt>
      <trkpt lat="45.53121" lon="3.23106">
        <ele>464.55566</ele>
        <time>2012-08-29T09:24:54Z</time>
      </trkpt>
      <trkpt lat="45.5314" lon="3.23123">
        <ele>465.07376</ele>
        <time>2012-08-29T09:24:58Z</time>
      </trkpt>
      <trkpt lat="45.53159" lon="3.2314">
        <ele>465.64902</ele>
        <time>2012-08-29T09:25:02Z</time>
      </trkpt>
      <trkpt lat="45.53178" lon="3.23157">
        <ele>466.3861</ele>
        <time>2012-08-29T09:25:06Z</time>
      </trkpt>
      <trkpt lat="45.53195" lon="3.23178">
        <ele>466.3037</ele>
        <time>2012-08-29T09:25:10Z</time>
      </trkpt>
      <trkpt lat="45.53208" lon="3.23198">
        <ele>465.7052</ele>
        <time>2012-08-29T09:25:13Z</time>
      </trkpt>
      <trkpt lat="45.53224" lon="3.23217">
        <ele>464.25583</ele>
        <time>2012-08-29T09:25:16Z</time>
      </trkpt>
      <trkpt lat="45.53237" lon="3.23239">
        <ele>462.75375</ele>
        <time>2012-08-29T09:25:19Z</time>
      </trkpt>
      <trkpt lat="45.53251" lon="3.23265">
        <ele>461.89194</ele>
        <time>2012-08-29T09:25:22Z</time>
      </trkpt>
      <trkpt lat="45.53266" lon="3.23288">
        <ele>461.02994</ele>
        <time>2012-08-29T09:25:25Z</time>
      </trkpt>
      <trkpt lat="45.53279" lon="3.2331">
        <ele>459.92096</ele>
        <time>2012-08-29T09:25:28Z</time>
      </trkpt>
      <trkpt lat="45.53293" lon="3.23332">
        <ele>459.03278</ele>
        <time>2012-08-29T09:25:31Z</time>
      </trkpt>
      <trkpt lat="45.53305" lon="3.23352">
        <ele>458.0456</ele>
        <time>2012-08-29T09:25:34Z</time>
      </trkpt>
      <trkpt lat="45.53319" lon="3.23373">
        <ele>457.24945</ele>
        <time>2012-08-29T09:25:37Z</time>
      </trkpt>
      <trkpt lat="45.53332" lon="3.23395">
        <ele>456.69482</ele>
        <time>2012-08-29T09:25:40Z</time>
      </trkpt>
      <trkpt lat="45.53348" lon="3.23414">
        <ele>456.24677</ele>
        <time>2012-08-29T09:25:43Z</time>
      </trkpt>
      <trkpt lat="45.53364" lon="3.23433">
        <ele>455.12805</ele>
        <time>2012-08-29T09:25:46Z</time>
      </trkpt>
      <trkpt lat="45.53383" lon="3.23451">
        <ele>453.0936</ele>
        <time>2012-08-29T09:25:49Z</time>
      </trkpt>
      <trkpt lat="45.534" lon="3.2347">
        <ele>451.27908</ele>
        <time>2012-08-29T09:25:52Z</time>
      </trkpt>
      <trkpt lat="45.53414" lon="3.23486">
        <ele>449.41043</ele>
        <time>2012-08-29T09:25:55Z</time>
      </trkpt>
      <trkpt lat="45.53429" lon="3.23507">
        <ele>447.7174</ele>
        <time>2012-08-29T09:25:57Z</time>
      </trkpt>
      <trkpt lat="45.53447" lon="3.23529">
        <ele>446.27975</ele>
        <time>2012-08-29T09:26:01Z</time>
      </trkpt>
      <trkpt lat="45.53465" lon="3.23552">
        <ele>444.14197</ele>
        <time>2012-08-29T09:26:04Z</time>
      </trkpt>
      <trkpt lat="45.53482" lon="3.23574">
        <ele>443.0979</ele>
        <time>2012-08-29T09:26:06Z</time>
      </trkpt>
      <trkpt lat="45.53503" lon="3.23593">
        <ele>442.3262</ele>
        <time>2012-08-29T09:26:09Z</time>
      </trkpt>
      <trkpt lat="45.53529" lon="3.23588">
        <ele>441.64438</ele>
        <time>2012-08-29T09:26:13Z</time>
      </trkpt>
      <trkpt lat="45.53544" lon="3.23571">
        <ele>441.76016</ele>
        <time>2012-08-29T09:26:15Z</time>
      </trkpt>
      <trkpt lat="45.53555" lon="3.23549">
        <ele>441.7628</ele>
        <time>2012-08-29T09:26:17Z</time>
      </trkpt>
      <trkpt lat="45.53566" lon="3.23526">
        <ele>440.66425</ele>
        <time>2012-08-29T09:26:19Z</time>
      </trkpt>
      <trkpt lat="45.53581" lon="3.23503">
        <ele>439.2073</ele>
        <time>2012-08-29T09:26:22Z</time>
      </trkpt>
      <trkpt lat="45.53599" lon="3.23515">
        <ele>436.92096</ele>
        <time>2012-08-29T09:26:26Z</time>
      </trkpt>
      <trkpt lat="45.53608" lon="3.23543">
        <ele>434.79218</ele>
        <time>2012-08-29T09:26:29Z</time>
      </trkpt>
      <trkpt lat="45.53619" lon="3.23577">
        <ele>433.58472</ele>
        <time>2012-08-29T09:26:32Z</time>
      </trkpt>
      <trkpt lat="45.53628" lon="3.23605">
        <ele>433.34534</ele>
        <time>2012-08-29T09:26:34Z</time>
      </trkpt>
      <trkpt lat="45.53637" lon="3.2363">
        <ele>433.57944</ele>
        <time>2012-08-29T09:26:36Z</time>
      </trkpt>
      <trkpt lat="45.53648" lon="3.23662">
        <ele>433.7924</ele>
        <time>2012-08-29T09:26:37Z</time>
      </trkpt>
      <trkpt lat="45.53658" lon="3.23692">
        <ele>433.77466</ele>
        <time>2012-08-29T09:26:40Z</time>
      </trkpt>
      <trkpt lat="45.53667" lon="3.23724">
        <ele>433.67093</ele>
        <time>2012-08-29T09:26:42Z</time>
      </trkpt>
      <trkpt lat="45.53675" lon="3.23756">
        <ele>433.39383</ele>
        <time>2012-08-29T09:26:44Z</time>
      </trkpt>
      <trkpt lat="45.53683" lon="3.23785">
        <ele>432.45673</ele>
        <time>2012-08-29T09:26:46Z</time>
      </trkpt>
      <trkpt lat="45.53691" lon="3.23815">
        <ele>431.25458</ele>
        <time>2012-08-29T09:26:48Z</time>
      </trkpt>
      <trkpt lat="45.53701" lon="3.23843">
        <ele>430.24713</ele>
        <time>2012-08-29T09:26:49Z</time>
      </trkpt>
      <trkpt lat="45.53708" lon="3.23873">
        <ele>429.05545</ele>
        <time>2012-08-29T09:26:52Z</time>
      </trkpt>
      <trkpt lat="45.53715" lon="3.239">
        <ele>428.15387</ele>
        <time>2012-08-29T09:26:54Z</time>
      </trkpt>
      <trkpt lat="45.53721" lon="3.23925">
        <ele>427.69675</ele>
        <time>2012-08-29T09:26:56Z</time>
      </trkpt>
      <trkpt lat="45.53729" lon="3.23949">
        <ele>426.97086</ele>
        <time>2012-08-29T09:26:58Z</time>
      </trkpt>
      <trkpt lat="45.53737" lon="3.23972">
        <ele>426.23755</ele>
        <time>2012-08-29T09:27:00Z</time>
      </trkpt>
      <trkpt lat="45.53743" lon="3.23997">
        <ele>425.56256</ele>
        <time>2012-08-29T09:27:01Z</time>
      </trkpt>
      <trkpt lat="45.53753" lon="3.24031">
        <ele>424.96753</ele>
        <time>2012-08-29T09:27:05Z</time>
      </trkpt>
      <trkpt lat="45.53766" lon="3.24064">
        <ele>422.5118</ele>
        <time>2012-08-29T09:27:07Z</time>
      </trkpt>
      <trkpt lat="45.53778" lon="3.24095">
        <ele>420.18518</ele>
        <time>2012-08-29T09:27:11Z</time>
      </trkpt>
      <trkpt lat="45.53787" lon="3.24127">
        <ele>418.5724</ele>
        <time>2012-08-29T09:27:14Z</time>
      </trkpt>
      <trkpt lat="45.53796" lon="3.24159">
        <ele>416.5826</ele>
        <time>2012-08-29T09:27:17Z</time>
      </trkpt>
      <trkpt lat="45.53809" lon="3.24187">
        <ele>414.68536</ele>
        <time>2012-08-29T09:27:20Z</time>
      </trkpt>
      <trkpt lat="45.53814" lon="3.24215">
        <ele>414.26447</ele>
        <time>2012-08-29T09:27:22Z</time>
      </trkpt>
      <trkpt lat="45.53822" lon="3.24245">
        <ele>413.46365</ele>
        <time>2012-08-29T09:27:25Z</time>
      </trkpt>
      <trkpt lat="45.53833" lon="3.24275">
        <ele>412.40082</ele>
        <time>2012-08-29T09:27:28Z</time>
      </trkpt>
      <trkpt lat="45.53842" lon="3.24306">
        <ele>411.0696</ele>
        <time>2012-08-29T09:27:31Z</time>
      </trkpt>
      <trkpt lat="45.53852" lon="3.24336">
        <ele>409.77676</ele>
        <time>2012-08-29T09:27:34Z</time>
      </trkpt>
      <trkpt lat="45.53862" lon="3.24363">
        <ele>408.8704</ele>
        <time>2012-08-29T09:27:37Z</time>
      </trkpt>
      <trkpt lat="45.5387" lon="3.24389">
        <ele>408.6542</ele>
        <time>2012-08-29T09:27:40Z</time>
      </trkpt>
      <trkpt lat="45.53876" lon="3.24419">
        <ele>409.9391</ele>
        <time>2012-08-29T09:27:47Z</time>
      </trkpt>
      <trkpt lat="45.53883" lon="3.24443">
        <ele>410.22012</ele>
        <time>2012-08-29T09:27:50Z</time>
      </trkpt>
      <trkpt lat="45.53891" lon="3.24467">
        <ele>411.0387</ele>
        <time>2012-08-29T09:27:53Z</time>
      </trkpt>
      <trkpt lat="45.53897" lon="3.24492">
        <ele>412.10278</ele>
        <time>2012-08-29T09:27:56Z</time>
      </trkpt>
      <trkpt lat="45.53907" lon="3.24518">
        <ele>412.40637</ele>
        <time>2012-08-29T09:27:59Z</time>
      </trkpt>
      <trkpt lat="45.53919" lon="3.24545">
        <ele>413.1738</ele>
        <time>2012-08-29T09:28:03Z</time>
      </trkpt>
      <trkpt lat="45.5393" lon="3.2457">
        <ele>414.62228</ele>
        <time>2012-08-29T09:28:05Z</time>
      </trkpt>
      <trkpt lat="45.53954" lon="3.24644">
        <ele>416.95898</ele>
        <time>2012-08-29T09:28:15Z</time>
      </trkpt>
      <trkpt lat="45.53951" lon="3.2467">
        <ele>416.63165</ele>
        <time>2012-08-29T09:28:18Z</time>
      </trkpt>
      <trkpt lat="45.53948" lon="3.24704">
        <ele>416.70132</ele>
        <time>2012-08-29T09:28:22Z</time>
      </trkpt>
      <trkpt lat="45.5395" lon="3.24738">
        <ele>416.9421</ele>
        <time>2012-08-29T09:28:26Z</time>
      </trkpt>
      <trkpt lat="45.53948" lon="3.24771">
        <ele>416.8605</ele>
        <time>2012-08-29T09:28:29Z</time>
      </trkpt>
      <trkpt lat="45.53949" lon="3.24797">
        <ele>418.6756</ele>
        <time>2012-08-29T09:28:37Z</time>
      </trkpt>
      <trkpt lat="45.53966" lon="3.24813">
        <ele>419.9133</ele>
        <time>2012-08-29T09:28:43Z</time>
      </trkpt>
      <trkpt lat="45.53987" lon="3.24825">
        <ele>420.03375</ele>
        <time>2012-08-29T09:28:48Z</time>
      </trkpt>
      <trkpt lat="45.54003" lon="3.24847">
        <ele>419.4382</ele>
        <time>2012-08-29T09:28:51Z</time>
      </trkpt>
      <trkpt lat="45.54016" lon="3.24868">
        <ele>418.38693</ele>
        <time>2012-08-29T09:28:54Z</time>
      </trkpt>
      <trkpt lat="45.54028" lon="3.2489">
        <ele>416.4067</ele>
        <time>2012-08-29T09:28:58Z</time>
      </trkpt>
      <trkpt lat="45.54039" lon="3.24911">
        <ele>414.66003</ele>
        <time>2012-08-29T09:29:03Z</time>
      </trkpt>
      <trkpt lat="45.54056" lon="3.24929">
        <ele>414.50464</ele>
        <time>2012-08-29T09:29:10Z</time>
      </trkpt>
      <trkpt lat="45.54071" lon="3.24948">
        <ele>415.55405</ele>
        <time>2012-08-29T09:29:13Z</time>
      </trkpt>
      <trkpt lat="45.54089" lon="3.24966">
        <ele>416.34207</ele>
        <time>2012-08-29T09:29:15Z</time>
      </trkpt>
      <trkpt lat="45.54105" lon="3.24978">
        <ele>416.20898</ele>
        <time>2012-08-29T09:29:23Z</time>
      </trkpt>
      <trkpt lat="45.54123" lon="3.24966">
        <ele>416.04572</ele>
        <time>2012-08-29T09:29:27Z</time>
      </trkpt>
      <trkpt lat="45.54142" lon="3.24954">
        <ele>412.77173</ele>
        <time>2012-08-29T09:29:32Z</time>
      </trkpt>
      <trkpt lat="45.54158" lon="3.24976">
        <ele>409.70227</ele>
        <time>2012-08-29T09:29:36Z</time>
      </trkpt>
      <trkpt lat="45.5417" lon="3.24999">
        <ele>408.67023</ele>
        <time>2012-08-29T09:29:39Z</time>
      </trkpt>
      <trkpt lat="45.54183" lon="3.25024">
        <ele>408.37546</ele>
        <time>2012-08-29T09:29:42Z</time>
      </trkpt>
      <trkpt lat="45.54205" lon="3.25042">
        <ele>410.02652</ele>
        <time>2012-08-29T09:29:46Z</time>
      </trkpt>
      <trkpt lat="45.54224" lon="3.25055">
        <ele>410.91327</ele>
        <time>2012-08-29T09:29:49Z</time>
      </trkpt>
      <trkpt lat="45.54241" lon="3.2508">
        <ele>412.26236</ele>
        <time>2012-08-29T09:29:52Z</time>
      </trkpt>
      <trkpt lat="45.54263" lon="3.25095">
        <ele>412.22995</ele>
        <time>2012-08-29T09:29:55Z</time>
      </trkpt>
      <trkpt lat="45.5428" lon="3.25109">
        <ele>411.49442</ele>
        <time>2012-08-29T09:29:58Z</time>
      </trkpt>
      <trkpt lat="45.54297" lon="3.25124">
        <ele>411.7419</ele>
        <time>2012-08-29T09:30:01Z</time>
      </trkpt>
      <trkpt lat="45.54317" lon="3.25137">
        <ele>412.34476</ele>
        <time>2012-08-29T09:30:04Z</time>
      </trkpt>
      <trkpt lat="45.54336" lon="3.2515">
        <ele>411.96628</ele>
        <time>2012-08-29T09:30:07Z</time>
      </trkpt>
      <trkpt lat="45.54355" lon="3.25162">
        <ele>412.1613</ele>
        <time>2012-08-29T09:30:10Z</time>
      </trkpt>
      <trkpt lat="45.54372" lon="3.25174">
        <ele>412.32013</ele>
        <time>2012-08-29T09:30:13Z</time>
      </trkpt>
      <trkpt lat="45.54384" lon="3.25194">
        <ele>411.5965</ele>
        <time>2012-08-29T09:30:15Z</time>
      </trkpt>
      <trkpt lat="45.54393" lon="3.25217">
        <ele>410.97092</ele>
        <time>2012-08-29T09:30:19Z</time>
      </trkpt>
      <trkpt lat="45.54399" lon="3.25254">
        <ele>411.2825</ele>
        <time>2012-08-29T09:30:23Z</time>
      </trkpt>
      <trkpt lat="45.544" lon="3.25286">
        <ele>411.89</ele>
        <time>2012-08-29T09:30:25Z</time>
      </trkpt>
      <trkpt lat="45.54397" lon="3.25317">
        <ele>411.7229</ele>
        <time>2012-08-29T09:30:30Z</time>
      </trkpt>
      <trkpt lat="45.54387" lon="3.25338">
        <ele>411.818</ele>
        <time>2012-08-29T09:30:33Z</time>
      </trkpt>
      <trkpt lat="45.54373" lon="3.25362">
        <ele>408.32043</ele>
        <time>2012-08-29T09:30:37Z</time>
      </trkpt>
      <trkpt lat="45.5435" lon="3.25366">
        <ele>405.89978</ele>
        <time>2012-08-29T09:30:39Z</time>
      </trkpt>
      <trkpt lat="45.54328" lon="3.2538">
        <ele>404.83478</ele>
        <time>2012-08-29T09:30:43Z</time>
      </trkpt>
      <trkpt lat="45.54334" lon="3.25411">
        <ele>403.85895</ele>
        <time>2012-08-29T09:30:46Z</time>
      </trkpt>
      <trkpt lat="45.54338" lon="3.25441">
        <ele>403.43475</ele>
        <time>2012-08-29T09:30:49Z</time>
      </trkpt>
      <trkpt lat="45.54338" lon="3.25471">
        <ele>404.1144</ele>
        <time>2012-08-29T09:30:52Z</time>
      </trkpt>
      <trkpt lat="45.54341" lon="3.25504">
        <ele>405.13376</ele>
        <time>2012-08-29T09:30:57Z</time>
      </trkpt>
      <trkpt lat="45.54342" lon="3.2553">
        <ele>405.596</ele>
        <time>2012-08-29T09:30:59Z</time>
      </trkpt>
      <trkpt lat="45.54349" lon="3.25555">
        <ele>404.4131</ele>
        <time>2012-08-29T09:31:04Z</time>
      </trkpt>
      <trkpt lat="45.54363" lon="3.25577">
        <ele>402.79816</ele>
        <time>2012-08-29T09:31:09Z</time>
      </trkpt>
      <trkpt lat="45.54366" lon="3.25603">
        <ele>401.05988</ele>
        <time>2012-08-29T09:31:13Z</time>
      </trkpt>
      <trkpt lat="45.54352" lon="3.25625">
        <ele>401.7895</ele>
        <time>2012-08-29T09:31:19Z</time>
      </trkpt>
      <trkpt lat="45.54355" lon="3.25655">
        <ele>403.36377</ele>
        <time>2012-08-29T09:31:23Z</time>
      </trkpt>
      <trkpt lat="45.54365" lon="3.25687">
        <ele>402.6576</ele>
        <time>2012-08-29T09:31:27Z</time>
      </trkpt>
      <trkpt lat="45.54358" lon="3.25712">
        <ele>398.60226</ele>
        <time>2012-08-29T09:31:32Z</time>
      </trkpt>
      <trkpt lat="45.54341" lon="3.25729">
        <ele>392.20224</ele>
        <time>2012-08-29T09:31:36Z</time>
      </trkpt>
      <trkpt lat="45.54333" lon="3.25753">
        <ele>390.61896</ele>
        <time>2012-08-29T09:31:41Z</time>
      </trkpt>
      <trkpt lat="45.54331" lon="3.25779">
        <ele>391.0774</ele>
        <time>2012-08-29T09:31:45Z</time>
      </trkpt>
      <trkpt lat="45.54331" lon="3.2581">
        <ele>392.36526</ele>
        <time>2012-08-29T09:31:50Z</time>
      </trkpt>
      <trkpt lat="45.54322" lon="3.25839">
        <ele>392.67252</ele>
        <time>2012-08-29T09:31:54Z</time>
      </trkpt>
      <trkpt lat="45.54318" lon="3.25865">
        <ele>392.97986</ele>
        <time>2012-08-29T09:31:58Z</time>
      </trkpt>
      <trkpt lat="45.54315" lon="3.25892">
        <ele>393.08636</ele>
        <time>2012-08-29T09:32:00Z</time>
      </trkpt>
      <trkpt lat="45.54319" lon="3.25925">
        <ele>392.74945</ele>
        <time>2012-08-29T09:32:03Z</time>
      </trkpt>
      <trkpt lat="45.54336" lon="3.25936">
        <ele>393.84793</ele>
        <time>2012-08-29T09:32:05Z</time>
      </trkpt>
      <trkpt lat="45.54356" lon="3.25943">
        <ele>396.69983</ele>
        <time>2012-08-29T09:32:10Z</time>
      </trkpt>
      <trkpt lat="45.54375" lon="3.25954">
        <ele>398.18344</ele>
        <time>2012-08-29T09:32:14Z</time>
      </trkpt>
      <trkpt lat="45.54391" lon="3.25981">
        <ele>398.80325</ele>
        <time>2012-08-29T09:32:18Z</time>
      </trkpt>
      <trkpt lat="45.54403" lon="3.26001">
        <ele>399.72845</ele>
        <time>2012-08-29T09:32:21Z</time>
      </trkpt>
      <trkpt lat="45.54417" lon="3.26025">
        <ele>400.7969</ele>
        <time>2012-08-29T09:32:24Z</time>
      </trkpt>
      <trkpt lat="45.54422" lon="3.26052">
        <ele>401.04608</ele>
        <time>2012-08-29T09:32:27Z</time>
      </trkpt>
      <trkpt lat="45.54424" lon="3.26085">
        <ele>399.6731</ele>
        <time>2012-08-29T09:32:30Z</time>
      </trkpt>
      <trkpt lat="45.54426" lon="3.26113">
        <ele>398.37665</ele>
        <time>2012-08-29T09:32:33Z</time>
      </trkpt>
      <trkpt lat="45.54428" lon="3.2614">
        <ele>397.25317</ele>
        <time>2012-08-29T09:32:36Z</time>
      </trkpt>
      <trkpt lat="45.54429" lon="3.26172">
        <ele>395.94638</ele>
        <time>2012-08-29T09:32:39Z</time>
      </trkpt>
      <trkpt lat="45.54427" lon="3.26202">
        <ele>395.1873</ele>
        <time>2012-08-29T09:32:42Z</time>
      </trkpt>
      <trkpt lat="45.54431" lon="3.26233">
        <ele>394.5064</ele>
        <time>2012-08-29T09:32:46Z</time>
      </trkpt>
      <trkpt lat="45.5444" lon="3.26256">
        <ele>393.3579</ele>
        <time>2012-08-29T09:32:48Z</time>
      </trkpt>
      <trkpt lat="45.54442" lon="3.26284">
        <ele>392.61432</ele>
        <time>2012-08-29T09:32:53Z</time>
      </trkpt>
      <trkpt lat="45.54444" lon="3.26311">
        <ele>391.53632</ele>
        <time>2012-08-29T09:32:59Z</time>
      </trkpt>
      <trkpt lat="45.54447" lon="3.26338">
        <ele>391.00992</ele>
        <time>2012-08-29T09:33:04Z</time>
      </trkpt>
      <trkpt lat="45.54446" lon="3.26368">
        <ele>390.0857</ele>
        <time>2012-08-29T09:33:11Z</time>
      </trkpt>
      <trkpt lat="45.54452" lon="3.26395">
        <ele>391.08444</ele>
        <time>2012-08-29T09:33:16Z</time>
      </trkpt>
      <trkpt lat="45.54459" lon="3.26422">
        <ele>393.94772</ele>
        <time>2012-08-29T09:33:20Z</time>
      </trkpt>
      <trkpt lat="45.54467" lon="3.2645">
        <ele>396.7224</ele>
        <time>2012-08-29T09:33:23Z</time>
      </trkpt>
      <trkpt lat="45.54477" lon="3.26473">
        <ele>397.15503</ele>
        <time>2012-08-29T09:33:28Z</time>
      </trkpt>
      <trkpt lat="45.54485" lon="3.26498">
        <ele>397.40717</ele>
        <time>2012-08-29T09:33:32Z</time>
      </trkpt>
      <trkpt lat="45.54488" lon="3.26528">
        <ele>397.4903</ele>
        <time>2012-08-29T09:33:37Z</time>
      </trkpt>
      <trkpt lat="45.54494" lon="3.26552">
        <ele>397.89877</ele>
        <time>2012-08-29T09:33:41Z</time>
      </trkpt>
      <trkpt lat="45.54496" lon="3.26578">
        <ele>399.32062</ele>
        <time>2012-08-29T09:33:45Z</time>
      </trkpt>
      <trkpt lat="45.54503" lon="3.26603">
        <ele>400.74045</ele>
        <time>2012-08-29T09:33:48Z</time>
      </trkpt>
      <trkpt lat="45.54512" lon="3.26628">
        <ele>401.3785</ele>
        <time>2012-08-29T09:33:50Z</time>
      </trkpt>
      <trkpt lat="45.5452" lon="3.26653">
        <ele>402.84232</ele>
        <time>2012-08-29T09:33:55Z</time>
      </trkpt>
      <trkpt lat="45.54531" lon="3.26681">
        <ele>403.53088</ele>
        <time>2012-08-29T09:33:59Z</time>
      </trkpt>
      <trkpt lat="45.54533" lon="3.26707">
        <ele>404.85416</ele>
        <time>2012-08-29T09:34:02Z</time>
      </trkpt>
      <trkpt lat="45.54537" lon="3.26737">
        <ele>405.9096</ele>
        <time>2012-08-29T09:34:06Z</time>
      </trkpt>
      <trkpt lat="45.54536" lon="3.26772">
        <ele>407.228</ele>
        <time>2012-08-29T09:34:09Z</time>
      </trkpt>
      <trkpt lat="45.54536" lon="3.26801">
        <ele>406.2014</ele>
        <time>2012-08-29T09:34:12Z</time>
      </trkpt>
      <trkpt lat="45.54531" lon="3.26828">
        <ele>404.01987</ele>
        <time>2012-08-29T09:34:15Z</time>
      </trkpt>
      <trkpt lat="45.54521" lon="3.26851">
        <ele>403.10263</ele>
        <time>2012-08-29T09:34:18Z</time>
      </trkpt>
      <trkpt lat="45.54523" lon="3.26882">
        <ele>402.03757</ele>
        <time>2012-08-29T09:34:22Z</time>
      </trkpt>
      <trkpt lat="45.54544" lon="3.26897">
        <ele>401.41373</ele>
        <time>2012-08-29T09:34:26Z</time>
      </trkpt>
      <trkpt lat="45.54567" lon="3.26908">
        <ele>402.7148</ele>
        <time>2012-08-29T09:34:30Z</time>
      </trkpt>
      <trkpt lat="45.54591" lon="3.26918">
        <ele>402.15457</ele>
        <time>2012-08-29T09:34:34Z</time>
      </trkpt>
      <trkpt lat="45.54613" lon="3.26928">
        <ele>402.08008</ele>
        <time>2012-08-29T09:34:38Z</time>
      </trkpt>
      <trkpt lat="45.54636" lon="3.26935">
        <ele>402.54047</ele>
        <time>2012-08-29T09:34:42Z</time>
      </trkpt>
      <trkpt lat="45.54654" lon="3.26939">
        <ele>403.02383</ele>
        <time>2012-08-29T09:34:45Z</time>
      </trkpt>
      <trkpt lat="45.54674" lon="3.2694">
        <ele>403.52618</ele>
        <time>2012-08-29T09:34:48Z</time>
      </trkpt>
      <trkpt lat="45.54695" lon="3.26937">
        <ele>403.91782</ele>
        <time>2012-08-29T09:34:51Z</time>
      </trkpt>
      <trkpt lat="45.54717" lon="3.26937">
        <ele>404.15646</ele>
        <time>2012-08-29T09:34:54Z</time>
      </trkpt>
      <trkpt lat="45.54739" lon="3.26941">
        <ele>403.7134</ele>
        <time>2012-08-29T09:34:57Z</time>
      </trkpt>
      <trkpt lat="45.54763" lon="3.26946">
        <ele>403.19592</ele>
        <time>2012-08-29T09:35:01Z</time>
      </trkpt>
      <trkpt lat="45.54787" lon="3.26949">
        <ele>403.4988</ele>
        <time>2012-08-29T09:35:04Z</time>
      </trkpt>
      <trkpt lat="45.5481" lon="3.26957">
        <ele>403.64218</ele>
        <time>2012-08-29T09:35:07Z</time>
      </trkpt>
      <trkpt lat="45.54829" lon="3.26959">
        <ele>403.01675</ele>
        <time>2012-08-29T09:35:10Z</time>
      </trkpt>
      <trkpt lat="45.54849" lon="3.26955">
        <ele>402.78415</ele>
        <time>2012-08-29T09:35:13Z</time>
      </trkpt>
      <trkpt lat="45.54867" lon="3.26956">
        <ele>402.7907</ele>
        <time>2012-08-29T09:35:16Z</time>
      </trkpt>
      <trkpt lat="45.5489" lon="3.26954">
        <ele>402.42</ele>
        <time>2012-08-29T09:35:19Z</time>
      </trkpt>
      <trkpt lat="45.54912" lon="3.26951">
        <ele>401.53397</ele>
        <time>2012-08-29T09:35:22Z</time>
      </trkpt>
      <trkpt lat="45.54937" lon="3.2695">
        <ele>400.4086</ele>
        <time>2012-08-29T09:35:25Z</time>
      </trkpt>
      <trkpt lat="45.54956" lon="3.26945">
        <ele>400.27444</ele>
        <time>2012-08-29T09:35:28Z</time>
      </trkpt>
      <trkpt lat="45.54977" lon="3.26942">
        <ele>399.68192</ele>
        <time>2012-08-29T09:35:31Z</time>
      </trkpt>
      <trkpt lat="45.54999" lon="3.26938">
        <ele>399.81488</ele>
        <time>2012-08-29T09:35:35Z</time>
      </trkpt>
      <trkpt lat="45.55021" lon="3.26932">
        <ele>400.84955</ele>
        <time>2012-08-29T09:35:39Z</time>
      </trkpt>
      <trkpt lat="45.55044" lon="3.26929">
        <ele>400.80463</ele>
        <time>2012-08-29T09:35:43Z</time>
      </trkpt>
      <trkpt lat="45.55061" lon="3.26947">
        <ele>398.74277</ele>
        <time>2012-08-29T09:35:47Z</time>
      </trkpt>
      <trkpt lat="45.55065" lon="3.26978">
        <ele>398.39157</ele>
        <time>2012-08-29T09:35:51Z</time>
      </trkpt>
      <trkpt lat="45.5507" lon="3.27004">
        <ele>397.62354</ele>
        <time>2012-08-29T09:35:54Z</time>
      </trkpt>
      <trkpt lat="45.55073" lon="3.2703">
        <ele>397.22137</ele>
        <time>2012-08-29T09:35:57Z</time>
      </trkpt>
      <trkpt lat="45.55077" lon="3.27063">
        <ele>396.95587</ele>
        <time>2012-08-29T09:36:01Z</time>
      </trkpt>
      <trkpt lat="45.55081" lon="3.2709">
        <ele>396.9772</ele>
        <time>2012-08-29T09:36:04Z</time>
      </trkpt>
      <trkpt lat="45.55087" lon="3.27116">
        <ele>397.14716</ele>
        <time>2012-08-29T09:36:07Z</time>
      </trkpt>
      <trkpt lat="45.55104" lon="3.27126">
        <ele>397.13446</ele>
        <time>2012-08-29T09:36:10Z</time>
      </trkpt>
      <trkpt lat="45.55123" lon="3.27118">
        <ele>397.201</ele>
        <time>2012-08-29T09:36:13Z</time>
      </trkpt>
      <trkpt lat="45.55141" lon="3.27106">
        <ele>397.5306</ele>
        <time>2012-08-29T09:36:16Z</time>
      </trkpt>
      <trkpt lat="45.55158" lon="3.27095">
        <ele>398.39157</ele>
        <time>2012-08-29T09:36:19Z</time>
      </trkpt>
      <trkpt lat="45.55177" lon="3.27085">
        <ele>398.35788</ele>
        <time>2012-08-29T09:36:22Z</time>
      </trkpt>
      <trkpt lat="45.55196" lon="3.27076">
        <ele>397.5062</ele>
        <time>2012-08-29T09:36:25Z</time>
      </trkpt>
      <trkpt lat="45.55213" lon="3.27068">
        <ele>396.75626</ele>
        <time>2012-08-29T09:36:28Z</time>
      </trkpt>
      <trkpt lat="45.55237" lon="3.27081">
        <ele>397.36456</ele>
        <time>2012-08-29T09:36:32Z</time>
      </trkpt>
      <trkpt lat="45.55255" lon="3.27097">
        <ele>396.9543</ele>
        <time>2012-08-29T09:36:35Z</time>
      </trkpt>
      <trkpt lat="45.55277" lon="3.27106">
        <ele>396.32654</ele>
        <time>2012-08-29T09:36:38Z</time>
      </trkpt>
      <trkpt lat="45.55299" lon="3.27114">
        <ele>395.46796</ele>
        <time>2012-08-29T09:36:41Z</time>
      </trkpt>
      <trkpt lat="45.55321" lon="3.27116">
        <ele>395.65262</ele>
        <time>2012-08-29T09:36:44Z</time>
      </trkpt>
      <trkpt lat="45.5534" lon="3.271">
        <ele>394.97357</ele>
        <time>2012-08-29T09:36:48Z</time>
      </trkpt>
      <trkpt lat="45.55355" lon="3.27082">
        <ele>393.62866</ele>
        <time>2012-08-29T09:36:52Z</time>
      </trkpt>
      <trkpt lat="45.55377" lon="3.27093">
        <ele>391.59177</ele>
        <time>2012-08-29T09:36:56Z</time>
      </trkpt>
      <trkpt lat="45.55396" lon="3.27109">
        <ele>389.67206</ele>
        <time>2012-08-29T09:36:59Z</time>
      </trkpt>
      <trkpt lat="45.55416" lon="3.27128">
        <ele>387.30124</ele>
        <time>2012-08-29T09:37:02Z</time>
      </trkpt>
      <trkpt lat="45.55432" lon="3.27143">
        <ele>386.05463</ele>
        <time>2012-08-29T09:37:04Z</time>
      </trkpt>
      <trkpt lat="45.55447" lon="3.27158">
        <ele>385.28467</ele>
        <time>2012-08-29T09:37:06Z</time>
      </trkpt>
      <trkpt lat="45.55463" lon="3.27174">
        <ele>384.6828</ele>
        <time>2012-08-29T09:37:08Z</time>
      </trkpt>
      <trkpt lat="45.55478" lon="3.27187">
        <ele>384.01303</ele>
        <time>2012-08-29T09:37:10Z</time>
      </trkpt>
      <trkpt lat="45.55494" lon="3.27201">
        <ele>383.5675</ele>
        <time>2012-08-29T09:37:12Z</time>
      </trkpt>
      <trkpt lat="45.55513" lon="3.27221">
        <ele>383.4368</ele>
        <time>2012-08-29T09:37:15Z</time>
      </trkpt>
      <trkpt lat="45.55532" lon="3.2724">
        <ele>382.67072</ele>
        <time>2012-08-29T09:37:18Z</time>
      </trkpt>
      <trkpt lat="45.55553" lon="3.27256">
        <ele>382.06473</ele>
        <time>2012-08-29T09:37:21Z</time>
      </trkpt>
      <trkpt lat="45.5557" lon="3.27272">
        <ele>381.38095</ele>
        <time>2012-08-29T09:37:24Z</time>
      </trkpt>
      <trkpt lat="45.55589" lon="3.27289">
        <ele>381.25912</ele>
        <time>2012-08-29T09:37:28Z</time>
      </trkpt>
      <trkpt lat="45.55606" lon="3.27306">
        <ele>381.55515</ele>
        <time>2012-08-29T09:37:31Z</time>
      </trkpt>
      <trkpt lat="45.55621" lon="3.27323">
        <ele>382.48</ele>
        <time>2012-08-29T09:37:34Z</time>
      </trkpt>
      <trkpt lat="45.55639" lon="3.27341">
        <ele>383.9053</ele>
        <time>2012-08-29T09:37:38Z</time>
      </trkpt>
      <trkpt lat="45.55656" lon="3.27358">
        <ele>384.89063</ele>
        <time>2012-08-29T09:37:42Z</time>
      </trkpt>
      <trkpt lat="45.55673" lon="3.27373">
        <ele>385.9864</ele>
        <time>2012-08-29T09:37:46Z</time>
      </trkpt>
      <trkpt lat="45.55692" lon="3.27391">
        <ele>386.80692</ele>
        <time>2012-08-29T09:37:49Z</time>
      </trkpt>
      <trkpt lat="45.55707" lon="3.27405">
        <ele>387.32376</ele>
        <time>2012-08-29T09:37:53Z</time>
      </trkpt>
      <trkpt lat="45.55723" lon="3.2742">
        <ele>386.82928</ele>
        <time>2012-08-29T09:37:56Z</time>
      </trkpt>
      <trkpt lat="45.5574" lon="3.27436">
        <ele>385.82068</ele>
        <time>2012-08-29T09:37:59Z</time>
      </trkpt>
      <trkpt lat="45.55759" lon="3.27454">
        <ele>383.9858</ele>
        <time>2012-08-29T09:38:02Z</time>
      </trkpt>
      <trkpt lat="45.55779" lon="3.27471">
        <ele>382.2758</ele>
        <time>2012-08-29T09:38:05Z</time>
      </trkpt>
      <trkpt lat="45.55797" lon="3.27489">
        <ele>381.34186</ele>
        <time>2012-08-29T09:38:08Z</time>
      </trkpt>
      <trkpt lat="45.55817" lon="3.27499">
        <ele>381.3666</ele>
        <time>2012-08-29T09:38:11Z</time>
      </trkpt>
      <trkpt lat="45.55842" lon="3.27513">
        <ele>380.22705</ele>
        <time>2012-08-29T09:38:14Z</time>
      </trkpt>
      <trkpt lat="45.55867" lon="3.27523">
        <ele>378.701</ele>
        <time>2012-08-29T09:38:17Z</time>
      </trkpt>
      <trkpt lat="45.55892" lon="3.2753">
        <ele>378.11813</ele>
        <time>2012-08-29T09:38:20Z</time>
      </trkpt>
      <trkpt lat="45.55917" lon="3.27536">
        <ele>377.53317</ele>
        <time>2012-08-29T09:38:23Z</time>
      </trkpt>
      <trkpt lat="45.55938" lon="3.27541">
        <ele>376.7364</ele>
        <time>2012-08-29T09:38:26Z</time>
      </trkpt>
      <trkpt lat="45.5593" lon="3.27567">
        <ele>373.8008</ele>
        <time>2012-08-29T09:38:32Z</time>
      </trkpt>
      <trkpt lat="45.55911" lon="3.27582">
        <ele>371.6618</ele>
        <time>2012-08-29T09:38:35Z</time>
      </trkpt>
      <trkpt lat="45.55894" lon="3.27596">
        <ele>371.3594</ele>
        <time>2012-08-29T09:38:38Z</time>
      </trkpt>
      <trkpt lat="45.55875" lon="3.27612">
        <ele>370.58823</ele>
        <time>2012-08-29T09:38:42Z</time>
      </trkpt>
      <trkpt lat="45.55858" lon="3.27632">
        <ele>370.86218</ele>
        <time>2012-08-29T09:38:46Z</time>
      </trkpt>
      <trkpt lat="45.55842" lon="3.27645">
        <ele>371.02988</ele>
        <time>2012-08-29T09:38:49Z</time>
      </trkpt>
      <trkpt lat="45.55822" lon="3.27658">
        <ele>370.64844</ele>
        <time>2012-08-29T09:38:53Z</time>
      </trkpt>
      <trkpt lat="45.55815" lon="3.27686">
        <ele>371.84125</ele>
        <time>2012-08-29T09:38:59Z</time>
      </trkpt>
      <trkpt lat="45.55825" lon="3.27709">
        <ele>371.61023</ele>
        <time>2012-08-29T09:39:03Z</time>
      </trkpt>
      <trkpt lat="45.55835" lon="3.27734">
        <ele>371.11057</ele>
        <time>2012-08-29T09:39:07Z</time>
      </trkpt>
      <trkpt lat="45.55847" lon="3.27761">
        <ele>370.49933</ele>
        <time>2012-08-29T09:39:11Z</time>
      </trkpt>
      <trkpt lat="45.55857" lon="3.27785">
        <ele>370.6364</ele>
        <time>2012-08-29T09:39:15Z</time>
      </trkpt>
      <trkpt lat="45.55868" lon="3.27809">
        <ele>370.62314</ele>
        <time>2012-08-29T09:39:19Z</time>
      </trkpt>
      <trkpt lat="45.55879" lon="3.27834">
        <ele>370.26465</ele>
        <time>2012-08-29T09:39:23Z</time>
      </trkpt>
      <trkpt lat="45.55889" lon="3.27859">
        <ele>370.15826</ele>
        <time>2012-08-29T09:39:27Z</time>
      </trkpt>
      <trkpt lat="45.55898" lon="3.27881">
        <ele>370.2363</ele>
        <time>2012-08-29T09:39:31Z</time>
      </trkpt>
      <trkpt lat="45.55911" lon="3.27907">
        <ele>370.27182</ele>
        <time>2012-08-29T09:39:36Z</time>
      </trkpt>
      <trkpt lat="45.55924" lon="3.2793">
        <ele>370.34607</ele>
        <time>2012-08-29T09:39:41Z</time>
      </trkpt>
      <trkpt lat="45.55939" lon="3.27949">
        <ele>371.4713</ele>
        <time>2012-08-29T09:39:45Z</time>
      </trkpt>
      <trkpt lat="45.55959" lon="3.27952">
        <ele>371.58423</ele>
        <time>2012-08-29T09:39:51Z</time>
      </trkpt>
      <trkpt lat="45.55976" lon="3.27962">
        <ele>374.26727</ele>
        <time>2012-08-29T09:39:56Z</time>
      </trkpt>
      <trkpt lat="45.55995" lon="3.27967">
        <ele>374.5619</ele>
        <time>2012-08-29T09:40:01Z</time>
      </trkpt>
      <trkpt lat="45.56016" lon="3.27965">
        <ele>375.62253</ele>
        <time>2012-08-29T09:40:07Z</time>
      </trkpt>
      <trkpt lat="45.56035" lon="3.2796">
        <ele>374.85562</ele>
        <time>2012-08-29T09:40:13Z</time>
      </trkpt>
      <trkpt lat="45.56054" lon="3.27962">
        <ele>374.80695</ele>
        <time>2012-08-29T09:40:21Z</time>
      </trkpt>
      <trkpt lat="45.56072" lon="3.27965">
        <ele>377.5708</ele>
        <time>2012-08-29T09:40:28Z</time>
      </trkpt>
      <trkpt lat="45.56089" lon="3.27973">
        <ele>379.84048</ele>
        <time>2012-08-29T09:40:35Z</time>
      </trkpt>
      <trkpt lat="45.56103" lon="3.27994">
        <ele>386.89822</ele>
        <time>2012-08-29T09:40:44Z</time>
      </trkpt>
      <trkpt lat="45.56119" lon="3.28017">
        <ele>392.10666</ele>
        <time>2012-08-29T09:40:53Z</time>
      </trkpt>
      <trkpt lat="45.56126" lon="3.28042">
        <ele>393.3308</ele>
        <time>2012-08-29T09:41:00Z</time>
      </trkpt>
      <trkpt lat="45.56133" lon="3.28067">
        <ele>395.85434</ele>
        <time>2012-08-29T09:41:16Z</time>
      </trkpt>
      <trkpt lat="45.56137" lon="3.28093">
        <ele>395.85938</ele>
        <time>2012-08-29T09:42:42Z</time>
      </trkpt>
      <trkpt lat="45.56141" lon="3.28118">
        <ele>395.48608</ele>
        <time>2012-08-29T09:42:47Z</time>
      </trkpt>
      <trkpt lat="45.56145" lon="3.28143">
        <ele>394.5943</ele>
        <time>2012-08-29T09:42:52Z</time>
      </trkpt>
      <trkpt lat="45.56148" lon="3.28171">
        <ele>394.6374</ele>
        <time>2012-08-29T09:42:58Z</time>
      </trkpt>
      <trkpt lat="45.56152" lon="3.282">
        <ele>396.59744</ele>
        <time>2012-08-29T09:43:04Z</time>
      </trkpt>
      <trkpt lat="45.56155" lon="3.28229">
        <ele>399.7951</ele>
        <time>2012-08-29T09:43:11Z</time>
      </trkpt>
      <trkpt lat="45.56157" lon="3.28258">
        <ele>401.93518</ele>
        <time>2012-08-29T09:43:17Z</time>
      </trkpt>
      <trkpt lat="45.5616" lon="3.28283">
        <ele>404.56873</ele>
        <time>2012-08-29T09:43:23Z</time>
      </trkpt>
      <trkpt lat="45.56164" lon="3.28311">
        <ele>406.30145</ele>
        <time>2012-08-29T09:43:29Z</time>
      </trkpt>
      <trkpt lat="45.56167" lon="3.28336">
        <ele>409.09985</ele>
        <time>2012-08-29T09:43:35Z</time>
      </trkpt>
      <trkpt lat="45.56176" lon="3.28362">
        <ele>411.59378</ele>
        <time>2012-08-29T09:43:41Z</time>
      </trkpt>
      <trkpt lat="45.56189" lon="3.28384">
        <ele>414.28778</ele>
        <time>2012-08-29T09:43:48Z</time>
      </trkpt>
      <trkpt lat="45.56203" lon="3.28405">
        <ele>417.63834</ele>
        <time>2012-08-29T09:43:54Z</time>
      </trkpt>
      <trkpt lat="45.5622" lon="3.28423">
        <ele>418.21304</ele>
        <time>2012-08-29T09:44:01Z</time>
      </trkpt>
      <trkpt lat="45.56234" lon="3.28439">
        <ele>418.3665</ele>
        <time>2012-08-29T09:44:07Z</time>
      </trkpt>
      <trkpt lat="45.56249" lon="3.28454">
        <ele>420.0678</ele>
        <time>2012-08-29T09:44:13Z</time>
      </trkpt>
      <trkpt lat="45.56266" lon="3.28469">
        <ele>422.3981</ele>
        <time>2012-08-29T09:44:19Z</time>
      </trkpt>
      <trkpt lat="45.56283" lon="3.28483">
        <ele>426.11066</ele>
        <time>2012-08-29T09:44:25Z</time>
      </trkpt>
      <trkpt lat="45.56301" lon="3.28495">
        <ele>428.52893</ele>
        <time>2012-08-29T09:44:31Z</time>
      </trkpt>
      <trkpt lat="45.5632" lon="3.28504">
        <ele>430.05035</ele>
        <time>2012-08-29T09:44:37Z</time>
      </trkpt>
      <trkpt lat="45.56334" lon="3.2852">
        <ele>430.51794</ele>
        <time>2012-08-29T09:44:42Z</time>
      </trkpt>
      <trkpt lat="45.56354" lon="3.28526">
        <ele>429.822</ele>
        <time>2012-08-29T09:44:47Z</time>
      </trkpt>
      <trkpt lat="45.56373" lon="3.28523">
        <ele>430.42712</ele>
        <time>2012-08-29T09:44:53Z</time>
      </trkpt>
      <trkpt lat="45.56391" lon="3.28518">
        <ele>430.57266</ele>
        <time>2012-08-29T09:44:58Z</time>
      </trkpt>
      <trkpt lat="45.5641" lon="3.28506">
        <ele>430.1385</ele>
        <time>2012-08-29T09:45:04Z</time>
      </trkpt>
      <trkpt lat="45.56423" lon="3.28482">
        <ele>430.5612</ele>
        <time>2012-08-29T09:45:10Z</time>
      </trkpt>
      <trkpt lat="45.56432" lon="3.28456">
        <ele>431.0298</ele>
        <time>2012-08-29T09:45:16Z</time>
      </trkpt>
      <trkpt lat="45.56446" lon="3.28433">
        <ele>433.2379</ele>
        <time>2012-08-29T09:45:22Z</time>
      </trkpt>
      <trkpt lat="45.56464" lon="3.28421">
        <ele>440.07336</ele>
        <time>2012-08-29T09:45:29Z</time>
      </trkpt>
      <trkpt lat="45.56483" lon="3.2841">
        <ele>446.9778</ele>
        <time>2012-08-29T09:45:35Z</time>
      </trkpt>
      <trkpt lat="45.56501" lon="3.28399">
        <ele>452.6512</ele>
        <time>2012-08-29T09:45:41Z</time>
      </trkpt>
      <trkpt lat="45.56519" lon="3.28382">
        <ele>457.039</ele>
        <time>2012-08-29T09:45:47Z</time>
      </trkpt>
      <trkpt lat="45.56537" lon="3.28366">
        <ele>459.39658</ele>
        <time>2012-08-29T09:45:52Z</time>
      </trkpt>
      <trkpt lat="45.56555" lon="3.28352">
        <ele>459.7587</ele>
        <time>2012-08-29T09:45:57Z</time>
      </trkpt>
      <trkpt lat="45.56572" lon="3.28334">
        <ele>460.4739</ele>
        <time>2012-08-29T09:46:02Z</time>
      </trkpt>
      <trkpt lat="45.56589" lon="3.28316">
        <ele>463.14594</ele>
        <time>2012-08-29T09:46:08Z</time>
      </trkpt>
      <trkpt lat="45.56608" lon="3.28299">
        <ele>465.0705</ele>
        <time>2012-08-29T09:46:13Z</time>
      </trkpt>
      <trkpt lat="45.56626" lon="3.28286">
        <ele>464.8285</ele>
        <time>2012-08-29T09:46:18Z</time>
      </trkpt>
      <trkpt lat="45.56645" lon="3.28273">
        <ele>464.08185</ele>
        <time>2012-08-29T09:46:24Z</time>
      </trkpt>
      <trkpt lat="45.56665" lon="3.28264">
        <ele>463.37527</ele>
        <time>2012-08-29T09:46:30Z</time>
      </trkpt>
      <trkpt lat="45.56684" lon="3.28266">
        <ele>463.89053</ele>
        <time>2012-08-29T09:46:35Z</time>
      </trkpt>
      <trkpt lat="45.56702" lon="3.28268">
        <ele>465.62814</ele>
        <time>2012-08-29T09:46:39Z</time>
      </trkpt>
      <trkpt lat="45.5672" lon="3.28276">
        <ele>469.6936</ele>
        <time>2012-08-29T09:46:47Z</time>
      </trkpt>
      <trkpt lat="45.56738" lon="3.28281">
        <ele>473.77692</ele>
        <time>2012-08-29T09:46:54Z</time>
      </trkpt>
      <trkpt lat="45.56758" lon="3.28283">
        <ele>476.97473</ele>
        <time>2012-08-29T09:47:01Z</time>
      </trkpt>
      <trkpt lat="45.56777" lon="3.28286">
        <ele>478.53976</ele>
        <time>2012-08-29T09:47:09Z</time>
      </trkpt>
      <trkpt lat="45.56795" lon="3.28293">
        <ele>480.95142</ele>
        <time>2012-08-29T09:47:16Z</time>
      </trkpt>
      <trkpt lat="45.56812" lon="3.28307">
        <ele>484.8341</ele>
        <time>2012-08-29T09:47:24Z</time>
      </trkpt>
      <trkpt lat="45.56825" lon="3.28328">
        <ele>482.16754</ele>
        <time>2012-08-29T09:47:32Z</time>
      </trkpt>
      <trkpt lat="45.56838" lon="3.28349">
        <ele>473.48688</ele>
        <time>2012-08-29T09:47:38Z</time>
      </trkpt>
      <trkpt lat="45.56849" lon="3.28369">
        <ele>468.3918</ele>
        <time>2012-08-29T09:47:44Z</time>
      </trkpt>
      <trkpt lat="45.56865" lon="3.28388">
        <ele>467.10062</ele>
        <time>2012-08-29T09:47:51Z</time>
      </trkpt>
      <trkpt lat="45.56881" lon="3.28399">
        <ele>466.40744</ele>
        <time>2012-08-29T09:47:57Z</time>
      </trkpt>
      <trkpt lat="45.56898" lon="3.28412">
        <ele>465.77026</ele>
        <time>2012-08-29T09:48:03Z</time>
      </trkpt>
      <trkpt lat="45.56917" lon="3.28426">
        <ele>465.94928</ele>
        <time>2012-08-29T09:48:10Z</time>
      </trkpt>
      <trkpt lat="45.56934" lon="3.28439">
        <ele>465.54892</ele>
        <time>2012-08-29T09:48:17Z</time>
      </trkpt>
      <trkpt lat="45.56951" lon="3.28455">
        <ele>467.1832</ele>
        <time>2012-08-29T09:48:24Z</time>
      </trkpt>
      <trkpt lat="45.56964" lon="3.28473">
        <ele>468.53992</ele>
        <time>2012-08-29T09:48:30Z</time>
      </trkpt>
      <trkpt lat="45.56975" lon="3.28494">
        <ele>470.34473</ele>
        <time>2012-08-29T09:48:36Z</time>
      </trkpt>
      <trkpt lat="45.56986" lon="3.28518">
        <ele>471.33615</ele>
        <time>2012-08-29T09:48:42Z</time>
      </trkpt>
      <trkpt lat="45.56997" lon="3.28542">
        <ele>472.9071</ele>
        <time>2012-08-29T09:48:49Z</time>
      </trkpt>
      <trkpt lat="45.57009" lon="3.28562">
        <ele>474.12097</ele>
        <time>2012-08-29T09:48:55Z</time>
      </trkpt>
      <trkpt lat="45.57019" lon="3.28585">
        <ele>475.08505</ele>
        <time>2012-08-29T09:49:01Z</time>
      </trkpt>
      <trkpt lat="45.57027" lon="3.28608">
        <ele>475.2514</ele>
        <time>2012-08-29T09:49:07Z</time>
      </trkpt>
      <trkpt lat="45.57032" lon="3.28634">
        <ele>474.31396</ele>
        <time>2012-08-29T09:49:13Z</time>
      </trkpt>
      <trkpt lat="45.57039" lon="3.28659">
        <ele>475.96313</ele>
        <time>2012-08-29T09:49:20Z</time>
      </trkpt>
      <trkpt lat="45.57048" lon="3.28684">
        <ele>477.63174</ele>
        <time>2012-08-29T09:49:27Z</time>
      </trkpt>
      <trkpt lat="45.57059" lon="3.28706">
        <ele>479.79703</ele>
        <time>2012-08-29T09:49:35Z</time>
      </trkpt>
      <trkpt lat="45.5707" lon="3.2873">
        <ele>483.23465</ele>
        <time>2012-08-29T09:49:45Z</time>
      </trkpt>
      <trkpt lat="45.57078" lon="3.28753">
        <ele>485.3553</ele>
        <time>2012-08-29T09:49:54Z</time>
      </trkpt>
      <trkpt lat="45.57084" lon="3.28781">
        <ele>488.15048</ele>
        <time>2012-08-29T09:50:04Z</time>
      </trkpt>
      <trkpt lat="45.57085" lon="3.28806">
        <ele>490.52756</ele>
        <time>2012-08-29T09:50:13Z</time>
      </trkpt>
      <trkpt lat="45.57084" lon="3.28833">
        <ele>493.0403</ele>
        <time>2012-08-29T09:50:22Z</time>
      </trkpt>
      <trkpt lat="45.57082" lon="3.2886">
        <ele>495.32468</ele>
        <time>2012-08-29T09:50:31Z</time>
      </trkpt>
      <trkpt lat="45.57078" lon="3.28888">
        <ele>498.0566</ele>
        <time>2012-08-29T09:50:41Z</time>
      </trkpt>
      <trkpt lat="45.57076" lon="3.28916">
        <ele>502.45673</ele>
        <time>2012-08-29T09:50:51Z</time>
      </trkpt>
      <trkpt lat="45.5708" lon="3.28941">
        <ele>503.42215</ele>
        <time>2012-08-29T09:51:00Z</time>
      </trkpt>
      <trkpt lat="45.57093" lon="3.28964">
        <ele>504.81177</ele>
        <time>2012-08-29T09:51:09Z</time>
      </trkpt>
      <trkpt lat="45.57106" lon="3.28983">
        <ele>503.8842</ele>
        <time>2012-08-29T09:51:18Z</time>
      </trkpt>
      <trkpt lat="45.57109" lon="3.29009">
        <ele>504.2466</ele>
        <time>2012-08-29T09:51:27Z</time>
      </trkpt>
      <trkpt lat="45.5711" lon="3.2904">
        <ele>503.74078</ele>
        <time>2012-08-29T09:51:33Z</time>
      </trkpt>
      <trkpt lat="45.57116" lon="3.29066">
        <ele>502.82803</ele>
        <time>2012-08-29T09:51:37Z</time>
      </trkpt>
      <trkpt lat="45.57132" lon="3.29084">
        <ele>501.98578</ele>
        <time>2012-08-29T09:51:40Z</time>
      </trkpt>
      <trkpt lat="45.57148" lon="3.29101">
        <ele>501.16327</ele>
        <time>2012-08-29T09:51:43Z</time>
      </trkpt>
      <trkpt lat="45.57164" lon="3.29119">
        <ele>500.57095</ele>
        <time>2012-08-29T09:51:46Z</time>
      </trkpt>
      <trkpt lat="45.57182" lon="3.29136">
        <ele>499.99765</ele>
        <time>2012-08-29T09:51:49Z</time>
      </trkpt>
      <trkpt lat="45.57202" lon="3.29154">
        <ele>499.38077</ele>
        <time>2012-08-29T09:51:52Z</time>
      </trkpt>
      <trkpt lat="45.57219" lon="3.29174">
        <ele>498.90958</ele>
        <time>2012-08-29T09:51:55Z</time>
      </trkpt>
      <trkpt lat="45.57237" lon="3.292">
        <ele>498.93268</ele>
        <time>2012-08-29T09:51:58Z</time>
      </trkpt>
      <trkpt lat="45.57257" lon="3.29226">
        <ele>497.94867</ele>
        <time>2012-08-29T09:52:01Z</time>
      </trkpt>
      <trkpt lat="45.57274" lon="3.29247">
        <ele>497.13666</ele>
        <time>2012-08-29T09:52:04Z</time>
      </trkpt>
      <trkpt lat="45.5729" lon="3.29268">
        <ele>496.28006</ele>
        <time>2012-08-29T09:52:07Z</time>
      </trkpt>
      <trkpt lat="45.57308" lon="3.29287">
        <ele>496.63898</ele>
        <time>2012-08-29T09:52:10Z</time>
      </trkpt>
      <trkpt lat="45.57323" lon="3.29303">
        <ele>497.08258</ele>
        <time>2012-08-29T09:52:13Z</time>
      </trkpt>
      <trkpt lat="45.57336" lon="3.29327">
        <ele>498.3151</ele>
        <time>2012-08-29T09:52:17Z</time>
      </trkpt>
      <trkpt lat="45.57347" lon="3.29354">
        <ele>499.16376</ele>
        <time>2012-08-29T09:52:22Z</time>
      </trkpt>
      <trkpt lat="45.57358" lon="3.29375">
        <ele>501.81888</ele>
        <time>2012-08-29T09:52:27Z</time>
      </trkpt>
      <trkpt lat="45.57371" lon="3.29394">
        <ele>505.1864</ele>
        <time>2012-08-29T09:52:33Z</time>
      </trkpt>
      <trkpt lat="45.57385" lon="3.29415">
        <ele>508.47162</ele>
        <time>2012-08-29T09:52:40Z</time>
      </trkpt>
      <trkpt lat="45.57397" lon="3.29434">
        <ele>509.76468</ele>
        <time>2012-08-29T09:52:46Z</time>
      </trkpt>
      <trkpt lat="45.57409" lon="3.29454">
        <ele>511.4849</ele>
        <time>2012-08-29T09:52:53Z</time>
      </trkpt>
      <trkpt lat="45.57424" lon="3.29474">
        <ele>512.7606</ele>
        <time>2012-08-29T09:52:59Z</time>
      </trkpt>
      <trkpt lat="45.5744" lon="3.29493">
        <ele>512.5001</ele>
        <time>2012-08-29T09:53:05Z</time>
      </trkpt>
      <trkpt lat="45.57454" lon="3.29513">
        <ele>512.2284</ele>
        <time>2012-08-29T09:53:11Z</time>
      </trkpt>
      <trkpt lat="45.57465" lon="3.29535">
        <ele>512.78784</ele>
        <time>2012-08-29T09:53:16Z</time>
      </trkpt>
      <trkpt lat="45.57476" lon="3.29558">
        <ele>513.66864</ele>
        <time>2012-08-29T09:53:21Z</time>
      </trkpt>
      <trkpt lat="45.57489" lon="3.29581">
        <ele>516.1176</ele>
        <time>2012-08-29T09:53:27Z</time>
      </trkpt>
      <trkpt lat="45.57499" lon="3.29603">
        <ele>517.2661</ele>
        <time>2012-08-29T09:53:33Z</time>
      </trkpt>
      <trkpt lat="45.57509" lon="3.2963">
        <ele>518.01294</ele>
        <time>2012-08-29T09:53:39Z</time>
      </trkpt>
      <trkpt lat="45.57519" lon="3.29654">
        <ele>519.1127</ele>
        <time>2012-08-29T09:53:44Z</time>
      </trkpt>
      <trkpt lat="45.57533" lon="3.29672">
        <ele>519.3768</ele>
        <time>2012-08-29T09:53:49Z</time>
      </trkpt>
      <trkpt lat="45.57551" lon="3.29686">
        <ele>519.8013</ele>
        <time>2012-08-29T09:53:55Z</time>
      </trkpt>
      <trkpt lat="45.5757" lon="3.29695">
        <ele>520.8161</ele>
        <time>2012-08-29T09:54:01Z</time>
      </trkpt>
      <trkpt lat="45.57588" lon="3.29701">
        <ele>522.6467</ele>
        <time>2012-08-29T09:54:06Z</time>
      </trkpt>
      <trkpt lat="45.57608" lon="3.29715">
        <ele>524.55695</ele>
        <time>2012-08-29T09:54:12Z</time>
      </trkpt>
      <trkpt lat="45.57626" lon="3.29729">
        <ele>525.4043</ele>
        <time>2012-08-29T09:54:18Z</time>
      </trkpt>
      <trkpt lat="45.57641" lon="3.29749">
        <ele>526.816</ele>
        <time>2012-08-29T09:54:25Z</time>
      </trkpt>
      <trkpt lat="45.57649" lon="3.29777">
        <ele>529.3589</ele>
        <time>2012-08-29T09:54:32Z</time>
      </trkpt>
      <trkpt lat="45.57654" lon="3.29804">
        <ele>533.09717</ele>
        <time>2012-08-29T09:54:38Z</time>
      </trkpt>
      <trkpt lat="45.57653" lon="3.2983">
        <ele>534.0342</ele>
        <time>2012-08-29T09:54:44Z</time>
      </trkpt>
      <trkpt lat="45.57647" lon="3.2986">
        <ele>536.05426</ele>
        <time>2012-08-29T09:54:51Z</time>
      </trkpt>
      <trkpt lat="45.57649" lon="3.29887">
        <ele>537.3348</ele>
        <time>2012-08-29T09:54:57Z</time>
      </trkpt>
      <trkpt lat="45.5765" lon="3.29913">
        <ele>536.736</ele>
        <time>2012-08-29T09:55:02Z</time>
      </trkpt>
      <trkpt lat="45.57636" lon="3.2994">
        <ele>534.24036</ele>
        <time>2012-08-29T09:55:07Z</time>
      </trkpt>
      <trkpt lat="45.57617" lon="3.29956">
        <ele>531.8066</ele>
        <time>2012-08-29T09:55:10Z</time>
      </trkpt>
      <trkpt lat="45.57598" lon="3.2998">
        <ele>529.2736</ele>
        <time>2012-08-29T09:55:13Z</time>
      </trkpt>
      <trkpt lat="45.57584" lon="3.3">
        <ele>526.8253</ele>
        <time>2012-08-29T09:55:16Z</time>
      </trkpt>
      <trkpt lat="45.57582" lon="3.30026">
        <ele>524.12</ele>
        <time>2012-08-29T09:55:20Z</time>
      </trkpt>
      <trkpt lat="45.57597" lon="3.30045">
        <ele>523.13434</ele>
        <time>2012-08-29T09:55:24Z</time>
      </trkpt>
      <trkpt lat="45.57614" lon="3.30062">
        <ele>523.27313</ele>
        <time>2012-08-29T09:55:29Z</time>
      </trkpt>
      <trkpt lat="45.57629" lon="3.30086">
        <ele>524.1729</ele>
        <time>2012-08-29T09:55:34Z</time>
      </trkpt>
      <trkpt lat="45.57639" lon="3.30109">
        <ele>524.30786</ele>
        <time>2012-08-29T09:55:37Z</time>
      </trkpt>
      <trkpt lat="45.57648" lon="3.30136">
        <ele>522.94604</ele>
        <time>2012-08-29T09:55:40Z</time>
      </trkpt>
      <trkpt lat="45.57659" lon="3.30161">
        <ele>521.01996</ele>
        <time>2012-08-29T09:55:43Z</time>
      </trkpt>
      <trkpt lat="45.57677" lon="3.30182">
        <ele>518.5199</ele>
        <time>2012-08-29T09:55:46Z</time>
      </trkpt>
      <trkpt lat="45.57697" lon="3.30204">
        <ele>516.6042</ele>
        <time>2012-08-29T09:55:49Z</time>
      </trkpt>
      <trkpt lat="45.57714" lon="3.30225">
        <ele>515.81165</ele>
        <time>2012-08-29T09:55:52Z</time>
      </trkpt>
      <trkpt lat="45.57728" lon="3.30242">
        <ele>515.2961</ele>
        <time>2012-08-29T09:55:55Z</time>
      </trkpt>
      <trkpt lat="45.57743" lon="3.3026">
        <ele>515.46606</ele>
        <time>2012-08-29T09:55:58Z</time>
      </trkpt>
      <trkpt lat="45.57756" lon="3.30278">
        <ele>515.4706</ele>
        <time>2012-08-29T09:56:01Z</time>
      </trkpt>
      <trkpt lat="45.5777" lon="3.30302">
        <ele>515.1789</ele>
        <time>2012-08-29T09:56:05Z</time>
      </trkpt>
      <trkpt lat="45.57784" lon="3.30323">
        <ele>514.97015</ele>
        <time>2012-08-29T09:56:09Z</time>
      </trkpt>
      <trkpt lat="45.578" lon="3.30343">
        <ele>515.0451</ele>
        <time>2012-08-29T09:56:14Z</time>
      </trkpt>
      <trkpt lat="45.57814" lon="3.30363">
        <ele>515.4904</ele>
        <time>2012-08-29T09:56:19Z</time>
      </trkpt>
      <trkpt lat="45.57829" lon="3.30386">
        <ele>515.26117</ele>
        <time>2012-08-29T09:56:24Z</time>
      </trkpt>
      <trkpt lat="45.57843" lon="3.30409">
        <ele>514.1103</ele>
        <time>2012-08-29T09:56:28Z</time>
      </trkpt>
      <trkpt lat="45.57852" lon="3.30433">
        <ele>512.6923</ele>
        <time>2012-08-29T09:56:31Z</time>
      </trkpt>
      <trkpt lat="45.57858" lon="3.3046">
        <ele>511.3551</ele>
        <time>2012-08-29T09:56:34Z</time>
      </trkpt>
      <trkpt lat="45.57866" lon="3.30486">
        <ele>509.80344</ele>
        <time>2012-08-29T09:56:37Z</time>
      </trkpt>
      <trkpt lat="45.57874" lon="3.30513">
        <ele>507.7301</ele>
        <time>2012-08-29T09:56:40Z</time>
      </trkpt>
      <trkpt lat="45.57881" lon="3.30539">
        <ele>506.02414</ele>
        <time>2012-08-29T09:56:43Z</time>
      </trkpt>
      <trkpt lat="45.57891" lon="3.30568">
        <ele>505.01105</ele>
        <time>2012-08-29T09:56:47Z</time>
      </trkpt>
      <trkpt lat="45.579" lon="3.30593">
        <ele>506.0303</ele>
        <time>2012-08-29T09:56:56Z</time>
      </trkpt>
      <trkpt lat="45.57911" lon="3.30617">
        <ele>506.09238</ele>
        <time>2012-08-29T09:57:03Z</time>
      </trkpt>
      <trkpt lat="45.5792" lon="3.3064">
        <ele>506.17386</ele>
        <time>2012-08-29T09:57:09Z</time>
      </trkpt>
      <trkpt lat="45.5793" lon="3.30664">
        <ele>506.31656</ele>
        <time>2012-08-29T09:57:15Z</time>
      </trkpt>
      <trkpt lat="45.57939" lon="3.30688">
        <ele>507.22748</ele>
        <time>2012-08-29T09:57:21Z</time>
      </trkpt>
      <trkpt lat="45.57951" lon="3.30711">
        <ele>508.6716</ele>
        <time>2012-08-29T09:57:29Z</time>
      </trkpt>
      <trkpt lat="45.57968" lon="3.30725">
        <ele>509.5456</ele>
        <time>2012-08-29T09:57:35Z</time>
      </trkpt>
      <trkpt lat="45.57987" lon="3.30732">
        <ele>510.6284</ele>
        <time>2012-08-29T09:57:41Z</time>
      </trkpt>
      <trkpt lat="45.58008" lon="3.3074">
        <ele>511.9961</ele>
        <time>2012-08-29T09:57:47Z</time>
      </trkpt>
      <trkpt lat="45.58025" lon="3.30745">
        <ele>512.28064</ele>
        <time>2012-08-29T09:57:52Z</time>
      </trkpt>
      <trkpt lat="45.58046" lon="3.3075">
        <ele>513.90405</ele>
        <time>2012-08-29T09:57:58Z</time>
      </trkpt>
      <trkpt lat="45.58066" lon="3.30755">
        <ele>514.7591</ele>
        <time>2012-08-29T09:58:04Z</time>
      </trkpt>
      <trkpt lat="45.58087" lon="3.30764">
        <ele>516.4774</ele>
        <time>2012-08-29T09:58:10Z</time>
      </trkpt>
      <trkpt lat="45.58107" lon="3.30772">
        <ele>517.8221</ele>
        <time>2012-08-29T09:58:16Z</time>
      </trkpt>
      <trkpt lat="45.58128" lon="3.3078">
        <ele>517.05634</ele>
        <time>2012-08-29T09:58:22Z</time>
      </trkpt>
      <trkpt lat="45.58145" lon="3.30787">
        <ele>517.35004</ele>
        <time>2012-08-29T09:58:27Z</time>
      </trkpt>
      <trkpt lat="45.58163" lon="3.30794">
        <ele>517.7484</ele>
        <time>2012-08-29T09:58:32Z</time>
      </trkpt>
      <trkpt lat="45.58181" lon="3.30801">
        <ele>517.45325</ele>
        <time>2012-08-29T09:58:37Z</time>
      </trkpt>
      <trkpt lat="45.58202" lon="3.30806">
        <ele>517.2195</ele>
        <time>2012-08-29T09:58:43Z</time>
      </trkpt>
      <trkpt lat="45.58223" lon="3.30807">
        <ele>517.0772</ele>
        <time>2012-08-29T09:58:49Z</time>
      </trkpt>
      <trkpt lat="45.58244" lon="3.30806">
        <ele>517.7518</ele>
        <time>2012-08-29T09:58:55Z</time>
      </trkpt>
      <trkpt lat="45.58265" lon="3.30809">
        <ele>518.2599</ele>
        <time>2012-08-29T09:59:00Z</time>
      </trkpt>
      <trkpt lat="45.58286" lon="3.30811">
        <ele>518.7239</ele>
        <time>2012-08-29T09:59:05Z</time>
      </trkpt>
      <trkpt lat="45.58304" lon="3.30817">
        <ele>518.8802</ele>
        <time>2012-08-29T09:59:10Z</time>
      </trkpt>
      <trkpt lat="45.58325" lon="3.3082">
        <ele>521.284</ele>
        <time>2012-08-29T09:59:15Z</time>
      </trkpt>
      <trkpt lat="45.58345" lon="3.30817">
        <ele>521.91943</ele>
        <time>2012-08-29T09:59:19Z</time>
      </trkpt>
      <trkpt lat="45.58368" lon="3.30808">
        <ele>522.0844</ele>
        <time>2012-08-29T09:59:24Z</time>
      </trkpt>
      <trkpt lat="45.58387" lon="3.30803">
        <ele>522.5614</ele>
        <time>2012-08-29T09:59:28Z</time>
      </trkpt>
      <trkpt lat="45.58405" lon="3.30795">
        <ele>524.5982</ele>
        <time>2012-08-29T09:59:32Z</time>
      </trkpt>
      <trkpt lat="45.58424" lon="3.30784">
        <ele>524.4644</ele>
        <time>2012-08-29T09:59:37Z</time>
      </trkpt>
      <trkpt lat="45.58443" lon="3.30776">
        <ele>524.01013</ele>
        <time>2012-08-29T09:59:42Z</time>
      </trkpt>
      <trkpt lat="45.58462" lon="3.30768">
        <ele>524.2866</ele>
        <time>2012-08-29T09:59:47Z</time>
      </trkpt>
      <trkpt lat="45.58482" lon="3.3076">
        <ele>523.58075</ele>
        <time>2012-08-29T09:59:52Z</time>
      </trkpt>
      <trkpt lat="45.58504" lon="3.30751">
        <ele>521.9263</ele>
        <time>2012-08-29T09:59:56Z</time>
      </trkpt>
      <trkpt lat="45.58525" lon="3.30744">
        <ele>520.66473</ele>
        <time>2012-08-29T09:59:59Z</time>
      </trkpt>
      <trkpt lat="45.58548" lon="3.30735">
        <ele>519.4419</ele>
        <time>2012-08-29T10:00:02Z</time>
      </trkpt>
      <trkpt lat="45.5857" lon="3.30729">
        <ele>518.9588</ele>
        <time>2012-08-29T10:00:05Z</time>
      </trkpt>
      <trkpt lat="45.5859" lon="3.30714">
        <ele>518.5558</ele>
        <time>2012-08-29T10:00:08Z</time>
      </trkpt>
      <trkpt lat="45.58607" lon="3.30702">
        <ele>518.1287</ele>
        <time>2012-08-29T10:00:11Z</time>
      </trkpt>
      <trkpt lat="45.58624" lon="3.30681">
        <ele>517.39105</ele>
        <time>2012-08-29T10:00:15Z</time>
      </trkpt>
      <trkpt lat="45.58635" lon="3.30652">
        <ele>516.9447</ele>
        <time>2012-08-29T10:00:19Z</time>
      </trkpt>
      <trkpt lat="45.58643" lon="3.30627">
        <ele>517.35</ele>
        <time>2012-08-29T10:00:23Z</time>
      </trkpt>
      <trkpt lat="45.58656" lon="3.30605">
        <ele>517.9837</ele>
        <time>2012-08-29T10:00:27Z</time>
      </trkpt>
      <trkpt lat="45.58668" lon="3.30585">
        <ele>519.0088</ele>
        <time>2012-08-29T10:00:33Z</time>
      </trkpt>
      <trkpt lat="45.58683" lon="3.30565">
        <ele>520.77936</ele>
        <time>2012-08-29T10:00:39Z</time>
      </trkpt>
      <trkpt lat="45.58698" lon="3.3055">
        <ele>522.63245</ele>
        <time>2012-08-29T10:00:45Z</time>
      </trkpt>
      <trkpt lat="45.58715" lon="3.30535">
        <ele>524.99677</ele>
        <time>2012-08-29T10:00:51Z</time>
      </trkpt>
      <trkpt lat="45.58732" lon="3.30519">
        <ele>524.8944</ele>
        <time>2012-08-29T10:00:57Z</time>
      </trkpt>
      <trkpt lat="45.5875" lon="3.30506">
        <ele>527.8057</ele>
        <time>2012-08-29T10:01:02Z</time>
      </trkpt>
      <trkpt lat="45.58768" lon="3.30492">
        <ele>529.5362</ele>
        <time>2012-08-29T10:01:07Z</time>
      </trkpt>
      <trkpt lat="45.58784" lon="3.3048">
        <ele>529.5102</ele>
        <time>2012-08-29T10:01:11Z</time>
      </trkpt>
      <trkpt lat="45.58802" lon="3.30463">
        <ele>527.5363</ele>
        <time>2012-08-29T10:01:15Z</time>
      </trkpt>
      <trkpt lat="45.58818" lon="3.30449">
        <ele>525.5815</ele>
        <time>2012-08-29T10:01:18Z</time>
      </trkpt>
      <trkpt lat="45.58834" lon="3.30435">
        <ele>524.2583</ele>
        <time>2012-08-29T10:01:21Z</time>
      </trkpt>
      <trkpt lat="45.58849" lon="3.3042">
        <ele>523.95483</ele>
        <time>2012-08-29T10:01:24Z</time>
      </trkpt>
      <trkpt lat="45.58866" lon="3.30397">
        <ele>523.39886</ele>
        <time>2012-08-29T10:01:28Z</time>
      </trkpt>
      <trkpt lat="45.5888" lon="3.3038">
        <ele>524.24536</ele>
        <time>2012-08-29T10:01:31Z</time>
      </trkpt>
      <trkpt lat="45.58897" lon="3.30364">
        <ele>523.3759</ele>
        <time>2012-08-29T10:01:34Z</time>
      </trkpt>
      <trkpt lat="45.58913" lon="3.30339">
        <ele>521.11847</ele>
        <time>2012-08-29T10:01:37Z</time>
      </trkpt>
      <trkpt lat="45.58926" lon="3.30317">
        <ele>518.91144</ele>
        <time>2012-08-29T10:01:40Z</time>
      </trkpt>
      <trkpt lat="45.58939" lon="3.30293">
        <ele>517.0422</ele>
        <time>2012-08-29T10:01:44Z</time>
      </trkpt>
      <trkpt lat="45.58956" lon="3.30266">
        <ele>514.3609</ele>
        <time>2012-08-29T10:01:48Z</time>
      </trkpt>
      <trkpt lat="45.58975" lon="3.30242">
        <ele>512.9278</ele>
        <time>2012-08-29T10:01:51Z</time>
      </trkpt>
      <trkpt lat="45.5899" lon="3.30214">
        <ele>511.86536</ele>
        <time>2012-08-29T10:01:54Z</time>
      </trkpt>
      <trkpt lat="45.5901" lon="3.30191">
        <ele>510.29996</ele>
        <time>2012-08-29T10:01:57Z</time>
      </trkpt>
      <trkpt lat="45.59028" lon="3.30176">
        <ele>509.08643</ele>
        <time>2012-08-29T10:02:00Z</time>
      </trkpt>
      <trkpt lat="45.59047" lon="3.30161">
        <ele>509.1753</ele>
        <time>2012-08-29T10:02:04Z</time>
      </trkpt>
      <trkpt lat="45.59061" lon="3.30144">
        <ele>510.36554</ele>
        <time>2012-08-29T10:02:08Z</time>
      </trkpt>
      <trkpt lat="45.59078" lon="3.30121">
        <ele>511.76752</ele>
        <time>2012-08-29T10:02:12Z</time>
      </trkpt>
      <trkpt lat="45.5909" lon="3.30102">
        <ele>512.7154</ele>
        <time>2012-08-29T10:02:16Z</time>
      </trkpt>
      <trkpt lat="45.59105" lon="3.30085">
        <ele>512.8399</ele>
        <time>2012-08-29T10:02:20Z</time>
      </trkpt>
      <trkpt lat="45.59123" lon="3.30075">
        <ele>512.2158</ele>
        <time>2012-08-29T10:02:23Z</time>
      </trkpt>
      <trkpt lat="45.59143" lon="3.30065">
        <ele>510.84</ele>
        <time>2012-08-29T10:02:26Z</time>
      </trkpt>
      <trkpt lat="45.59167" lon="3.30055">
        <ele>509.6377</ele>
        <time>2012-08-29T10:02:29Z</time>
      </trkpt>
      <trkpt lat="45.59189" lon="3.30044">
        <ele>508.5305</ele>
        <time>2012-08-29T10:02:32Z</time>
      </trkpt>
      <trkpt lat="45.59213" lon="3.30041">
        <ele>507.2509</ele>
        <time>2012-08-29T10:02:35Z</time>
      </trkpt>
      <trkpt lat="45.59235" lon="3.30051">
        <ele>506.05322</ele>
        <time>2012-08-29T10:02:38Z</time>
      </trkpt>
      <trkpt lat="45.59254" lon="3.30064">
        <ele>504.87766</ele>
        <time>2012-08-29T10:02:41Z</time>
      </trkpt>
      <trkpt lat="45.59271" lon="3.3008">
        <ele>503.96173</ele>
        <time>2012-08-29T10:02:46Z</time>
      </trkpt>
      <trkpt lat="45.59291" lon="3.30093">
        <ele>503.38184</ele>
        <time>2012-08-29T10:02:52Z</time>
      </trkpt>
      <trkpt lat="45.5931" lon="3.30096">
        <ele>505.32068</ele>
        <time>2012-08-29T10:02:58Z</time>
      </trkpt>
      <trkpt lat="45.59328" lon="3.30092">
        <ele>507.91458</ele>
        <time>2012-08-29T10:03:05Z</time>
      </trkpt>
      <trkpt lat="45.59349" lon="3.30087">
        <ele>510.56573</ele>
        <time>2012-08-29T10:03:13Z</time>
      </trkpt>
      <trkpt lat="45.59369" lon="3.30079">
        <ele>512.25696</ele>
        <time>2012-08-29T10:03:19Z</time>
      </trkpt>
      <trkpt lat="45.59373" lon="3.30054">
        <ele>512.7684</ele>
        <time>2012-08-29T10:03:26Z</time>
      </trkpt>
      <trkpt lat="45.59376" lon="3.30022">
        <ele>512.48773</ele>
        <time>2012-08-29T10:03:31Z</time>
      </trkpt>
      <trkpt lat="45.59381" lon="3.29995">
        <ele>512.1308</ele>
        <time>2012-08-29T10:03:35Z</time>
      </trkpt>
      <trkpt lat="45.59384" lon="3.2997">
        <ele>512.8265</ele>
        <time>2012-08-29T10:03:39Z</time>
      </trkpt>
      <trkpt lat="45.59384" lon="3.29942">
        <ele>513.8794</ele>
        <time>2012-08-29T10:03:43Z</time>
      </trkpt>
      <trkpt lat="45.59385" lon="3.29914">
        <ele>514.69336</ele>
        <time>2012-08-29T10:03:47Z</time>
      </trkpt>
      <trkpt lat="45.59384" lon="3.29888">
        <ele>516.0189</ele>
        <time>2012-08-29T10:03:51Z</time>
      </trkpt>
      <trkpt lat="45.59381" lon="3.29859">
        <ele>516.4715</ele>
        <time>2012-08-29T10:03:55Z</time>
      </trkpt>
      <trkpt lat="45.59377" lon="3.29828">
        <ele>516.7979</ele>
        <time>2012-08-29T10:03:59Z</time>
      </trkpt>
      <trkpt lat="45.59374" lon="3.29801">
        <ele>518.0055</ele>
        <time>2012-08-29T10:04:03Z</time>
      </trkpt>
      <trkpt lat="45.59374" lon="3.29774">
        <ele>519.79736</ele>
        <time>2012-08-29T10:04:07Z</time>
      </trkpt>
      <trkpt lat="45.59378" lon="3.29743">
        <ele>522.33954</ele>
        <time>2012-08-29T10:04:12Z</time>
      </trkpt>
      <trkpt lat="45.59383" lon="3.29716">
        <ele>523.47894</ele>
        <time>2012-08-29T10:04:17Z</time>
      </trkpt>
      <trkpt lat="45.59387" lon="3.29684">
        <ele>524.5586</ele>
        <time>2012-08-29T10:04:22Z</time>
      </trkpt>
      <trkpt lat="45.59393" lon="3.29654">
        <ele>525.7976</ele>
        <time>2012-08-29T10:04:27Z</time>
      </trkpt>
      <trkpt lat="45.59399" lon="3.29625">
        <ele>525.63007</ele>
        <time>2012-08-29T10:04:32Z</time>
      </trkpt>
      <trkpt lat="45.59407" lon="3.29596">
        <ele>525.8969</ele>
        <time>2012-08-29T10:04:37Z</time>
      </trkpt>
      <trkpt lat="45.59413" lon="3.29572">
        <ele>525.61847</ele>
        <time>2012-08-29T10:04:41Z</time>
      </trkpt>
      <trkpt lat="45.59421" lon="3.29543">
        <ele>526.0078</ele>
        <time>2012-08-29T10:04:46Z</time>
      </trkpt>
      <trkpt lat="45.59428" lon="3.29516">
        <ele>526.2722</ele>
        <time>2012-08-29T10:04:51Z</time>
      </trkpt>
      <trkpt lat="45.59433" lon="3.29489">
        <ele>528.3342</ele>
        <time>2012-08-29T10:04:56Z</time>
      </trkpt>
      <trkpt lat="45.5944" lon="3.2946">
        <ele>529.6359</ele>
        <time>2012-08-29T10:05:01Z</time>
      </trkpt>
      <trkpt lat="45.59445" lon="3.29433">
        <ele>528.80615</ele>
        <time>2012-08-29T10:05:05Z</time>
      </trkpt>
      <trkpt lat="45.59448" lon="3.29404">
        <ele>526.5625</ele>
        <time>2012-08-29T10:05:08Z</time>
      </trkpt>
      <trkpt lat="45.59454" lon="3.29379">
        <ele>525.3891</ele>
        <time>2012-08-29T10:05:10Z</time>
      </trkpt>
      <trkpt lat="45.59459" lon="3.29351">
        <ele>524.21655</ele>
        <time>2012-08-29T10:05:12Z</time>
      </trkpt>
      <trkpt lat="45.59459" lon="3.29323">
        <ele>523.057</ele>
        <time>2012-08-29T10:05:14Z</time>
      </trkpt>
      <trkpt lat="45.59458" lon="3.29293">
        <ele>523.4011</ele>
        <time>2012-08-29T10:05:17Z</time>
      </trkpt>
      <trkpt lat="45.59459" lon="3.29263">
        <ele>525.6305</ele>
        <time>2012-08-29T10:05:22Z</time>
      </trkpt>
      <trkpt lat="45.59458" lon="3.29236">
        <ele>528.4456</ele>
        <time>2012-08-29T10:05:29Z</time>
      </trkpt>
      <trkpt lat="45.59461" lon="3.29206">
        <ele>530.87555</ele>
        <time>2012-08-29T10:05:35Z</time>
      </trkpt>
      <trkpt lat="45.59466" lon="3.29178">
        <ele>532.4823</ele>
        <time>2012-08-29T10:05:42Z</time>
      </trkpt>
      <trkpt lat="45.59472" lon="3.29152">
        <ele>533.1093</ele>
        <time>2012-08-29T10:05:48Z</time>
      </trkpt>
      <trkpt lat="45.59478" lon="3.29123">
        <ele>533.60675</ele>
        <time>2012-08-29T10:05:54Z</time>
      </trkpt>
      <trkpt lat="45.59483" lon="3.29098">
        <ele>533.9841</ele>
        <time>2012-08-29T10:05:59Z</time>
      </trkpt>
      <trkpt lat="45.59489" lon="3.29072">
        <ele>534.1161</ele>
        <time>2012-08-29T10:06:04Z</time>
      </trkpt>
      <trkpt lat="45.59495" lon="3.29047">
        <ele>533.9206</ele>
        <time>2012-08-29T10:06:08Z</time>
      </trkpt>
      <trkpt lat="45.59504" lon="3.29018">
        <ele>533.6724</ele>
        <time>2012-08-29T10:06:12Z</time>
      </trkpt>
      <trkpt lat="45.59512" lon="3.28986">
        <ele>532.89746</ele>
        <time>2012-08-29T10:06:16Z</time>
      </trkpt>
      <trkpt lat="45.59519" lon="3.2896">
        <ele>532.0744</ele>
        <time>2012-08-29T10:06:19Z</time>
      </trkpt>
      <trkpt lat="45.59525" lon="3.28933">
        <ele>531.26</ele>
        <time>2012-08-29T10:06:22Z</time>
      </trkpt>
      <trkpt lat="45.59532" lon="3.28907">
        <ele>530.4633</ele>
        <time>2012-08-29T10:06:25Z</time>
      </trkpt>
      <trkpt lat="45.59535" lon="3.2888">
        <ele>529.7819</ele>
        <time>2012-08-29T10:06:27Z</time>
      </trkpt>
      <trkpt lat="45.5954" lon="3.28853">
        <ele>529.4007</ele>
        <time>2012-08-29T10:06:31Z</time>
      </trkpt>
      <trkpt lat="45.59543" lon="3.28827">
        <ele>528.04144</ele>
        <time>2012-08-29T10:06:34Z</time>
      </trkpt>
      <trkpt lat="45.59546" lon="3.28797">
        <ele>527.24927</ele>
        <time>2012-08-29T10:06:37Z</time>
      </trkpt>
      <trkpt lat="45.5955" lon="3.28767">
        <ele>526.73376</ele>
        <time>2012-08-29T10:06:40Z</time>
      </trkpt>
      <trkpt lat="45.59554" lon="3.28737">
        <ele>526.2913</ele>
        <time>2012-08-29T10:06:43Z</time>
      </trkpt>
      <trkpt lat="45.59561" lon="3.28707">
        <ele>524.07184</ele>
        <time>2012-08-29T10:06:46Z</time>
      </trkpt>
      <trkpt lat="45.59572" lon="3.28681">
        <ele>521.9574</ele>
        <time>2012-08-29T10:06:49Z</time>
      </trkpt>
      <trkpt lat="45.59586" lon="3.28658">
        <ele>521.1982</ele>
        <time>2012-08-29T10:06:52Z</time>
      </trkpt>
      <trkpt lat="45.59601" lon="3.28638">
        <ele>521.00287</ele>
        <time>2012-08-29T10:06:55Z</time>
      </trkpt>
      <trkpt lat="45.59616" lon="3.28618">
        <ele>521.6236</ele>
        <time>2012-08-29T10:06:58Z</time>
      </trkpt>
      <trkpt lat="45.59629" lon="3.28598">
        <ele>522.0777</ele>
        <time>2012-08-29T10:07:01Z</time>
      </trkpt>
      <trkpt lat="45.59642" lon="3.28579">
        <ele>522.5708</ele>
        <time>2012-08-29T10:07:03Z</time>
      </trkpt>
      <trkpt lat="45.59655" lon="3.28559">
        <ele>522.3429</ele>
        <time>2012-08-29T10:07:07Z</time>
      </trkpt>
      <trkpt lat="45.59669" lon="3.28537">
        <ele>522.2639</ele>
        <time>2012-08-29T10:07:10Z</time>
      </trkpt>
      <trkpt lat="45.59683" lon="3.28519">
        <ele>522.59467</ele>
        <time>2012-08-29T10:07:13Z</time>
      </trkpt>
      <trkpt lat="45.59695" lon="3.28499">
        <ele>523.617</ele>
        <time>2012-08-29T10:07:16Z</time>
      </trkpt>
      <trkpt lat="45.59704" lon="3.28469">
        <ele>525.1998</ele>
        <time>2012-08-29T10:07:20Z</time>
      </trkpt>
      <trkpt lat="45.59706" lon="3.28441">
        <ele>526.87213</ele>
        <time>2012-08-29T10:07:23Z</time>
      </trkpt>
      <trkpt lat="45.59703" lon="3.28411">
        <ele>530.189</ele>
        <time>2012-08-29T10:07:29Z</time>
      </trkpt>
      <trkpt lat="45.59704" lon="3.28379">
        <ele>532.8479</ele>
        <time>2012-08-29T10:07:34Z</time>
      </trkpt>
      <trkpt lat="45.59699" lon="3.2835">
        <ele>533.97345</ele>
        <time>2012-08-29T10:07:41Z</time>
      </trkpt>
      <trkpt lat="45.59692" lon="3.28321">
        <ele>533.63385</ele>
        <time>2012-08-29T10:07:46Z</time>
      </trkpt>
      <trkpt lat="45.59686" lon="3.28296">
        <ele>532.8632</ele>
        <time>2012-08-29T10:07:49Z</time>
      </trkpt>
      <trkpt lat="45.59679" lon="3.28267">
        <ele>531.8194</ele>
        <time>2012-08-29T10:07:52Z</time>
      </trkpt>
      <trkpt lat="45.5967" lon="3.28237">
        <ele>531.304</ele>
        <time>2012-08-29T10:07:55Z</time>
      </trkpt>
      <trkpt lat="45.59661" lon="3.28207">
        <ele>531.04285</ele>
        <time>2012-08-29T10:07:58Z</time>
      </trkpt>
      <trkpt lat="45.59651" lon="3.28176">
        <ele>531.03265</ele>
        <time>2012-08-29T10:08:01Z</time>
      </trkpt>
      <trkpt lat="45.59646" lon="3.28149">
        <ele>530.61115</ele>
        <time>2012-08-29T10:08:04Z</time>
      </trkpt>
      <trkpt lat="45.59639" lon="3.28125">
        <ele>530.56775</ele>
        <time>2012-08-29T10:08:07Z</time>
      </trkpt>
      <trkpt lat="45.59632" lon="3.28099">
        <ele>530.5775</ele>
        <time>2012-08-29T10:08:10Z</time>
      </trkpt>
      <trkpt lat="45.59624" lon="3.28068">
        <ele>530.8549</ele>
        <time>2012-08-29T10:08:14Z</time>
      </trkpt>
      <trkpt lat="45.59628" lon="3.28041">
        <ele>531.50244</ele>
        <time>2012-08-29T10:08:18Z</time>
      </trkpt>
      <trkpt lat="45.59638" lon="3.28014">
        <ele>533.03125</ele>
        <time>2012-08-29T10:08:23Z</time>
      </trkpt>
      <trkpt lat="45.59648" lon="3.27988">
        <ele>536.0824</ele>
        <time>2012-08-29T10:08:29Z</time>
      </trkpt>
      <trkpt lat="45.59655" lon="3.27962">
        <ele>537.8713</ele>
        <time>2012-08-29T10:08:35Z</time>
      </trkpt>
      <trkpt lat="45.59667" lon="3.27938">
        <ele>538.7753</ele>
        <time>2012-08-29T10:08:41Z</time>
      </trkpt>
      <trkpt lat="45.59677" lon="3.27917">
        <ele>540.7833</ele>
        <time>2012-08-29T10:08:46Z</time>
      </trkpt>
      <trkpt lat="45.59686" lon="3.27894">
        <ele>542.25696</ele>
        <time>2012-08-29T10:08:52Z</time>
      </trkpt>
      <trkpt lat="45.59697" lon="3.27873">
        <ele>544.4246</ele>
        <time>2012-08-29T10:08:58Z</time>
      </trkpt>
      <trkpt lat="45.59709" lon="3.2785">
        <ele>547.6528</ele>
        <time>2012-08-29T10:09:05Z</time>
      </trkpt>
      <trkpt lat="45.59695" lon="3.27828">
        <ele>544.8061</ele>
        <time>2012-08-29T10:09:13Z</time>
      </trkpt>
      <trkpt lat="45.59676" lon="3.2781">
        <ele>541.8531</ele>
        <time>2012-08-29T10:09:16Z</time>
      </trkpt>
      <trkpt lat="45.59654" lon="3.27787">
        <ele>538.9026</ele>
        <time>2012-08-29T10:09:19Z</time>
      </trkpt>
      <trkpt lat="45.59637" lon="3.27769">
        <ele>536.7429</ele>
        <time>2012-08-29T10:09:21Z</time>
      </trkpt>
      <trkpt lat="45.59619" lon="3.27752">
        <ele>534.25934</ele>
        <time>2012-08-29T10:09:23Z</time>
      </trkpt>
      <trkpt lat="45.59601" lon="3.27733">
        <ele>531.6873</ele>
        <time>2012-08-29T10:09:25Z</time>
      </trkpt>
      <trkpt lat="45.59588" lon="3.27706">
        <ele>529.4155</ele>
        <time>2012-08-29T10:09:27Z</time>
      </trkpt>
      <trkpt lat="45.59578" lon="3.27677">
        <ele>526.9564</ele>
        <time>2012-08-29T10:09:29Z</time>
      </trkpt>
      <trkpt lat="45.59568" lon="3.27652">
        <ele>524.72943</ele>
        <time>2012-08-29T10:09:31Z</time>
      </trkpt>
      <trkpt lat="45.59554" lon="3.27633">
        <ele>522.40173</ele>
        <time>2012-08-29T10:09:32Z</time>
      </trkpt>
      <trkpt lat="45.5953" lon="3.27622">
        <ele>519.5825</ele>
        <time>2012-08-29T10:09:36Z</time>
      </trkpt>
      <trkpt lat="45.59511" lon="3.27626">
        <ele>517.87537</ele>
        <time>2012-08-29T10:09:38Z</time>
      </trkpt>
      <trkpt lat="45.59492" lon="3.27637">
        <ele>515.9651</ele>
        <time>2012-08-29T10:09:40Z</time>
      </trkpt>
      <trkpt lat="45.5947" lon="3.27649">
        <ele>513.353</ele>
        <time>2012-08-29T10:09:42Z</time>
      </trkpt>
      <trkpt lat="45.5945" lon="3.27659">
        <ele>510.68378</ele>
        <time>2012-08-29T10:09:44Z</time>
      </trkpt>
      <trkpt lat="45.59429" lon="3.27661">
        <ele>508.01355</ele>
        <time>2012-08-29T10:09:46Z</time>
      </trkpt>
      <trkpt lat="45.59406" lon="3.27652">
        <ele>505.6303</ele>
        <time>2012-08-29T10:09:48Z</time>
      </trkpt>
      <trkpt lat="45.59384" lon="3.27637">
        <ele>502.70224</ele>
        <time>2012-08-29T10:09:50Z</time>
      </trkpt>
      <trkpt lat="45.59366" lon="3.27611">
        <ele>499.5552</ele>
        <time>2012-08-29T10:09:52Z</time>
      </trkpt>
      <trkpt lat="45.59349" lon="3.27582">
        <ele>496.75375</ele>
        <time>2012-08-29T10:09:54Z</time>
      </trkpt>
      <trkpt lat="45.59334" lon="3.27551">
        <ele>493.92792</ele>
        <time>2012-08-29T10:09:56Z</time>
      </trkpt>
      <trkpt lat="45.59319" lon="3.2752">
        <ele>490.73215</ele>
        <time>2012-08-29T10:09:58Z</time>
      </trkpt>
      <trkpt lat="45.59305" lon="3.27487">
        <ele>487.47202</ele>
        <time>2012-08-29T10:10:00Z</time>
      </trkpt>
      <trkpt lat="45.59292" lon="3.27454">
        <ele>484.7382</ele>
        <time>2012-08-29T10:10:02Z</time>
      </trkpt>
      <trkpt lat="45.59279" lon="3.27425">
        <ele>482.7942</ele>
        <time>2012-08-29T10:10:04Z</time>
      </trkpt>
      <trkpt lat="45.59262" lon="3.27406">
        <ele>482.06317</ele>
        <time>2012-08-29T10:10:06Z</time>
      </trkpt>
      <trkpt lat="45.59246" lon="3.27392">
        <ele>482.05197</ele>
        <time>2012-08-29T10:10:08Z</time>
      </trkpt>
      <trkpt lat="45.59224" lon="3.27378">
        <ele>482.07245</ele>
        <time>2012-08-29T10:10:11Z</time>
      </trkpt>
      <trkpt lat="45.59206" lon="3.2737">
        <ele>483.23102</ele>
        <time>2012-08-29T10:10:15Z</time>
      </trkpt>
      <trkpt lat="45.59186" lon="3.27372">
        <ele>486.00015</ele>
        <time>2012-08-29T10:10:20Z</time>
      </trkpt>
      <trkpt lat="45.59166" lon="3.27374">
        <ele>488.9063</ele>
        <time>2012-08-29T10:10:26Z</time>
      </trkpt>
      <trkpt lat="45.59147" lon="3.27375">
        <ele>490.90863</ele>
        <time>2012-08-29T10:10:32Z</time>
      </trkpt>
      <trkpt lat="45.59129" lon="3.27375">
        <ele>492.8049</ele>
        <time>2012-08-29T10:10:38Z</time>
      </trkpt>
      <trkpt lat="45.59111" lon="3.27379">
        <ele>495.09155</ele>
        <time>2012-08-29T10:10:45Z</time>
      </trkpt>
      <trkpt lat="45.59091" lon="3.27379">
        <ele>496.77686</ele>
        <time>2012-08-29T10:10:52Z</time>
      </trkpt>
      <trkpt lat="45.59084" lon="3.27354">
        <ele>497.86966</ele>
        <time>2012-08-29T10:10:59Z</time>
      </trkpt>
      <trkpt lat="45.59075" lon="3.27331">
        <ele>498.79544</ele>
        <time>2012-08-29T10:11:05Z</time>
      </trkpt>
      <trkpt lat="45.59069" lon="3.27307">
        <ele>499.90146</ele>
        <time>2012-08-29T10:11:11Z</time>
      </trkpt>
      <trkpt lat="45.59063" lon="3.27281">
        <ele>501.48077</ele>
        <time>2012-08-29T10:11:17Z</time>
      </trkpt>
      <trkpt lat="45.59056" lon="3.27256">
        <ele>505.34302</ele>
        <time>2012-08-29T10:11:24Z</time>
      </trkpt>
      <trkpt lat="45.59049" lon="3.27231">
        <ele>507.2909</ele>
        <time>2012-08-29T10:11:31Z</time>
      </trkpt>
      <trkpt lat="45.59039" lon="3.27208">
        <ele>510.31528</ele>
        <time>2012-08-29T10:11:40Z</time>
      </trkpt>
      <trkpt lat="45.59034" lon="3.27181">
        <ele>513.27655</ele>
        <time>2012-08-29T10:12:33Z</time>
      </trkpt>
      <trkpt lat="45.59028" lon="3.27153">
        <ele>512.9584</ele>
        <time>2012-08-29T10:12:41Z</time>
      </trkpt>
      <trkpt lat="45.59017" lon="3.27132">
        <ele>507.65155</ele>
        <time>2012-08-29T10:12:52Z</time>
      </trkpt>
      <trkpt lat="45.59006" lon="3.27111">
        <ele>508.09036</ele>
        <time>2012-08-29T10:13:02Z</time>
      </trkpt>
      <trkpt lat="45.58994" lon="3.27092">
        <ele>524.67664</ele>
        <time>2012-08-29T10:17:39Z</time>
      </trkpt>
      <trkpt lat="45.58985" lon="3.27069">
        <ele>524.2567</ele>
        <time>2012-08-29T10:17:49Z</time>
      </trkpt>
      <trkpt lat="45.58969" lon="3.27055">
        <ele>528.3089</ele>
        <time>2012-08-29T10:18:01Z</time>
      </trkpt>
      <trkpt lat="45.58952" lon="3.27067">
        <ele>535.0144</ele>
        <time>2012-08-29T10:18:33Z</time>
      </trkpt>
      <trkpt lat="45.58934" lon="3.27074">
        <ele>536.57404</ele>
        <time>2012-08-29T10:18:44Z</time>
      </trkpt>
      <trkpt lat="45.58916" lon="3.27075">
        <ele>538.29486</ele>
        <time>2012-08-29T10:18:53Z</time>
      </trkpt>
      <trkpt lat="45.58898" lon="3.2708">
        <ele>540.293</ele>
        <time>2012-08-29T10:19:02Z</time>
      </trkpt>
      <trkpt lat="45.58879" lon="3.27086">
        <ele>540.0812</ele>
        <time>2012-08-29T10:19:12Z</time>
      </trkpt>
      <trkpt lat="45.5886" lon="3.27092">
        <ele>540.77496</ele>
        <time>2012-08-29T10:19:24Z</time>
      </trkpt>
      <trkpt lat="45.5884" lon="3.27095">
        <ele>538.55035</ele>
        <time>2012-08-29T10:19:32Z</time>
      </trkpt>
      <trkpt lat="45.58822" lon="3.27101">
        <ele>536.91156</ele>
        <time>2012-08-29T10:19:40Z</time>
      </trkpt>
      <trkpt lat="45.58802" lon="3.27104">
        <ele>535.21704</ele>
        <time>2012-08-29T10:19:49Z</time>
      </trkpt>
      <trkpt lat="45.58784" lon="3.27112">
        <ele>538.9859</ele>
        <time>2012-08-29T10:19:58Z</time>
      </trkpt>
      <trkpt lat="45.58764" lon="3.27117">
        <ele>543.3823</ele>
        <time>2012-08-29T10:20:06Z</time>
      </trkpt>
      <trkpt lat="45.58746" lon="3.27113">
        <ele>544.72736</ele>
        <time>2012-08-29T10:20:14Z</time>
      </trkpt>
      <trkpt lat="45.58731" lon="3.27096">
        <ele>545.3081</ele>
        <time>2012-08-29T10:20:23Z</time>
      </trkpt>
      <trkpt lat="45.5872" lon="3.27074">
        <ele>544.87756</ele>
        <time>2012-08-29T10:20:36Z</time>
      </trkpt>
      <trkpt lat="45.58712" lon="3.2705">
        <ele>547.0508</ele>
        <time>2012-08-29T10:20:47Z</time>
      </trkpt>
      <trkpt lat="45.58704" lon="3.27026">
        <ele>548.0945</ele>
        <time>2012-08-29T10:20:58Z</time>
      </trkpt>
      <trkpt lat="45.58693" lon="3.27004">
        <ele>551.45044</ele>
        <time>2012-08-29T10:21:10Z</time>
      </trkpt>
      <trkpt lat="45.58679" lon="3.26987">
        <ele>553.47156</ele>
        <time>2012-08-29T10:21:23Z</time>
      </trkpt>
      <trkpt lat="45.58661" lon="3.26977">
        <ele>555.343</ele>
        <time>2012-08-29T10:21:35Z</time>
      </trkpt>
      <trkpt lat="45.58646" lon="3.26958">
        <ele>555.6107</ele>
        <time>2012-08-29T10:21:47Z</time>
      </trkpt>
      <trkpt lat="45.58633" lon="3.2694">
        <ele>559.3078</ele>
        <time>2012-08-29T10:21:59Z</time>
      </trkpt>
      <trkpt lat="45.58612" lon="3.26959">
        <ele>560.84235</ele>
        <time>2012-08-29T10:23:16Z</time>
      </trkpt>
      <trkpt lat="45.58599" lon="3.26988">
        <ele>558.5137</ele>
        <time>2012-08-29T10:23:19Z</time>
      </trkpt>
      <trkpt lat="45.58587" lon="3.27009">
        <ele>557.5679</ele>
        <time>2012-08-29T10:23:21Z</time>
      </trkpt>
      <trkpt lat="45.5857" lon="3.27023">
        <ele>556.2234</ele>
        <time>2012-08-29T10:23:23Z</time>
      </trkpt>
      <trkpt lat="45.58551" lon="3.27041">
        <ele>553.86084</ele>
        <time>2012-08-29T10:23:25Z</time>
      </trkpt>
      <trkpt lat="45.58535" lon="3.27056">
        <ele>552.03815</ele>
        <time>2012-08-29T10:23:27Z</time>
      </trkpt>
      <trkpt lat="45.58516" lon="3.27072">
        <ele>549.5104</ele>
        <time>2012-08-29T10:23:30Z</time>
      </trkpt>
      <trkpt lat="45.58499" lon="3.27059">
        <ele>544.2028</ele>
        <time>2012-08-29T10:23:36Z</time>
      </trkpt>
      <trkpt lat="45.58482" lon="3.27045">
        <ele>541.51874</ele>
        <time>2012-08-29T10:23:40Z</time>
      </trkpt>
      <trkpt lat="45.58462" lon="3.27029">
        <ele>539.12305</ele>
        <time>2012-08-29T10:23:44Z</time>
      </trkpt>
      <trkpt lat="45.58445" lon="3.27016">
        <ele>537.9524</ele>
        <time>2012-08-29T10:23:47Z</time>
      </trkpt>
      <trkpt lat="45.58426" lon="3.26999">
        <ele>538.78406</ele>
        <time>2012-08-29T10:23:52Z</time>
      </trkpt>
      <trkpt lat="45.58411" lon="3.26981">
        <ele>538.4402</ele>
        <time>2012-08-29T10:23:56Z</time>
      </trkpt>
      <trkpt lat="45.58395" lon="3.26965">
        <ele>538.37317</ele>
        <time>2012-08-29T10:24:00Z</time>
      </trkpt>
      <trkpt lat="45.5838" lon="3.26947">
        <ele>538.21716</ele>
        <time>2012-08-29T10:24:04Z</time>
      </trkpt>
      <trkpt lat="45.5836" lon="3.26934">
        <ele>537.40924</ele>
        <time>2012-08-29T10:24:08Z</time>
      </trkpt>
      <trkpt lat="45.58338" lon="3.26929">
        <ele>536.33954</ele>
        <time>2012-08-29T10:24:12Z</time>
      </trkpt>
      <trkpt lat="45.58319" lon="3.26927">
        <ele>535.47766</ele>
        <time>2012-08-29T10:24:16Z</time>
      </trkpt>
      <trkpt lat="45.58299" lon="3.26917">
        <ele>535.07056</ele>
        <time>2012-08-29T10:24:20Z</time>
      </trkpt>
      <trkpt lat="45.5828" lon="3.26905">
        <ele>534.90533</ele>
        <time>2012-08-29T10:24:25Z</time>
      </trkpt>
      <trkpt lat="45.58259" lon="3.26901">
        <ele>534.92316</ele>
        <time>2012-08-29T10:24:30Z</time>
      </trkpt>
      <trkpt lat="45.5824" lon="3.26896">
        <ele>536.2246</ele>
        <time>2012-08-29T10:24:36Z</time>
      </trkpt>
      <trkpt lat="45.5822" lon="3.26895">
        <ele>539.3551</ele>
        <time>2012-08-29T10:24:43Z</time>
      </trkpt>
      <trkpt lat="45.58198" lon="3.2689">
        <ele>541.35535</ele>
        <time>2012-08-29T10:24:49Z</time>
      </trkpt>
      <trkpt lat="45.58179" lon="3.26888">
        <ele>544.253</ele>
        <time>2012-08-29T10:24:54Z</time>
      </trkpt>
      <trkpt lat="45.5816" lon="3.26879">
        <ele>546.8877</ele>
        <time>2012-08-29T10:24:59Z</time>
      </trkpt>
      <trkpt lat="45.5814" lon="3.2688">
        <ele>548.8582</ele>
        <time>2012-08-29T10:25:05Z</time>
      </trkpt>
      <trkpt lat="45.58121" lon="3.26877">
        <ele>547.8327</ele>
        <time>2012-08-29T10:25:10Z</time>
      </trkpt>
      <trkpt lat="45.58103" lon="3.26888">
        <ele>546.13525</ele>
        <time>2012-08-29T10:25:14Z</time>
      </trkpt>
      <trkpt lat="45.58082" lon="3.26894">
        <ele>543.80444</ele>
        <time>2012-08-29T10:25:18Z</time>
      </trkpt>
      <trkpt lat="45.58059" lon="3.26892">
        <ele>540.74664</ele>
        <time>2012-08-29T10:25:22Z</time>
      </trkpt>
      <trkpt lat="45.58035" lon="3.26885">
        <ele>537.52325</ele>
        <time>2012-08-29T10:25:26Z</time>
      </trkpt>
      <trkpt lat="45.58017" lon="3.26877">
        <ele>533.4225</ele>
        <time>2012-08-29T10:25:30Z</time>
      </trkpt>
      <trkpt lat="45.57998" lon="3.26872">
        <ele>531.19073</ele>
        <time>2012-08-29T10:25:36Z</time>
      </trkpt>
      <trkpt lat="45.57981" lon="3.26886">
        <ele>532.00494</ele>
        <time>2012-08-29T10:25:42Z</time>
      </trkpt>
      <trkpt lat="45.57963" lon="3.26906">
        <ele>531.97174</ele>
        <time>2012-08-29T10:25:47Z</time>
      </trkpt>
      <trkpt lat="45.57942" lon="3.26908">
        <ele>530.1538</ele>
        <time>2012-08-29T10:25:51Z</time>
      </trkpt>
      <trkpt lat="45.57924" lon="3.26908">
        <ele>527.0381</ele>
        <time>2012-08-29T10:25:57Z</time>
      </trkpt>
      <trkpt lat="45.57905" lon="3.26908">
        <ele>524.1855</ele>
        <time>2012-08-29T10:26:06Z</time>
      </trkpt>
      <trkpt lat="45.57903" lon="3.26937">
        <ele>523.941</ele>
        <time>2012-08-29T10:26:21Z</time>
      </trkpt>
      <trkpt lat="45.5791" lon="3.26963">
        <ele>521.3462</ele>
        <time>2012-08-29T10:26:31Z</time>
      </trkpt>
      <trkpt lat="45.57922" lon="3.26982">
        <ele>517.28217</ele>
        <time>2012-08-29T10:26:40Z</time>
      </trkpt>
      <trkpt lat="45.5794" lon="3.26994">
        <ele>513.8124</ele>
        <time>2012-08-29T10:26:51Z</time>
      </trkpt>
      <trkpt lat="45.57949" lon="3.27017">
        <ele>515.8778</ele>
        <time>2012-08-29T10:27:01Z</time>
      </trkpt>
      <trkpt lat="45.57927" lon="3.2704">
        <ele>517.89954</ele>
        <time>2012-08-29T10:27:11Z</time>
      </trkpt>
      <trkpt lat="45.57908" lon="3.27044">
        <ele>513.93414</ele>
        <time>2012-08-29T10:27:15Z</time>
      </trkpt>
      <trkpt lat="45.5788" lon="3.2705">
        <ele>510.48056</ele>
        <time>2012-08-29T10:27:18Z</time>
      </trkpt>
      <trkpt lat="45.57862" lon="3.27061">
        <ele>508.39926</ele>
        <time>2012-08-29T10:27:20Z</time>
      </trkpt>
      <trkpt lat="45.57844" lon="3.27068">
        <ele>505.82852</ele>
        <time>2012-08-29T10:27:22Z</time>
      </trkpt>
      <trkpt lat="45.57825" lon="3.27068">
        <ele>502.68872</ele>
        <time>2012-08-29T10:27:24Z</time>
      </trkpt>
      <trkpt lat="45.57807" lon="3.27067">
        <ele>500.64136</ele>
        <time>2012-08-29T10:27:26Z</time>
      </trkpt>
      <trkpt lat="45.57786" lon="3.27066">
        <ele>499.03345</ele>
        <time>2012-08-29T10:27:28Z</time>
      </trkpt>
      <trkpt lat="45.5776" lon="3.27057">
        <ele>495.8459</ele>
        <time>2012-08-29T10:27:31Z</time>
      </trkpt>
      <trkpt lat="45.57742" lon="3.2705">
        <ele>493.16724</ele>
        <time>2012-08-29T10:27:33Z</time>
      </trkpt>
      <trkpt lat="45.57721" lon="3.27038">
        <ele>488.98828</ele>
        <time>2012-08-29T10:27:36Z</time>
      </trkpt>
      <trkpt lat="45.57698" lon="3.27023">
        <ele>486.2862</ele>
        <time>2012-08-29T10:27:38Z</time>
      </trkpt>
      <trkpt lat="45.57682" lon="3.27008">
        <ele>485.07742</ele>
        <time>2012-08-29T10:27:41Z</time>
      </trkpt>
      <trkpt lat="45.57666" lon="3.26994">
        <ele>484.235</ele>
        <time>2012-08-29T10:27:43Z</time>
      </trkpt>
      <trkpt lat="45.5765" lon="3.26983">
        <ele>483.2736</ele>
        <time>2012-08-29T10:27:45Z</time>
      </trkpt>
      <trkpt lat="45.57631" lon="3.26972">
        <ele>482.23285</ele>
        <time>2012-08-29T10:27:47Z</time>
      </trkpt>
      <trkpt lat="45.57611" lon="3.26965">
        <ele>481.12866</ele>
        <time>2012-08-29T10:27:49Z</time>
      </trkpt>
      <trkpt lat="45.5759" lon="3.26959">
        <ele>480.26382</ele>
        <time>2012-08-29T10:27:51Z</time>
      </trkpt>
      <trkpt lat="45.57571" lon="3.26955">
        <ele>479.76483</ele>
        <time>2012-08-29T10:27:53Z</time>
      </trkpt>
      <trkpt lat="45.57551" lon="3.26948">
        <ele>479.34042</ele>
        <time>2012-08-29T10:27:55Z</time>
      </trkpt>
      <trkpt lat="45.57526" lon="3.26943">
        <ele>479.26913</ele>
        <time>2012-08-29T10:27:58Z</time>
      </trkpt>
      <trkpt lat="45.57505" lon="3.26931">
        <ele>478.90625</ele>
        <time>2012-08-29T10:28:01Z</time>
      </trkpt>
      <trkpt lat="45.57486" lon="3.26924">
        <ele>478.1512</ele>
        <time>2012-08-29T10:28:03Z</time>
      </trkpt>
      <trkpt lat="45.57464" lon="3.26918">
        <ele>477.369</ele>
        <time>2012-08-29T10:28:06Z</time>
      </trkpt>
      <trkpt lat="45.57445" lon="3.26911">
        <ele>476.02026</ele>
        <time>2012-08-29T10:28:09Z</time>
      </trkpt>
      <trkpt lat="45.5742" lon="3.26909">
        <ele>474.93716</ele>
        <time>2012-08-29T10:28:12Z</time>
      </trkpt>
      <trkpt lat="45.57399" lon="3.26903">
        <ele>473.8459</ele>
        <time>2012-08-29T10:28:15Z</time>
      </trkpt>
      <trkpt lat="45.57373" lon="3.26897">
        <ele>473.28668</ele>
        <time>2012-08-29T10:28:19Z</time>
      </trkpt>
      <trkpt lat="45.57352" lon="3.26906">
        <ele>472.75894</ele>
        <time>2012-08-29T10:28:21Z</time>
      </trkpt>
      <trkpt lat="45.57328" lon="3.26905">
        <ele>472.33008</ele>
        <time>2012-08-29T10:28:24Z</time>
      </trkpt>
      <trkpt lat="45.57309" lon="3.269">
        <ele>472.10226</ele>
        <time>2012-08-29T10:28:27Z</time>
      </trkpt>
      <trkpt lat="45.57289" lon="3.26892">
        <ele>470.74725</ele>
        <time>2012-08-29T10:28:32Z</time>
      </trkpt>
      <trkpt lat="45.57268" lon="3.26897">
        <ele>470.5301</ele>
        <time>2012-08-29T10:28:36Z</time>
      </trkpt>
      <trkpt lat="45.57246" lon="3.26897">
        <ele>470.22037</ele>
        <time>2012-08-29T10:28:39Z</time>
      </trkpt>
      <trkpt lat="45.57226" lon="3.26898">
        <ele>469.8404</ele>
        <time>2012-08-29T10:28:42Z</time>
      </trkpt>
      <trkpt lat="45.57136" lon="3.26897">
        <ele>469.509</ele>
        <time>2012-08-29T10:29:03Z</time>
      </trkpt>
      <trkpt lat="45.57081" lon="3.26904">
        <ele>473.53397</ele>
        <time>2012-08-29T10:29:15Z</time>
      </trkpt>
      <trkpt lat="45.56976" lon="3.26859">
        <ele>448.684</ele>
        <time>2012-08-29T10:29:42Z</time>
      </trkpt>
      <trkpt lat="45.5695" lon="3.2683">
        <ele>441.059</ele>
        <time>2012-08-29T10:29:48Z</time>
      </trkpt>
      <trkpt lat="45.56935" lon="3.26816">
        <ele>437.20996</ele>
        <time>2012-08-29T10:29:51Z</time>
      </trkpt>
      <trkpt lat="45.56917" lon="3.26797">
        <ele>435.7215</ele>
        <time>2012-08-29T10:29:58Z</time>
      </trkpt>
      <trkpt lat="45.56902" lon="3.26781">
        <ele>434.84644</ele>
        <time>2012-08-29T10:30:02Z</time>
      </trkpt>
      <trkpt lat="45.56883" lon="3.26763">
        <ele>435.00327</ele>
        <time>2012-08-29T10:30:07Z</time>
      </trkpt>
      <trkpt lat="45.56867" lon="3.26746">
        <ele>436.04312</ele>
        <time>2012-08-29T10:30:11Z</time>
      </trkpt>
      <trkpt lat="45.56846" lon="3.26729">
        <ele>437.609</ele>
        <time>2012-08-29T10:30:16Z</time>
      </trkpt>
      <trkpt lat="45.56797" lon="3.26712">
        <ele>435.08398</ele>
        <time>2012-08-29T10:30:26Z</time>
      </trkpt>
      <trkpt lat="45.56777" lon="3.26709">
        <ele>434.58398</ele>
        <time>2012-08-29T10:30:30Z</time>
      </trkpt>
      <trkpt lat="45.56753" lon="3.26706">
        <ele>433.96838</ele>
        <time>2012-08-29T10:30:34Z</time>
      </trkpt>
      <trkpt lat="45.56731" lon="3.26706">
        <ele>432.7071</ele>
        <time>2012-08-29T10:30:38Z</time>
      </trkpt>
      <trkpt lat="45.56712" lon="3.26698">
        <ele>431.56665</ele>
        <time>2012-08-29T10:30:44Z</time>
      </trkpt>
      <trkpt lat="45.56691" lon="3.26697">
        <ele>427.91565</ele>
        <time>2012-08-29T10:30:50Z</time>
      </trkpt>
      <trkpt lat="45.5667" lon="3.2669">
        <ele>425.95056</ele>
        <time>2012-08-29T10:30:56Z</time>
      </trkpt>
      <trkpt lat="45.56649" lon="3.26689">
        <ele>424.8495</ele>
        <time>2012-08-29T10:31:00Z</time>
      </trkpt>
      <trkpt lat="45.5662" lon="3.26671">
        <ele>418.209</ele>
        <time>2012-08-29T10:31:08Z</time>
      </trkpt>
      <trkpt lat="45.56602" lon="3.26655">
        <ele>411.5467</ele>
        <time>2012-08-29T10:31:13Z</time>
      </trkpt>
      <trkpt lat="45.56565" lon="3.26617">
        <ele>403.584</ele>
        <time>2012-08-29T10:31:23Z</time>
      </trkpt>
      <trkpt lat="45.56557" lon="3.26592">
        <ele>402.79495</ele>
        <time>2012-08-29T10:31:27Z</time>
      </trkpt>
      <trkpt lat="45.56546" lon="3.26569">
        <ele>395.43338</ele>
        <time>2012-08-29T10:31:33Z</time>
      </trkpt>
      <trkpt lat="45.56526" lon="3.26575">
        <ele>390.29898</ele>
        <time>2012-08-29T10:31:38Z</time>
      </trkpt>
      <trkpt lat="45.56509" lon="3.26586">
        <ele>387.39694</ele>
        <time>2012-08-29T10:31:41Z</time>
      </trkpt>
      <trkpt lat="45.56493" lon="3.26607">
        <ele>385.3586</ele>
        <time>2012-08-29T10:31:44Z</time>
      </trkpt>
      <trkpt lat="45.56481" lon="3.26628">
        <ele>382.7018</ele>
        <time>2012-08-29T10:31:47Z</time>
      </trkpt>
      <trkpt lat="45.56469" lon="3.26651">
        <ele>381.74503</ele>
        <time>2012-08-29T10:31:50Z</time>
      </trkpt>
      <trkpt lat="45.5646" lon="3.26674">
        <ele>380.9914</ele>
        <time>2012-08-29T10:31:53Z</time>
      </trkpt>
      <trkpt lat="45.56452" lon="3.26699">
        <ele>379.7172</ele>
        <time>2012-08-29T10:31:56Z</time>
      </trkpt>
      <trkpt lat="45.56444" lon="3.26723">
        <ele>379.0812</ele>
        <time>2012-08-29T10:31:59Z</time>
      </trkpt>
      <trkpt lat="45.56435" lon="3.26747">
        <ele>378.6301</ele>
        <time>2012-08-29T10:32:02Z</time>
      </trkpt>
      <trkpt lat="45.56425" lon="3.26777">
        <ele>378.58676</ele>
        <time>2012-08-29T10:32:06Z</time>
      </trkpt>
      <trkpt lat="45.56412" lon="3.26805">
        <ele>378.30743</ele>
        <time>2012-08-29T10:32:10Z</time>
      </trkpt>
      <trkpt lat="45.56402" lon="3.26835">
        <ele>378.41476</ele>
        <time>2012-08-29T10:32:14Z</time>
      </trkpt>
      <trkpt lat="45.56394" lon="3.26861">
        <ele>378.20673</ele>
        <time>2012-08-29T10:32:17Z</time>
      </trkpt>
      <trkpt lat="45.56385" lon="3.26894">
        <ele>377.77353</ele>
        <time>2012-08-29T10:32:21Z</time>
      </trkpt>
      <trkpt lat="45.56378" lon="3.26919">
        <ele>377.13464</ele>
        <time>2012-08-29T10:32:24Z</time>
      </trkpt>
      <trkpt lat="45.5637" lon="3.26947">
        <ele>376.75107</ele>
        <time>2012-08-29T10:32:27Z</time>
      </trkpt>
      <trkpt lat="45.56359" lon="3.26972">
        <ele>376.71893</ele>
        <time>2012-08-29T10:32:30Z</time>
      </trkpt>
      <trkpt lat="45.56349" lon="3.27001">
        <ele>376.0929</ele>
        <time>2012-08-29T10:32:33Z</time>
      </trkpt>
      <trkpt lat="45.5634" lon="3.27031">
        <ele>374.7897</ele>
        <time>2012-08-29T10:32:36Z</time>
      </trkpt>
      <trkpt lat="45.56333" lon="3.27062">
        <ele>373.8446</ele>
        <time>2012-08-29T10:32:39Z</time>
      </trkpt>
      <trkpt lat="45.56329" lon="3.27093">
        <ele>373.65213</ele>
        <time>2012-08-29T10:32:42Z</time>
      </trkpt>
      <trkpt lat="45.56326" lon="3.27125">
        <ele>373.65378</ele>
        <time>2012-08-29T10:32:45Z</time>
      </trkpt>
      <trkpt lat="45.56321" lon="3.27149">
        <ele>373.8029</ele>
        <time>2012-08-29T10:32:48Z</time>
      </trkpt>
      <trkpt lat="45.56314" lon="3.27176">
        <ele>373.80798</ele>
        <time>2012-08-29T10:32:51Z</time>
      </trkpt>
      <trkpt lat="45.56306" lon="3.27208">
        <ele>374.23993</ele>
        <time>2012-08-29T10:32:55Z</time>
      </trkpt>
      <trkpt lat="45.56301" lon="3.2724">
        <ele>375.8158</ele>
        <time>2012-08-29T10:32:58Z</time>
      </trkpt>
      <trkpt lat="45.56299" lon="3.27272">
        <ele>376.4697</ele>
        <time>2012-08-29T10:33:01Z</time>
      </trkpt>
      <trkpt lat="45.56295" lon="3.27307">
        <ele>375.45493</ele>
        <time>2012-08-29T10:33:04Z</time>
      </trkpt>
      <trkpt lat="45.56283" lon="3.27335">
        <ele>375.0815</ele>
        <time>2012-08-29T10:33:07Z</time>
      </trkpt>
      <trkpt lat="45.56264" lon="3.27358">
        <ele>373.64114</ele>
        <time>2012-08-29T10:33:10Z</time>
      </trkpt>
      <trkpt lat="45.56246" lon="3.27378">
        <ele>373.3335</ele>
        <time>2012-08-29T10:33:12Z</time>
      </trkpt>
      <trkpt lat="45.56227" lon="3.27397">
        <ele>373.36932</ele>
        <time>2012-08-29T10:33:16Z</time>
      </trkpt>
      <trkpt lat="45.5621" lon="3.27418">
        <ele>373.811</ele>
        <time>2012-08-29T10:33:19Z</time>
      </trkpt>
      <trkpt lat="45.56194" lon="3.2744">
        <ele>373.65515</ele>
        <time>2012-08-29T10:33:22Z</time>
      </trkpt>
      <trkpt lat="45.56179" lon="3.2746">
        <ele>373.50348</ele>
        <time>2012-08-29T10:33:25Z</time>
      </trkpt>
      <trkpt lat="45.56165" lon="3.2748">
        <ele>373.45355</ele>
        <time>2012-08-29T10:33:28Z</time>
      </trkpt>
      <trkpt lat="45.56154" lon="3.27499">
        <ele>373.75278</ele>
        <time>2012-08-29T10:33:31Z</time>
      </trkpt>
      <trkpt lat="45.56136" lon="3.27491">
        <ele>373.29996</ele>
        <time>2012-08-29T10:33:36Z</time>
      </trkpt>
      <trkpt lat="45.56124" lon="3.2747">
        <ele>371.78174</ele>
        <time>2012-08-29T10:33:39Z</time>
      </trkpt>
      <trkpt lat="45.56105" lon="3.27453">
        <ele>370.13007</ele>
        <time>2012-08-29T10:33:43Z</time>
      </trkpt>
      <trkpt lat="45.56085" lon="3.27436">
        <ele>368.52542</ele>
        <time>2012-08-29T10:33:47Z</time>
      </trkpt>
      <trkpt lat="45.56065" lon="3.27436">
        <ele>369.18375</ele>
        <time>2012-08-29T10:33:51Z</time>
      </trkpt>
      <trkpt lat="45.56044" lon="3.27452">
        <ele>370.52014</ele>
        <time>2012-08-29T10:33:55Z</time>
      </trkpt>
      <trkpt lat="45.56025" lon="3.27468">
        <ele>371.37503</ele>
        <time>2012-08-29T10:33:59Z</time>
      </trkpt>
      <trkpt lat="45.56008" lon="3.27487">
        <ele>371.33926</ele>
        <time>2012-08-29T10:34:03Z</time>
      </trkpt>
      <trkpt lat="45.55993" lon="3.27507">
        <ele>371.09552</ele>
        <time>2012-08-29T10:34:07Z</time>
      </trkpt>
      <trkpt lat="45.55976" lon="3.27527">
        <ele>371.22076</ele>
        <time>2012-08-29T10:34:11Z</time>
      </trkpt>
      <trkpt lat="45.55959" lon="3.27539">
        <ele>373.28992</ele>
        <time>2012-08-29T10:34:16Z</time>
      </trkpt>
      <trkpt lat="45.5594" lon="3.27535">
        <ele>374.426</ele>
        <time>2012-08-29T10:34:20Z</time>
      </trkpt>
      <trkpt lat="45.55919" lon="3.27528">
        <ele>375.51282</ele>
        <time>2012-08-29T10:34:24Z</time>
      </trkpt>
      <trkpt lat="45.55901" lon="3.27523">
        <ele>375.77155</ele>
        <time>2012-08-29T10:34:27Z</time>
      </trkpt>
      <trkpt lat="45.55877" lon="3.27515">
        <ele>376.61316</ele>
        <time>2012-08-29T10:34:31Z</time>
      </trkpt>
      <trkpt lat="45.55855" lon="3.27509">
        <ele>377.25015</ele>
        <time>2012-08-29T10:34:35Z</time>
      </trkpt>
      <trkpt lat="45.55837" lon="3.27505">
        <ele>377.52637</ele>
        <time>2012-08-29T10:34:38Z</time>
      </trkpt>
      <trkpt lat="45.55816" lon="3.27494">
        <ele>377.52777</ele>
        <time>2012-08-29T10:34:42Z</time>
      </trkpt>
      <trkpt lat="45.55797" lon="3.27479">
        <ele>376.82</ele>
        <time>2012-08-29T10:34:46Z</time>
      </trkpt>
      <trkpt lat="45.55779" lon="3.27462">
        <ele>377.02185</ele>
        <time>2012-08-29T10:34:50Z</time>
      </trkpt>
      <trkpt lat="45.5576" lon="3.27445">
        <ele>378.4498</ele>
        <time>2012-08-29T10:34:54Z</time>
      </trkpt>
      <trkpt lat="45.55742" lon="3.27431">
        <ele>379.17502</ele>
        <time>2012-08-29T10:34:58Z</time>
      </trkpt>
      <trkpt lat="45.55724" lon="3.27416">
        <ele>380.4619</ele>
        <time>2012-08-29T10:35:02Z</time>
      </trkpt>
      <trkpt lat="45.55706" lon="3.27398">
        <ele>381.8234</ele>
        <time>2012-08-29T10:35:06Z</time>
      </trkpt>
      <trkpt lat="45.55687" lon="3.27378">
        <ele>381.97177</ele>
        <time>2012-08-29T10:35:10Z</time>
      </trkpt>
      <trkpt lat="45.55671" lon="3.27363">
        <ele>382.50424</ele>
        <time>2012-08-29T10:35:13Z</time>
      </trkpt>
      <trkpt lat="45.55654" lon="3.27349">
        <ele>382.71793</ele>
        <time>2012-08-29T10:35:16Z</time>
      </trkpt>
      <trkpt lat="45.55638" lon="3.27332">
        <ele>381.96744</ele>
        <time>2012-08-29T10:35:19Z</time>
      </trkpt>
      <trkpt lat="45.55621" lon="3.27316">
        <ele>381.06958</ele>
        <time>2012-08-29T10:35:22Z</time>
      </trkpt>
      <trkpt lat="45.55605" lon="3.27301">
        <ele>380.7681</ele>
        <time>2012-08-29T10:35:24Z</time>
      </trkpt>
      <trkpt lat="45.55582" lon="3.27281">
        <ele>380.67612</ele>
        <time>2012-08-29T10:35:27Z</time>
      </trkpt>
      <trkpt lat="45.5556" lon="3.2726">
        <ele>380.14044</ele>
        <time>2012-08-29T10:35:30Z</time>
      </trkpt>
      <trkpt lat="45.55543" lon="3.27246">
        <ele>379.23294</ele>
        <time>2012-08-29T10:35:32Z</time>
      </trkpt>
      <trkpt lat="45.55524" lon="3.27224">
        <ele>377.8613</ele>
        <time>2012-08-29T10:35:35Z</time>
      </trkpt>
      <trkpt lat="45.55503" lon="3.27203">
        <ele>376.97324</ele>
        <time>2012-08-29T10:35:38Z</time>
      </trkpt>
      <trkpt lat="45.55488" lon="3.27187">
        <ele>376.3764</ele>
        <time>2012-08-29T10:35:40Z</time>
      </trkpt>
      <trkpt lat="45.55466" lon="3.27168">
        <ele>376.42807</ele>
        <time>2012-08-29T10:35:43Z</time>
      </trkpt>
      <trkpt lat="45.55445" lon="3.27148">
        <ele>376.7561</ele>
        <time>2012-08-29T10:35:46Z</time>
      </trkpt>
      <trkpt lat="45.55429" lon="3.27132">
        <ele>376.36792</ele>
        <time>2012-08-29T10:35:49Z</time>
      </trkpt>
      <trkpt lat="45.55412" lon="3.27115">
        <ele>376.48074</ele>
        <time>2012-08-29T10:35:52Z</time>
      </trkpt>
      <trkpt lat="45.55397" lon="3.27095">
        <ele>377.6532</ele>
        <time>2012-08-29T10:35:56Z</time>
      </trkpt>
      <trkpt lat="45.55381" lon="3.27079">
        <ele>378.36243</ele>
        <time>2012-08-29T10:36:00Z</time>
      </trkpt>
      <trkpt lat="45.55368" lon="3.27053">
        <ele>379.22794</ele>
        <time>2012-08-29T10:36:05Z</time>
      </trkpt>
      <trkpt lat="45.5536" lon="3.27028">
        <ele>379.79703</ele>
        <time>2012-08-29T10:36:09Z</time>
      </trkpt>
      <trkpt lat="45.55345" lon="3.27007">
        <ele>380.5836</ele>
        <time>2012-08-29T10:36:14Z</time>
      </trkpt>
      <trkpt lat="45.55327" lon="3.27013">
        <ele>381.90765</ele>
        <time>2012-08-29T10:36:17Z</time>
      </trkpt>
      <trkpt lat="45.55316" lon="3.27037">
        <ele>382.77536</ele>
        <time>2012-08-29T10:36:21Z</time>
      </trkpt>
      <trkpt lat="45.5532" lon="3.27063">
        <ele>383.25418</ele>
        <time>2012-08-29T10:36:24Z</time>
      </trkpt>
      <trkpt lat="45.55333" lon="3.27083">
        <ele>382.94525</ele>
        <time>2012-08-29T10:36:27Z</time>
      </trkpt>
      <trkpt lat="45.55324" lon="3.2711">
        <ele>382.08987</ele>
        <time>2012-08-29T10:36:32Z</time>
      </trkpt>
      <trkpt lat="45.55302" lon="3.27109">
        <ele>380.5056</ele>
        <time>2012-08-29T10:36:35Z</time>
      </trkpt>
      <trkpt lat="45.5528" lon="3.27101">
        <ele>379.55444</ele>
        <time>2012-08-29T10:36:38Z</time>
      </trkpt>
      <trkpt lat="45.55258" lon="3.27092">
        <ele>379.50162</ele>
        <time>2012-08-29T10:36:41Z</time>
      </trkpt>
      <trkpt lat="45.55241" lon="3.27076">
        <ele>379.259</ele>
        <time>2012-08-29T10:36:44Z</time>
      </trkpt>
      <trkpt lat="45.55225" lon="3.27064">
        <ele>379.6926</ele>
        <time>2012-08-29T10:36:47Z</time>
      </trkpt>
      <trkpt lat="45.55202" lon="3.27069">
        <ele>379.77997</ele>
        <time>2012-08-29T10:36:51Z</time>
      </trkpt>
      <trkpt lat="45.5518" lon="3.27083">
        <ele>379.51584</ele>
        <time>2012-08-29T10:36:55Z</time>
      </trkpt>
      <trkpt lat="45.55163" lon="3.27094">
        <ele>379.36188</ele>
        <time>2012-08-29T10:36:58Z</time>
      </trkpt>
      <trkpt lat="45.55145" lon="3.27104">
        <ele>378.2657</ele>
        <time>2012-08-29T10:37:01Z</time>
      </trkpt>
      <trkpt lat="45.55129" lon="3.27114">
        <ele>378.04697</ele>
        <time>2012-08-29T10:37:04Z</time>
      </trkpt>
      <trkpt lat="45.55112" lon="3.27127">
        <ele>378.2219</ele>
        <time>2012-08-29T10:37:07Z</time>
      </trkpt>
      <trkpt lat="45.55094" lon="3.27127">
        <ele>377.69882</ele>
        <time>2012-08-29T10:37:10Z</time>
      </trkpt>
      <trkpt lat="45.55089" lon="3.27099">
        <ele>376.99222</ele>
        <time>2012-08-29T10:37:13Z</time>
      </trkpt>
      <trkpt lat="45.55085" lon="3.27073">
        <ele>376.65973</ele>
        <time>2012-08-29T10:37:16Z</time>
      </trkpt>
      <trkpt lat="45.55082" lon="3.27045">
        <ele>377.26947</ele>
        <time>2012-08-29T10:37:19Z</time>
      </trkpt>
      <trkpt lat="45.55079" lon="3.27018">
        <ele>378.46732</ele>
        <time>2012-08-29T10:37:22Z</time>
      </trkpt>
      <trkpt lat="45.55076" lon="3.26993">
        <ele>379.69922</ele>
        <time>2012-08-29T10:37:25Z</time>
      </trkpt>
      <trkpt lat="45.55073" lon="3.2696">
        <ele>379.61685</ele>
        <time>2012-08-29T10:37:29Z</time>
      </trkpt>
      <trkpt lat="45.55066" lon="3.2693">
        <ele>379.82556</ele>
        <time>2012-08-29T10:37:33Z</time>
      </trkpt>
      <trkpt lat="45.55046" lon="3.26928">
        <ele>379.90973</ele>
        <time>2012-08-29T10:37:36Z</time>
      </trkpt>
      <trkpt lat="45.55024" lon="3.26932">
        <ele>379.99524</ele>
        <time>2012-08-29T10:37:39Z</time>
      </trkpt>
      <trkpt lat="45.55002" lon="3.26934">
        <ele>379.5251</ele>
        <time>2012-08-29T10:37:42Z</time>
      </trkpt>
      <trkpt lat="45.54979" lon="3.26938">
        <ele>378.4814</ele>
        <time>2012-08-29T10:37:45Z</time>
      </trkpt>
      <trkpt lat="45.54956" lon="3.26942">
        <ele>377.96924</ele>
        <time>2012-08-29T10:37:48Z</time>
      </trkpt>
      <trkpt lat="45.54932" lon="3.26945">
        <ele>377.77972</ele>
        <time>2012-08-29T10:37:51Z</time>
      </trkpt>
      <trkpt lat="45.54909" lon="3.26948">
        <ele>377.66696</ele>
        <time>2012-08-29T10:37:54Z</time>
      </trkpt>
      <trkpt lat="45.54887" lon="3.26954">
        <ele>377.06314</ele>
        <time>2012-08-29T10:37:57Z</time>
      </trkpt>
      <trkpt lat="45.54864" lon="3.26953">
        <ele>377.50217</ele>
        <time>2012-08-29T10:38:00Z</time>
      </trkpt>
      <trkpt lat="45.5484" lon="3.26957">
        <ele>377.8108</ele>
        <time>2012-08-29T10:38:03Z</time>
      </trkpt>
      <trkpt lat="45.54818" lon="3.26958">
        <ele>377.52383</ele>
        <time>2012-08-29T10:38:06Z</time>
      </trkpt>
      <trkpt lat="45.54795" lon="3.26957">
        <ele>377.4137</ele>
        <time>2012-08-29T10:38:09Z</time>
      </trkpt>
      <trkpt lat="45.54774" lon="3.26955">
        <ele>377.99847</ele>
        <time>2012-08-29T10:38:12Z</time>
      </trkpt>
      <trkpt lat="45.54752" lon="3.26951">
        <ele>378.19205</ele>
        <time>2012-08-29T10:38:14Z</time>
      </trkpt>
      <trkpt lat="45.54728" lon="3.26943">
        <ele>378.84717</ele>
        <time>2012-08-29T10:38:18Z</time>
      </trkpt>
      <trkpt lat="45.54707" lon="3.26939">
        <ele>379.45166</ele>
        <time>2012-08-29T10:38:20Z</time>
      </trkpt>
      <trkpt lat="45.54686" lon="3.26937">
        <ele>379.952</ele>
        <time>2012-08-29T10:38:24Z</time>
      </trkpt>
      <trkpt lat="45.54662" lon="3.26935">
        <ele>380.49902</ele>
        <time>2012-08-29T10:38:27Z</time>
      </trkpt>
      <trkpt lat="45.54639" lon="3.26931">
        <ele>380.0673</ele>
        <time>2012-08-29T10:38:30Z</time>
      </trkpt>
      <trkpt lat="45.54621" lon="3.26925">
        <ele>379.4367</ele>
        <time>2012-08-29T10:38:33Z</time>
      </trkpt>
      <trkpt lat="45.54602" lon="3.26918">
        <ele>378.50662</ele>
        <time>2012-08-29T10:38:36Z</time>
      </trkpt>
      <trkpt lat="45.5458" lon="3.26908">
        <ele>377.84393</ele>
        <time>2012-08-29T10:38:39Z</time>
      </trkpt>
      <trkpt lat="45.5456" lon="3.26901">
        <ele>377.10812</ele>
        <time>2012-08-29T10:38:42Z</time>
      </trkpt>
      <trkpt lat="45.5454" lon="3.26897">
        <ele>376.6805</ele>
        <time>2012-08-29T10:38:45Z</time>
      </trkpt>
      <trkpt lat="45.54524" lon="3.26885">
        <ele>375.62512</ele>
        <time>2012-08-29T10:38:48Z</time>
      </trkpt>
      <trkpt lat="45.54517" lon="3.26857">
        <ele>375.53558</ele>
        <time>2012-08-29T10:38:51Z</time>
      </trkpt>
      <trkpt lat="45.5453" lon="3.26828">
        <ele>375.67892</ele>
        <time>2012-08-29T10:38:56Z</time>
      </trkpt>
      <trkpt lat="45.54536" lon="3.26802">
        <ele>377.54633</ele>
        <time>2012-08-29T10:38:59Z</time>
      </trkpt>
      <trkpt lat="45.54539" lon="3.26776">
        <ele>378.88257</ele>
        <time>2012-08-29T10:39:02Z</time>
      </trkpt>
      <trkpt lat="45.54537" lon="3.26744">
        <ele>379.70062</ele>
        <time>2012-08-29T10:39:06Z</time>
      </trkpt>
      <trkpt lat="45.54534" lon="3.26717">
        <ele>379.67267</ele>
        <time>2012-08-29T10:39:09Z</time>
      </trkpt>
      <trkpt lat="45.54533" lon="3.26685">
        <ele>379.33344</ele>
        <time>2012-08-29T10:39:13Z</time>
      </trkpt>
      <trkpt lat="45.54527" lon="3.26661">
        <ele>378.76462</ele>
        <time>2012-08-29T10:39:16Z</time>
      </trkpt>
      <trkpt lat="45.54522" lon="3.26635">
        <ele>377.61685</ele>
        <time>2012-08-29T10:39:19Z</time>
      </trkpt>
      <trkpt lat="45.54522" lon="3.26601">
        <ele>377.15756</ele>
        <time>2012-08-29T10:39:23Z</time>
      </trkpt>
      <trkpt lat="45.54516" lon="3.26569">
        <ele>377.53726</ele>
        <time>2012-08-29T10:39:27Z</time>
      </trkpt>
      <trkpt lat="45.54511" lon="3.26542">
        <ele>378.76468</ele>
        <time>2012-08-29T10:39:30Z</time>
      </trkpt>
      <trkpt lat="45.54506" lon="3.26515">
        <ele>379.45905</ele>
        <time>2012-08-29T10:39:33Z</time>
      </trkpt>
      <trkpt lat="45.54501" lon="3.26489">
        <ele>379.91293</ele>
        <time>2012-08-29T10:39:36Z</time>
      </trkpt>
      <trkpt lat="45.54494" lon="3.26457">
        <ele>380.76962</ele>
        <time>2012-08-29T10:39:39Z</time>
      </trkpt>
      <trkpt lat="45.54485" lon="3.26425">
        <ele>381.05396</ele>
        <time>2012-08-29T10:39:44Z</time>
      </trkpt>
      <trkpt lat="45.54478" lon="3.26396">
        <ele>382.1744</ele>
        <time>2012-08-29T10:39:48Z</time>
      </trkpt>
      <trkpt lat="45.54464" lon="3.26369">
        <ele>382.17853</ele>
        <time>2012-08-29T10:39:51Z</time>
      </trkpt>
      <trkpt lat="45.54442" lon="3.26368">
        <ele>381.00812</ele>
        <time>2012-08-29T10:39:57Z</time>
      </trkpt>
      <trkpt lat="45.54421" lon="3.2638">
        <ele>382.72665</ele>
        <time>2012-08-29T10:40:02Z</time>
      </trkpt>
      <trkpt lat="45.54402" lon="3.2639">
        <ele>383.4821</ele>
        <time>2012-08-29T10:40:05Z</time>
      </trkpt>
      <trkpt lat="45.54386" lon="3.26402">
        <ele>383.93515</ele>
        <time>2012-08-29T10:40:08Z</time>
      </trkpt>
      <trkpt lat="45.54367" lon="3.26409">
        <ele>384.57004</ele>
        <time>2012-08-29T10:40:11Z</time>
      </trkpt>
      <trkpt lat="45.54348" lon="3.26417">
        <ele>384.38632</ele>
        <time>2012-08-29T10:40:14Z</time>
      </trkpt>
      <trkpt lat="45.54328" lon="3.26426">
        <ele>386.02838</ele>
        <time>2012-08-29T10:40:18Z</time>
      </trkpt>
      <trkpt lat="45.5431" lon="3.26432">
        <ele>386.4339</ele>
        <time>2012-08-29T10:40:22Z</time>
      </trkpt>
      <trkpt lat="45.54288" lon="3.26436">
        <ele>387.23767</ele>
        <time>2012-08-29T10:40:27Z</time>
      </trkpt>
      <trkpt lat="45.54268" lon="3.26437">
        <ele>386.61493</ele>
        <time>2012-08-29T10:40:32Z</time>
      </trkpt>
      <trkpt lat="45.54246" lon="3.26434">
        <ele>386.81506</ele>
        <time>2012-08-29T10:40:41Z</time>
      </trkpt>
      <trkpt lat="45.54224" lon="3.26446">
        <ele>388.2797</ele>
        <time>2012-08-29T10:40:46Z</time>
      </trkpt>
      <trkpt lat="45.54223" lon="3.26473">
        <ele>390.60477</ele>
        <time>2012-08-29T10:40:54Z</time>
      </trkpt>
      <trkpt lat="45.54223" lon="3.26507">
        <ele>391.44003</ele>
        <time>2012-08-29T10:40:57Z</time>
      </trkpt>
      <trkpt lat="45.54224" lon="3.26546">
        <ele>390.36255</ele>
        <time>2012-08-29T10:41:01Z</time>
      </trkpt>
      <trkpt lat="45.54221" lon="3.26572">
        <ele>387.7316</ele>
        <time>2012-08-29T10:41:04Z</time>
      </trkpt>
      <trkpt lat="45.542" lon="3.26582">
        <ele>387.31537</ele>
        <time>2012-08-29T10:41:08Z</time>
      </trkpt>
      <trkpt lat="45.54177" lon="3.26576">
        <ele>386.9242</ele>
        <time>2012-08-29T10:41:11Z</time>
      </trkpt>
      <trkpt lat="45.5416" lon="3.26569">
        <ele>386.68002</ele>
        <time>2012-08-29T10:41:13Z</time>
      </trkpt>
      <trkpt lat="45.54137" lon="3.2656">
        <ele>386.0796</ele>
        <time>2012-08-29T10:41:16Z</time>
      </trkpt>
      <trkpt lat="45.54117" lon="3.26553">
        <ele>386.0487</ele>
        <time>2012-08-29T10:41:18Z</time>
      </trkpt>
      <trkpt lat="45.54096" lon="3.26542">
        <ele>386.28668</ele>
        <time>2012-08-29T10:41:21Z</time>
      </trkpt>
      <trkpt lat="45.54076" lon="3.26524">
        <ele>385.4652</ele>
        <time>2012-08-29T10:41:24Z</time>
      </trkpt>
      <trkpt lat="45.54057" lon="3.26503">
        <ele>384.4124</ele>
        <time>2012-08-29T10:41:27Z</time>
      </trkpt>
      <trkpt lat="45.54039" lon="3.26482">
        <ele>384.65576</ele>
        <time>2012-08-29T10:41:30Z</time>
      </trkpt>
      <trkpt lat="45.54026" lon="3.2646">
        <ele>384.3881</ele>
        <time>2012-08-29T10:41:33Z</time>
      </trkpt>
      <trkpt lat="45.54007" lon="3.26436">
        <ele>382.98456</ele>
        <time>2012-08-29T10:41:36Z</time>
      </trkpt>
      <trkpt lat="45.53998" lon="3.26412">
        <ele>382.05807</ele>
        <time>2012-08-29T10:41:39Z</time>
      </trkpt>
      <trkpt lat="45.53985" lon="3.2639">
        <ele>381.53595</ele>
        <time>2012-08-29T10:41:42Z</time>
      </trkpt>
      <trkpt lat="45.53974" lon="3.26368">
        <ele>381.82663</ele>
        <time>2012-08-29T10:41:45Z</time>
      </trkpt>
      <trkpt lat="45.53962" lon="3.26348">
        <ele>382.2227</ele>
        <time>2012-08-29T10:41:48Z</time>
      </trkpt>
      <trkpt lat="45.53951" lon="3.26327">
        <ele>383.51788</ele>
        <time>2012-08-29T10:41:51Z</time>
      </trkpt>
      <trkpt lat="45.53933" lon="3.26304">
        <ele>384.11923</ele>
        <time>2012-08-29T10:41:55Z</time>
      </trkpt>
      <trkpt lat="45.53916" lon="3.26281">
        <ele>384.31027</ele>
        <time>2012-08-29T10:41:59Z</time>
      </trkpt>
      <trkpt lat="45.539" lon="3.26265">
        <ele>384.4189</ele>
        <time>2012-08-29T10:42:02Z</time>
      </trkpt>
      <trkpt lat="45.53885" lon="3.26248">
        <ele>385.15536</ele>
        <time>2012-08-29T10:42:05Z</time>
      </trkpt>
      <trkpt lat="45.53868" lon="3.26233">
        <ele>386.3223</ele>
        <time>2012-08-29T10:42:08Z</time>
      </trkpt>
      <trkpt lat="45.53856" lon="3.26211">
        <ele>386.5615</ele>
        <time>2012-08-29T10:42:11Z</time>
      </trkpt>
      <trkpt lat="45.53841" lon="3.26188">
        <ele>385.96506</ele>
        <time>2012-08-29T10:42:15Z</time>
      </trkpt>
      <trkpt lat="45.53831" lon="3.26159">
        <ele>384.53143</ele>
        <time>2012-08-29T10:42:18Z</time>
      </trkpt>
      <trkpt lat="45.5384" lon="3.26135">
        <ele>385.41702</ele>
        <time>2012-08-29T10:42:27Z</time>
      </trkpt>
      <trkpt lat="45.53853" lon="3.26114">
        <ele>388.77304</ele>
        <time>2012-08-29T10:42:36Z</time>
      </trkpt>
      <trkpt lat="45.53864" lon="3.26091">
        <ele>391.80298</ele>
        <time>2012-08-29T10:42:44Z</time>
      </trkpt>
      <trkpt lat="45.53873" lon="3.26068">
        <ele>393.92078</ele>
        <time>2012-08-29T10:42:51Z</time>
      </trkpt>
      <trkpt lat="45.53883" lon="3.26045">
        <ele>394.56064</ele>
        <time>2012-08-29T10:42:57Z</time>
      </trkpt>
      <trkpt lat="45.53865" lon="3.26062">
        <ele>394.11414</ele>
        <time>2012-08-29T10:43:08Z</time>
      </trkpt>
      <trkpt lat="45.53854" lon="3.26084">
        <ele>393.66492</ele>
        <time>2012-08-29T10:43:12Z</time>
      </trkpt>
      <trkpt lat="45.53844" lon="3.26108">
        <ele>391.25046</ele>
        <time>2012-08-29T10:43:17Z</time>
      </trkpt>
      <trkpt lat="45.53828" lon="3.26124">
        <ele>388.06784</ele>
        <time>2012-08-29T10:43:31Z</time>
      </trkpt>
      <trkpt lat="45.53809" lon="3.26137">
        <ele>385.19232</ele>
        <time>2012-08-29T10:43:38Z</time>
      </trkpt>
      <trkpt lat="45.5379" lon="3.26146">
        <ele>382.60178</ele>
        <time>2012-08-29T10:43:42Z</time>
      </trkpt>
      <trkpt lat="45.53772" lon="3.26143">
        <ele>380.90594</ele>
        <time>2012-08-29T10:43:45Z</time>
      </trkpt>
      <trkpt lat="45.53758" lon="3.26123">
        <ele>379.10452</ele>
        <time>2012-08-29T10:43:49Z</time>
      </trkpt>
      <trkpt lat="45.53742" lon="3.26102">
        <ele>377.65564</ele>
        <time>2012-08-29T10:43:53Z</time>
      </trkpt>
      <trkpt lat="45.53727" lon="3.2608">
        <ele>376.59796</ele>
        <time>2012-08-29T10:43:57Z</time>
      </trkpt>
      <trkpt lat="45.5371" lon="3.26057">
        <ele>375.88403</ele>
        <time>2012-08-29T10:44:01Z</time>
      </trkpt>
      <trkpt lat="45.53692" lon="3.26036">
        <ele>375.70148</ele>
        <time>2012-08-29T10:44:05Z</time>
      </trkpt>
      <trkpt lat="45.53676" lon="3.26022">
        <ele>375.67926</ele>
        <time>2012-08-29T10:44:08Z</time>
      </trkpt>
      <trkpt lat="45.53661" lon="3.26005">
        <ele>375.4074</ele>
        <time>2012-08-29T10:44:11Z</time>
      </trkpt>
      <trkpt lat="45.53647" lon="3.25988">
        <ele>375.11615</ele>
        <time>2012-08-29T10:44:14Z</time>
      </trkpt>
      <trkpt lat="45.53631" lon="3.25972">
        <ele>375.3073</ele>
        <time>2012-08-29T10:44:17Z</time>
      </trkpt>
      <trkpt lat="45.53616" lon="3.25958">
        <ele>375.26923</ele>
        <time>2012-08-29T10:44:20Z</time>
      </trkpt>
      <trkpt lat="45.53601" lon="3.25939">
        <ele>375.07193</ele>
        <time>2012-08-29T10:44:23Z</time>
      </trkpt>
      <trkpt lat="45.53582" lon="3.2592">
        <ele>374.40625</ele>
        <time>2012-08-29T10:44:27Z</time>
      </trkpt>
      <trkpt lat="45.53563" lon="3.25903">
        <ele>374.07843</ele>
        <time>2012-08-29T10:44:31Z</time>
      </trkpt>
      <trkpt lat="45.53547" lon="3.25891">
        <ele>373.68204</ele>
        <time>2012-08-29T10:44:34Z</time>
      </trkpt>
      <trkpt lat="45.53528" lon="3.25876">
        <ele>373.9778</ele>
        <time>2012-08-29T10:44:38Z</time>
      </trkpt>
      <trkpt lat="45.53511" lon="3.25862">
        <ele>374.30365</ele>
        <time>2012-08-29T10:44:41Z</time>
      </trkpt>
      <trkpt lat="45.53493" lon="3.2585">
        <ele>374.15363</ele>
        <time>2012-08-29T10:44:44Z</time>
      </trkpt>
      <trkpt lat="45.53475" lon="3.25841">
        <ele>373.82782</ele>
        <time>2012-08-29T10:44:47Z</time>
      </trkpt>
      <trkpt lat="45.53458" lon="3.25828">
        <ele>374.0185</ele>
        <time>2012-08-29T10:44:50Z</time>
      </trkpt>
      <trkpt lat="45.53437" lon="3.25815">
        <ele>374.63504</ele>
        <time>2012-08-29T10:44:54Z</time>
      </trkpt>
      <trkpt lat="45.53418" lon="3.25803">
        <ele>375.8602</ele>
        <time>2012-08-29T10:44:58Z</time>
      </trkpt>
      <trkpt lat="45.53404" lon="3.25783">
        <ele>376.0256</ele>
        <time>2012-08-29T10:45:02Z</time>
      </trkpt>
      <trkpt lat="45.53409" lon="3.25757">
        <ele>376.32025</ele>
        <time>2012-08-29T10:45:07Z</time>
      </trkpt>
      <trkpt lat="45.53418" lon="3.25733">
        <ele>376.78952</ele>
        <time>2012-08-29T10:45:12Z</time>
      </trkpt>
      <trkpt lat="45.53427" lon="3.25709">
        <ele>377.675</ele>
        <time>2012-08-29T10:45:17Z</time>
      </trkpt>
      <trkpt lat="45.53436" lon="3.25682">
        <ele>381.38864</ele>
        <time>2012-08-29T10:45:23Z</time>
      </trkpt>
      <trkpt lat="45.53445" lon="3.25658">
        <ele>384.21796</ele>
        <time>2012-08-29T10:45:30Z</time>
      </trkpt>
      <trkpt lat="45.53458" lon="3.25638">
        <ele>384.89896</ele>
        <time>2012-08-29T10:45:34Z</time>
      </trkpt>
      <trkpt lat="45.53471" lon="3.25614">
        <ele>385.71344</ele>
        <time>2012-08-29T10:45:39Z</time>
      </trkpt>
      <trkpt lat="45.53486" lon="3.25596">
        <ele>387.5124</ele>
        <time>2012-08-29T10:45:44Z</time>
      </trkpt>
      <trkpt lat="45.53501" lon="3.25578">
        <ele>394.2881</ele>
        <time>2012-08-29T10:45:50Z</time>
      </trkpt>
      <trkpt lat="45.53505" lon="3.25551">
        <ele>396.85678</ele>
        <time>2012-08-29T10:45:55Z</time>
      </trkpt>
      <trkpt lat="45.53496" lon="3.25526">
        <ele>397.91516</ele>
        <time>2012-08-29T10:46:00Z</time>
      </trkpt>
      <trkpt lat="45.53492" lon="3.25499">
        <ele>397.32678</ele>
        <time>2012-08-29T10:46:05Z</time>
      </trkpt>
      <trkpt lat="45.53492" lon="3.25472">
        <ele>395.43207</ele>
        <time>2012-08-29T10:46:10Z</time>
      </trkpt>
      <trkpt lat="45.53491" lon="3.25441">
        <ele>396.1087</ele>
        <time>2012-08-29T10:46:15Z</time>
      </trkpt>
      <trkpt lat="45.53489" lon="3.2541">
        <ele>396.96606</ele>
        <time>2012-08-29T10:46:20Z</time>
      </trkpt>
      <trkpt lat="45.53486" lon="3.25383">
        <ele>396.63095</ele>
        <time>2012-08-29T10:46:24Z</time>
      </trkpt>
      <trkpt lat="45.53482" lon="3.25356">
        <ele>395.84525</ele>
        <time>2012-08-29T10:46:28Z</time>
      </trkpt>
      <trkpt lat="45.53477" lon="3.25329">
        <ele>396.08298</ele>
        <time>2012-08-29T10:46:32Z</time>
      </trkpt>
      <trkpt lat="45.53472" lon="3.25302">
        <ele>397.4945</ele>
        <time>2012-08-29T10:46:36Z</time>
      </trkpt>
      <trkpt lat="45.53465" lon="3.25277">
        <ele>397.8259</ele>
        <time>2012-08-29T10:46:40Z</time>
      </trkpt>
      <trkpt lat="45.5346" lon="3.25248">
        <ele>398.25043</ele>
        <time>2012-08-29T10:46:46Z</time>
      </trkpt>
      <trkpt lat="45.5345" lon="3.2522">
        <ele>399.20743</ele>
        <time>2012-08-29T10:46:54Z</time>
      </trkpt>
      <trkpt lat="45.53445" lon="3.25188">
        <ele>397.6273</ele>
        <time>2012-08-29T10:46:59Z</time>
      </trkpt>
      <trkpt lat="45.53441" lon="3.25158">
        <ele>396.56323</ele>
        <time>2012-08-29T10:47:03Z</time>
      </trkpt>
      <trkpt lat="45.53436" lon="3.25129">
        <ele>397.07928</ele>
        <time>2012-08-29T10:47:07Z</time>
      </trkpt>
      <trkpt lat="45.53431" lon="3.25101">
        <ele>398.21054</ele>
        <time>2012-08-29T10:47:11Z</time>
      </trkpt>
      <trkpt lat="45.53426" lon="3.25068">
        <ele>400.06653</ele>
        <time>2012-08-29T10:47:15Z</time>
      </trkpt>
      <trkpt lat="45.5342" lon="3.25037">
        <ele>400.7311</ele>
        <time>2012-08-29T10:47:19Z</time>
      </trkpt>
      <trkpt lat="45.53413" lon="3.25004">
        <ele>401.26248</ele>
        <time>2012-08-29T10:47:23Z</time>
      </trkpt>
      <trkpt lat="45.53411" lon="3.24979">
        <ele>400.88156</ele>
        <time>2012-08-29T10:47:26Z</time>
      </trkpt>
      <trkpt lat="45.53405" lon="3.24949">
        <ele>401.30344</ele>
        <time>2012-08-29T10:47:30Z</time>
      </trkpt>
      <trkpt lat="45.53398" lon="3.24922">
        <ele>401.68146</ele>
        <time>2012-08-29T10:47:34Z</time>
      </trkpt>
      <trkpt lat="45.53396" lon="3.24895">
        <ele>401.4927</ele>
        <time>2012-08-29T10:47:37Z</time>
      </trkpt>
      <trkpt lat="45.53389" lon="3.2487">
        <ele>401.37555</ele>
        <time>2012-08-29T10:47:40Z</time>
      </trkpt>
      <trkpt lat="45.53387" lon="3.24843">
        <ele>401.22772</ele>
        <time>2012-08-29T10:47:43Z</time>
      </trkpt>
      <trkpt lat="45.53382" lon="3.2481">
        <ele>401.57428</ele>
        <time>2012-08-29T10:47:47Z</time>
      </trkpt>
      <trkpt lat="45.53377" lon="3.24784">
        <ele>400.83344</ele>
        <time>2012-08-29T10:47:50Z</time>
      </trkpt>
      <trkpt lat="45.5337" lon="3.24755">
        <ele>400.6851</ele>
        <time>2012-08-29T10:47:54Z</time>
      </trkpt>
      <trkpt lat="45.53368" lon="3.24726">
        <ele>401.47098</ele>
        <time>2012-08-29T10:47:57Z</time>
      </trkpt>
      <trkpt lat="45.53363" lon="3.24695">
        <ele>402.28604</ele>
        <time>2012-08-29T10:48:02Z</time>
      </trkpt>
      <trkpt lat="45.53357" lon="3.24666">
        <ele>405.07288</ele>
        <time>2012-08-29T10:48:07Z</time>
      </trkpt>
      <trkpt lat="45.53336" lon="3.24658">
        <ele>406.04327</ele>
        <time>2012-08-29T10:48:11Z</time>
      </trkpt>
      <trkpt lat="45.53319" lon="3.24651">
        <ele>405.56564</ele>
        <time>2012-08-29T10:48:14Z</time>
      </trkpt>
      <trkpt lat="45.53301" lon="3.24645">
        <ele>405.3157</ele>
        <time>2012-08-29T10:48:17Z</time>
      </trkpt>
      <trkpt lat="45.53281" lon="3.24637">
        <ele>404.11963</ele>
        <time>2012-08-29T10:48:20Z</time>
      </trkpt>
      <trkpt lat="45.53262" lon="3.24628">
        <ele>403.28537</ele>
        <time>2012-08-29T10:48:23Z</time>
      </trkpt>
      <trkpt lat="45.53241" lon="3.24617">
        <ele>401.65778</ele>
        <time>2012-08-29T10:48:27Z</time>
      </trkpt>
      <trkpt lat="45.53218" lon="3.24605">
        <ele>401.0795</ele>
        <time>2012-08-29T10:48:31Z</time>
      </trkpt>
      <trkpt lat="45.53197" lon="3.24591">
        <ele>400.69693</ele>
        <time>2012-08-29T10:48:35Z</time>
      </trkpt>
      <trkpt lat="45.5318" lon="3.24582">
        <ele>400.42422</ele>
        <time>2012-08-29T10:48:38Z</time>
      </trkpt>
      <trkpt lat="45.53162" lon="3.24574">
        <ele>399.692</ele>
        <time>2012-08-29T10:48:41Z</time>
      </trkpt>
      <trkpt lat="45.53143" lon="3.24574">
        <ele>399.32996</ele>
        <time>2012-08-29T10:48:44Z</time>
      </trkpt>
      <trkpt lat="45.53125" lon="3.24574">
        <ele>399.31628</ele>
        <time>2012-08-29T10:48:47Z</time>
      </trkpt>
      <trkpt lat="45.53103" lon="3.24575">
        <ele>400.89334</ele>
        <time>2012-08-29T10:48:51Z</time>
      </trkpt>
      <trkpt lat="45.53079" lon="3.24576">
        <ele>402.86108</ele>
        <time>2012-08-29T10:48:55Z</time>
      </trkpt>
      <trkpt lat="45.5306" lon="3.24578">
        <ele>403.4794</ele>
        <time>2012-08-29T10:48:57Z</time>
      </trkpt>
      <trkpt lat="45.53041" lon="3.24579">
        <ele>404.09653</ele>
        <time>2012-08-29T10:49:01Z</time>
      </trkpt>
      <trkpt lat="45.53022" lon="3.24578">
        <ele>404.0881</ele>
        <time>2012-08-29T10:49:04Z</time>
      </trkpt>
      <trkpt lat="45.53001" lon="3.24575">
        <ele>403.76736</ele>
        <time>2012-08-29T10:49:07Z</time>
      </trkpt>
      <trkpt lat="45.52977" lon="3.24574">
        <ele>403.3267</ele>
        <time>2012-08-29T10:49:11Z</time>
      </trkpt>
      <trkpt lat="45.52953" lon="3.24573">
        <ele>402.61655</ele>
        <time>2012-08-29T10:49:15Z</time>
      </trkpt>
      <trkpt lat="45.5293" lon="3.24568">
        <ele>402.5774</ele>
        <time>2012-08-29T10:49:19Z</time>
      </trkpt>
      <trkpt lat="45.52907" lon="3.24564">
        <ele>403.0701</ele>
        <time>2012-08-29T10:49:23Z</time>
      </trkpt>
      <trkpt lat="45.52883" lon="3.24561">
        <ele>403.51544</ele>
        <time>2012-08-29T10:49:27Z</time>
      </trkpt>
      <trkpt lat="45.52864" lon="3.24554">
        <ele>403.95673</ele>
        <time>2012-08-29T10:49:31Z</time>
      </trkpt>
      <trkpt lat="45.52842" lon="3.24549">
        <ele>404.51825</ele>
        <time>2012-08-29T10:49:35Z</time>
      </trkpt>
      <trkpt lat="45.52822" lon="3.24541">
        <ele>405.44437</ele>
        <time>2012-08-29T10:49:39Z</time>
      </trkpt>
      <trkpt lat="45.52801" lon="3.24526">
        <ele>405.6784</ele>
        <time>2012-08-29T10:49:43Z</time>
      </trkpt>
      <trkpt lat="45.52783" lon="3.2451">
        <ele>406.12744</ele>
        <time>2012-08-29T10:49:47Z</time>
      </trkpt>
      <trkpt lat="45.52763" lon="3.24494">
        <ele>406.40585</ele>
        <time>2012-08-29T10:49:51Z</time>
      </trkpt>
      <trkpt lat="45.52748" lon="3.24477">
        <ele>407.66504</ele>
        <time>2012-08-29T10:49:55Z</time>
      </trkpt>
      <trkpt lat="45.52734" lon="3.24457">
        <ele>409.0783</ele>
        <time>2012-08-29T10:49:59Z</time>
      </trkpt>
      <trkpt lat="45.52721" lon="3.24435">
        <ele>409.76688</ele>
        <time>2012-08-29T10:50:03Z</time>
      </trkpt>
      <trkpt lat="45.52705" lon="3.24414">
        <ele>410.7113</ele>
        <time>2012-08-29T10:50:07Z</time>
      </trkpt>
      <trkpt lat="45.52691" lon="3.24391">
        <ele>411.3277</ele>
        <time>2012-08-29T10:50:12Z</time>
      </trkpt>
      <trkpt lat="45.52679" lon="3.24372">
        <ele>411.84033</ele>
        <time>2012-08-29T10:50:16Z</time>
      </trkpt>
      <trkpt lat="45.52663" lon="3.24356">
        <ele>411.8728</ele>
        <time>2012-08-29T10:50:20Z</time>
      </trkpt>
      <trkpt lat="45.52648" lon="3.2434">
        <ele>411.44913</ele>
        <time>2012-08-29T10:50:24Z</time>
      </trkpt>
      <trkpt lat="45.52632" lon="3.24324">
        <ele>410.8084</ele>
        <time>2012-08-29T10:50:28Z</time>
      </trkpt>
      <trkpt lat="45.52617" lon="3.24308">
        <ele>410.72443</ele>
        <time>2012-08-29T10:50:32Z</time>
      </trkpt>
      <trkpt lat="45.52601" lon="3.24296">
        <ele>412.7314</ele>
        <time>2012-08-29T10:50:37Z</time>
      </trkpt>
      <trkpt lat="45.52583" lon="3.24282">
        <ele>415.47614</ele>
        <time>2012-08-29T10:50:42Z</time>
      </trkpt>
      <trkpt lat="45.52569" lon="3.24265">
        <ele>418.13187</ele>
        <time>2012-08-29T10:50:47Z</time>
      </trkpt>
      <trkpt lat="45.52552" lon="3.24248">
        <ele>419.93045</ele>
        <time>2012-08-29T10:50:53Z</time>
      </trkpt>
      <trkpt lat="45.52538" lon="3.24233">
        <ele>421.1862</ele>
        <time>2012-08-29T10:50:59Z</time>
      </trkpt>
      <trkpt lat="45.52522" lon="3.24213">
        <ele>421.5209</ele>
        <time>2012-08-29T10:51:06Z</time>
      </trkpt>
      <trkpt lat="45.52505" lon="3.24201">
        <ele>422.4601</ele>
        <time>2012-08-29T10:51:12Z</time>
      </trkpt>
      <trkpt lat="45.5249" lon="3.24183">
        <ele>423.4524</ele>
        <time>2012-08-29T10:51:19Z</time>
      </trkpt>
      <trkpt lat="45.52478" lon="3.24162">
        <ele>427.30728</ele>
        <time>2012-08-29T10:51:26Z</time>
      </trkpt>
      <trkpt lat="45.52462" lon="3.24145">
        <ele>429.8556</ele>
        <time>2012-08-29T10:51:32Z</time>
      </trkpt>
      <trkpt lat="45.52447" lon="3.24127">
        <ele>432.24292</ele>
        <time>2012-08-29T10:51:38Z</time>
      </trkpt>
      <trkpt lat="45.52431" lon="3.24112">
        <ele>433.99515</ele>
        <time>2012-08-29T10:51:44Z</time>
      </trkpt>
      <trkpt lat="45.52416" lon="3.24097">
        <ele>434.9057</ele>
        <time>2012-08-29T10:51:49Z</time>
      </trkpt>
      <trkpt lat="45.524" lon="3.24079">
        <ele>436.22983</ele>
        <time>2012-08-29T10:51:55Z</time>
      </trkpt>
      <trkpt lat="45.52384" lon="3.24062">
        <ele>437.34064</ele>
        <time>2012-08-29T10:52:01Z</time>
      </trkpt>
      <trkpt lat="45.52368" lon="3.24047">
        <ele>438.19907</ele>
        <time>2012-08-29T10:52:07Z</time>
      </trkpt>
      <trkpt lat="45.52349" lon="3.24033">
        <ele>439.42697</ele>
        <time>2012-08-29T10:52:14Z</time>
      </trkpt>
      <trkpt lat="45.52333" lon="3.24017">
        <ele>441.0926</ele>
        <time>2012-08-29T10:52:21Z</time>
      </trkpt>
      <trkpt lat="45.52315" lon="3.24002">
        <ele>441.74118</ele>
        <time>2012-08-29T10:52:27Z</time>
      </trkpt>
      <trkpt lat="45.52299" lon="3.23986">
        <ele>441.55334</ele>
        <time>2012-08-29T10:52:32Z</time>
      </trkpt>
      <trkpt lat="45.52287" lon="3.23964">
        <ele>442.5953</ele>
        <time>2012-08-29T10:52:37Z</time>
      </trkpt>
      <trkpt lat="45.52277" lon="3.23936">
        <ele>443.00574</ele>
        <time>2012-08-29T10:52:42Z</time>
      </trkpt>
      <trkpt lat="45.52268" lon="3.23909">
        <ele>442.61176</ele>
        <time>2012-08-29T10:52:47Z</time>
      </trkpt>
      <trkpt lat="45.52259" lon="3.23884">
        <ele>443.22772</ele>
        <time>2012-08-29T10:52:52Z</time>
      </trkpt>
      <trkpt lat="45.5225" lon="3.23859">
        <ele>444.836</ele>
        <time>2012-08-29T10:52:57Z</time>
      </trkpt>
      <trkpt lat="45.52243" lon="3.23833">
        <ele>445.48853</ele>
        <time>2012-08-29T10:53:03Z</time>
      </trkpt>
      <trkpt lat="45.52234" lon="3.23807">
        <ele>446.68982</ele>
        <time>2012-08-29T10:53:09Z</time>
      </trkpt>
      <trkpt lat="45.52227" lon="3.2378">
        <ele>449.06885</ele>
        <time>2012-08-29T10:53:17Z</time>
      </trkpt>
      <trkpt lat="45.52219" lon="3.23753">
        <ele>451.91702</ele>
        <time>2012-08-29T10:53:25Z</time>
      </trkpt>
      <trkpt lat="45.52213" lon="3.23728">
        <ele>454.21353</ele>
        <time>2012-08-29T10:53:31Z</time>
      </trkpt>
      <trkpt lat="45.52203" lon="3.23703">
        <ele>455.2305</ele>
        <time>2012-08-29T10:53:39Z</time>
      </trkpt>
      <trkpt lat="45.52185" lon="3.2369">
        <ele>457.01337</ele>
        <time>2012-08-29T10:53:47Z</time>
      </trkpt>
      <trkpt lat="45.52165" lon="3.23681">
        <ele>459.66266</ele>
        <time>2012-08-29T10:53:55Z</time>
      </trkpt>
      <trkpt lat="45.52147" lon="3.23671">
        <ele>460.71997</ele>
        <time>2012-08-29T10:54:03Z</time>
      </trkpt>
      <trkpt lat="45.52127" lon="3.23667">
        <ele>462.13058</ele>
        <time>2012-08-29T10:54:11Z</time>
      </trkpt>
      <trkpt lat="45.52107" lon="3.23668">
        <ele>464.208</ele>
        <time>2012-08-29T10:54:19Z</time>
      </trkpt>
      <trkpt lat="45.52089" lon="3.23668">
        <ele>466.97134</ele>
        <time>2012-08-29T10:54:27Z</time>
      </trkpt>
      <trkpt lat="45.52071" lon="3.23662">
        <ele>467.8518</ele>
        <time>2012-08-29T10:54:35Z</time>
      </trkpt>
      <trkpt lat="45.52053" lon="3.23653">
        <ele>468.2897</ele>
        <time>2012-08-29T10:54:43Z</time>
      </trkpt>
      <trkpt lat="45.52034" lon="3.23646">
        <ele>470.5762</ele>
        <time>2012-08-29T10:54:51Z</time>
      </trkpt>
      <trkpt lat="45.52017" lon="3.23636">
        <ele>473.21375</ele>
        <time>2012-08-29T10:54:58Z</time>
      </trkpt>
      <trkpt lat="45.51997" lon="3.23627">
        <ele>474.4682</ele>
        <time>2012-08-29T10:55:05Z</time>
      </trkpt>
      <trkpt lat="45.5198" lon="3.23619">
        <ele>474.01184</ele>
        <time>2012-08-29T10:55:11Z</time>
      </trkpt>
      <trkpt lat="45.51962" lon="3.23609">
        <ele>472.75903</ele>
        <time>2012-08-29T10:55:18Z</time>
      </trkpt>
      <trkpt lat="45.51943" lon="3.23602">
        <ele>473.16702</ele>
        <time>2012-08-29T10:55:25Z</time>
      </trkpt>
      <trkpt lat="45.51925" lon="3.23593">
        <ele>474.8511</ele>
        <time>2012-08-29T10:55:32Z</time>
      </trkpt>
      <trkpt lat="45.51907" lon="3.23585">
        <ele>478.34927</ele>
        <time>2012-08-29T10:55:40Z</time>
      </trkpt>
      <trkpt lat="45.51887" lon="3.23576">
        <ele>481.0543</ele>
        <time>2012-08-29T10:55:48Z</time>
      </trkpt>
      <trkpt lat="45.51869" lon="3.23567">
        <ele>481.77966</ele>
        <time>2012-08-29T10:55:55Z</time>
      </trkpt>
      <trkpt lat="45.51851" lon="3.23558">
        <ele>482.8852</ele>
        <time>2012-08-29T10:56:02Z</time>
      </trkpt>
      <trkpt lat="45.51833" lon="3.23551">
        <ele>483.99026</ele>
        <time>2012-08-29T10:56:10Z</time>
      </trkpt>
      <trkpt lat="45.51817" lon="3.23541">
        <ele>486.9079</ele>
        <time>2012-08-29T10:56:20Z</time>
      </trkpt>
      <trkpt lat="45.51801" lon="3.23526">
        <ele>489.547</ele>
        <time>2012-08-29T10:56:30Z</time>
      </trkpt>
      <trkpt lat="45.51786" lon="3.2351">
        <ele>491.70483</ele>
        <time>2012-08-29T10:56:40Z</time>
      </trkpt>
      <trkpt lat="45.51771" lon="3.23493">
        <ele>493.91003</ele>
        <time>2012-08-29T10:56:50Z</time>
      </trkpt>
      <trkpt lat="45.51757" lon="3.23475">
        <ele>496.1987</ele>
        <time>2012-08-29T10:57:00Z</time>
      </trkpt>
      <trkpt lat="45.51742" lon="3.2346">
        <ele>500.7381</ele>
        <time>2012-08-29T10:57:10Z</time>
      </trkpt>
      <trkpt lat="45.51724" lon="3.23447">
        <ele>503.315</ele>
        <time>2012-08-29T10:57:20Z</time>
      </trkpt>
      <trkpt lat="45.51706" lon="3.23443">
        <ele>506.13174</ele>
        <time>2012-08-29T10:57:30Z</time>
      </trkpt>
      <trkpt lat="45.51689" lon="3.23433">
        <ele>510.43896</ele>
        <time>2012-08-29T10:57:39Z</time>
      </trkpt>
      <trkpt lat="45.51669" lon="3.23427">
        <ele>511.78076</ele>
        <time>2012-08-29T10:57:46Z</time>
      </trkpt>
      <trkpt lat="45.51648" lon="3.23425">
        <ele>513.29407</ele>
        <time>2012-08-29T10:57:54Z</time>
      </trkpt>
      <trkpt lat="45.51634" lon="3.23444">
        <ele>512.8398</ele>
        <time>2012-08-29T10:58:01Z</time>
      </trkpt>
      <trkpt lat="45.51628" lon="3.23468">
        <ele>512.4187</ele>
        <time>2012-08-29T10:58:07Z</time>
      </trkpt>
      <trkpt lat="45.51621" lon="3.23493">
        <ele>512.66846</ele>
        <time>2012-08-29T10:58:13Z</time>
      </trkpt>
      <trkpt lat="45.51612" lon="3.23522">
        <ele>512.6945</ele>
        <time>2012-08-29T10:58:19Z</time>
      </trkpt>
      <trkpt lat="45.51607" lon="3.23547">
        <ele>512.1955</ele>
        <time>2012-08-29T10:58:24Z</time>
      </trkpt>
      <trkpt lat="45.51603" lon="3.23573">
        <ele>514.00793</ele>
        <time>2012-08-29T10:58:29Z</time>
      </trkpt>
      <trkpt lat="45.51597" lon="3.23598">
        <ele>516.51337</ele>
        <time>2012-08-29T10:58:34Z</time>
      </trkpt>
      <trkpt lat="45.51591" lon="3.23624">
        <ele>519.35144</ele>
        <time>2012-08-29T10:58:40Z</time>
      </trkpt>
      <trkpt lat="45.51583" lon="3.2365">
        <ele>524.81134</ele>
        <time>2012-08-29T10:58:46Z</time>
      </trkpt>
      <trkpt lat="45.5158" lon="3.23678">
        <ele>529.63135</ele>
        <time>2012-08-29T10:58:51Z</time>
      </trkpt>
      <trkpt lat="45.51569" lon="3.23709">
        <ele>531.39343</ele>
        <time>2012-08-29T10:58:57Z</time>
      </trkpt>
      <trkpt lat="45.51567" lon="3.23737">
        <ele>529.5742</ele>
        <time>2012-08-29T10:59:02Z</time>
      </trkpt>
      <trkpt lat="45.51557" lon="3.2376">
        <ele>527.83075</ele>
        <time>2012-08-29T10:59:07Z</time>
      </trkpt>
      <trkpt lat="45.51543" lon="3.23784">
        <ele>525.29767</ele>
        <time>2012-08-29T10:59:12Z</time>
      </trkpt>
      <trkpt lat="45.51527" lon="3.23798">
        <ele>524.23334</ele>
        <time>2012-08-29T10:59:17Z</time>
      </trkpt>
      <trkpt lat="45.5151" lon="3.23808">
        <ele>527.5616</ele>
        <time>2012-08-29T10:59:25Z</time>
      </trkpt>
      <trkpt lat="45.51494" lon="3.2382">
        <ele>528.67773</ele>
        <time>2012-08-29T10:59:33Z</time>
      </trkpt>
      <trkpt lat="45.51458" lon="3.23839">
        <ele>530.234</ele>
        <time>2012-08-29T10:59:48Z</time>
      </trkpt>
      <trkpt lat="45.5144" lon="3.2385">
        <ele>537.54816</ele>
        <time>2012-08-29T10:59:57Z</time>
      </trkpt>
      <trkpt lat="45.51422" lon="3.23855">
        <ele>539.28284</ele>
        <time>2012-08-29T11:00:03Z</time>
      </trkpt>
      <trkpt lat="45.51402" lon="3.23855">
        <ele>538.9359</ele>
        <time>2012-08-29T11:00:10Z</time>
      </trkpt>
      <trkpt lat="45.51384" lon="3.23856">
        <ele>546.7161</ele>
        <time>2012-08-29T11:00:19Z</time>
      </trkpt>
      <trkpt lat="45.51365" lon="3.23848">
        <ele>550.1154</ele>
        <time>2012-08-29T11:00:26Z</time>
      </trkpt>
      <trkpt lat="45.51345" lon="3.23843">
        <ele>552.9959</ele>
        <time>2012-08-29T11:00:35Z</time>
      </trkpt>
      <trkpt lat="45.51326" lon="3.23848">
        <ele>553.75885</ele>
        <time>2012-08-29T11:00:43Z</time>
      </trkpt>
      <trkpt lat="45.51306" lon="3.23852">
        <ele>555.96045</ele>
        <time>2012-08-29T11:00:49Z</time>
      </trkpt>
      <trkpt lat="45.51284" lon="3.23853">
        <ele>554.1893</ele>
        <time>2012-08-29T11:00:55Z</time>
      </trkpt>
      <trkpt lat="45.51264" lon="3.23855">
        <ele>550.32245</ele>
        <time>2012-08-29T11:01:04Z</time>
      </trkpt>
      <trkpt lat="45.51246" lon="3.23869">
        <ele>551.57983</ele>
        <time>2012-08-29T11:01:10Z</time>
      </trkpt>
      <trkpt lat="45.51229" lon="3.23874">
        <ele>552.7006</ele>
        <time>2012-08-29T11:01:19Z</time>
      </trkpt>
      <trkpt lat="45.51214" lon="3.23894">
        <ele>554.60034</ele>
        <time>2012-08-29T11:01:27Z</time>
      </trkpt>
      <trkpt lat="45.51203" lon="3.23918">
        <ele>556.12744</ele>
        <time>2012-08-29T11:01:34Z</time>
      </trkpt>
      <trkpt lat="45.5119" lon="3.2394">
        <ele>557.6251</ele>
        <time>2012-08-29T11:01:39Z</time>
      </trkpt>
      <trkpt lat="45.51175" lon="3.23963">
        <ele>557.9872</ele>
        <time>2012-08-29T11:01:46Z</time>
      </trkpt>
      <trkpt lat="45.51163" lon="3.23986">
        <ele>556.7912</ele>
        <time>2012-08-29T11:01:50Z</time>
      </trkpt>
      <trkpt lat="45.5115" lon="3.24005">
        <ele>556.6607</ele>
        <time>2012-08-29T11:01:56Z</time>
      </trkpt>
      <trkpt lat="45.51138" lon="3.24026">
        <ele>557.6699</ele>
        <time>2012-08-29T11:02:00Z</time>
      </trkpt>
      <trkpt lat="45.51127" lon="3.24048">
        <ele>558.2802</ele>
        <time>2012-08-29T11:02:04Z</time>
      </trkpt>
      <trkpt lat="45.51117" lon="3.2407">
        <ele>558.96246</ele>
        <time>2012-08-29T11:02:07Z</time>
      </trkpt>
      <trkpt lat="45.51098" lon="3.2407">
        <ele>558.4818</ele>
        <time>2012-08-29T11:02:11Z</time>
      </trkpt>
      <trkpt lat="45.51083" lon="3.24056">
        <ele>556.9293</ele>
        <time>2012-08-29T11:02:15Z</time>
      </trkpt>
      <trkpt lat="45.51064" lon="3.24049">
        <ele>555.88025</ele>
        <time>2012-08-29T11:02:19Z</time>
      </trkpt>
      <trkpt lat="45.51042" lon="3.2404">
        <ele>554.95496</ele>
        <time>2012-08-29T11:02:23Z</time>
      </trkpt>
      <trkpt lat="45.51021" lon="3.24033">
        <ele>555.2802</ele>
        <time>2012-08-29T11:02:27Z</time>
      </trkpt>
      <trkpt lat="45.50999" lon="3.24022">
        <ele>555.896</ele>
        <time>2012-08-29T11:02:31Z</time>
      </trkpt>
      <trkpt lat="45.50981" lon="3.24016">
        <ele>555.69415</ele>
        <time>2012-08-29T11:02:34Z</time>
      </trkpt>
      <trkpt lat="45.5096" lon="3.24009">
        <ele>556.2332</ele>
        <time>2012-08-29T11:02:38Z</time>
      </trkpt>
      <trkpt lat="45.50939" lon="3.24003">
        <ele>555.61584</ele>
        <time>2012-08-29T11:02:42Z</time>
      </trkpt>
      <trkpt lat="45.50918" lon="3.23997">
        <ele>554.4307</ele>
        <time>2012-08-29T11:02:46Z</time>
      </trkpt>
      <trkpt lat="45.50896" lon="3.23995">
        <ele>553.7467</ele>
        <time>2012-08-29T11:02:50Z</time>
      </trkpt>
      <trkpt lat="45.50875" lon="3.23989">
        <ele>553.35846</ele>
        <time>2012-08-29T11:02:54Z</time>
      </trkpt>
      <trkpt lat="45.50854" lon="3.23983">
        <ele>553.1184</ele>
        <time>2012-08-29T11:02:58Z</time>
      </trkpt>
      <trkpt lat="45.50834" lon="3.23981">
        <ele>553.0577</ele>
        <time>2012-08-29T11:03:02Z</time>
      </trkpt>
      <trkpt lat="45.50814" lon="3.23986">
        <ele>553.0928</ele>
        <time>2012-08-29T11:03:06Z</time>
      </trkpt>
      <trkpt lat="45.50794" lon="3.23992">
        <ele>553.1371</ele>
        <time>2012-08-29T11:03:10Z</time>
      </trkpt>
      <trkpt lat="45.50775" lon="3.23993">
        <ele>553.1269</ele>
        <time>2012-08-29T11:03:14Z</time>
      </trkpt>
      <trkpt lat="45.50753" lon="3.23997">
        <ele>553.31976</ele>
        <time>2012-08-29T11:03:18Z</time>
      </trkpt>
      <trkpt lat="45.50731" lon="3.24002">
        <ele>552.9014</ele>
        <time>2012-08-29T11:03:22Z</time>
      </trkpt>
      <trkpt lat="45.50709" lon="3.24007">
        <ele>552.2242</ele>
        <time>2012-08-29T11:03:26Z</time>
      </trkpt>
      <trkpt lat="45.50687" lon="3.2402">
        <ele>552.2185</ele>
        <time>2012-08-29T11:03:30Z</time>
      </trkpt>
      <trkpt lat="45.50665" lon="3.24029">
        <ele>552.3421</ele>
        <time>2012-08-29T11:03:34Z</time>
      </trkpt>
      <trkpt lat="45.50646" lon="3.2403">
        <ele>552.6761</ele>
        <time>2012-08-29T11:03:37Z</time>
      </trkpt>
      <trkpt lat="45.50624" lon="3.24031">
        <ele>552.75287</ele>
        <time>2012-08-29T11:03:41Z</time>
      </trkpt>
      <trkpt lat="45.50606" lon="3.24029">
        <ele>552.94</ele>
        <time>2012-08-29T11:03:44Z</time>
      </trkpt>
      <trkpt lat="45.50589" lon="3.24019">
        <ele>553.29553</ele>
        <time>2012-08-29T11:03:47Z</time>
      </trkpt>
      <trkpt lat="45.5057" lon="3.24013">
        <ele>553.27673</ele>
        <time>2012-08-29T11:03:50Z</time>
      </trkpt>
      <trkpt lat="45.50551" lon="3.24014">
        <ele>553.31104</ele>
        <time>2012-08-29T11:03:53Z</time>
      </trkpt>
      <trkpt lat="45.50529" lon="3.24018">
        <ele>553.5458</ele>
        <time>2012-08-29T11:03:56Z</time>
      </trkpt>
      <trkpt lat="45.50507" lon="3.2402">
        <ele>554.048</ele>
        <time>2012-08-29T11:03:59Z</time>
      </trkpt>
      <trkpt lat="45.50486" lon="3.24018">
        <ele>553.6785</ele>
        <time>2012-08-29T11:04:02Z</time>
      </trkpt>
      <trkpt lat="45.50466" lon="3.24014">
        <ele>553.2227</ele>
        <time>2012-08-29T11:04:04Z</time>
      </trkpt>
      <trkpt lat="45.50446" lon="3.24016">
        <ele>552.5914</ele>
        <time>2012-08-29T11:04:08Z</time>
      </trkpt>
      <trkpt lat="45.50426" lon="3.24015">
        <ele>551.91095</ele>
        <time>2012-08-29T11:04:11Z</time>
      </trkpt>
      <trkpt lat="45.50406" lon="3.24007">
        <ele>551.2239</ele>
        <time>2012-08-29T11:04:14Z</time>
      </trkpt>
      <trkpt lat="45.50387" lon="3.23995">
        <ele>550.55743</ele>
        <time>2012-08-29T11:04:17Z</time>
      </trkpt>
      <trkpt lat="45.50368" lon="3.23979">
        <ele>550.2779</ele>
        <time>2012-08-29T11:04:20Z</time>
      </trkpt>
      <trkpt lat="45.50351" lon="3.23962">
        <ele>550.43964</ele>
        <time>2012-08-29T11:04:23Z</time>
      </trkpt>
      <trkpt lat="45.50332" lon="3.23951">
        <ele>550.8688</ele>
        <time>2012-08-29T11:04:26Z</time>
      </trkpt>
      <trkpt lat="45.50313" lon="3.23942">
        <ele>551.2655</ele>
        <time>2012-08-29T11:04:29Z</time>
      </trkpt>
      <trkpt lat="45.50295" lon="3.2394">
        <ele>551.9391</ele>
        <time>2012-08-29T11:04:32Z</time>
      </trkpt>
      <trkpt lat="45.50271" lon="3.23941">
        <ele>551.781</ele>
        <time>2012-08-29T11:04:36Z</time>
      </trkpt>
      <trkpt lat="45.50256" lon="3.23921">
        <ele>551.554</ele>
        <time>2012-08-29T11:04:40Z</time>
      </trkpt>
      <trkpt lat="45.50251" lon="3.23896">
        <ele>551.43066</ele>
        <time>2012-08-29T11:04:43Z</time>
      </trkpt>
      <trkpt lat="45.50249" lon="3.23865">
        <ele>551.9479</ele>
        <time>2012-08-29T11:04:48Z</time>
      </trkpt>
      <trkpt lat="45.50241" lon="3.2384">
        <ele>551.00665</ele>
        <time>2012-08-29T11:04:51Z</time>
      </trkpt>
      <trkpt lat="45.50235" lon="3.23814">
        <ele>550.4517</ele>
        <time>2012-08-29T11:04:54Z</time>
      </trkpt>
      <trkpt lat="45.5024" lon="3.23781">
        <ele>549.76746</ele>
        <time>2012-08-29T11:04:58Z</time>
      </trkpt>
      <trkpt lat="45.50247" lon="3.23755">
        <ele>550.4103</ele>
        <time>2012-08-29T11:05:02Z</time>
      </trkpt>
      <trkpt lat="45.50255" lon="3.2373">
        <ele>551.38635</ele>
        <time>2012-08-29T11:05:06Z</time>
      </trkpt>
      <trkpt lat="45.50263" lon="3.23706">
        <ele>552.4128</ele>
        <time>2012-08-29T11:05:10Z</time>
      </trkpt>
      <trkpt lat="45.50271" lon="3.23677">
        <ele>552.92505</ele>
        <time>2012-08-29T11:05:14Z</time>
      </trkpt>
      <trkpt lat="45.50282" lon="3.23649">
        <ele>553.17426</ele>
        <time>2012-08-29T11:05:18Z</time>
      </trkpt>
      <trkpt lat="45.50294" lon="3.23628">
        <ele>552.6647</ele>
        <time>2012-08-29T11:05:21Z</time>
      </trkpt>
      <trkpt lat="45.50307" lon="3.23608">
        <ele>552.4653</ele>
        <time>2012-08-29T11:05:23Z</time>
      </trkpt>
      <trkpt lat="45.50317" lon="3.23586">
        <ele>552.3468</ele>
        <time>2012-08-29T11:05:27Z</time>
      </trkpt>
      <trkpt lat="45.50325" lon="3.23562">
        <ele>551.95306</ele>
        <time>2012-08-29T11:05:30Z</time>
      </trkpt>
      <trkpt lat="45.50335" lon="3.23536">
        <ele>551.63074</ele>
        <time>2012-08-29T11:05:33Z</time>
      </trkpt>
      <trkpt lat="45.50341" lon="3.23509">
        <ele>551.9088</ele>
        <time>2012-08-29T11:05:36Z</time>
      </trkpt>
      <trkpt lat="45.50351" lon="3.23484">
        <ele>551.65735</ele>
        <time>2012-08-29T11:05:38Z</time>
      </trkpt>
      <trkpt lat="45.50358" lon="3.23454">
        <ele>552.2591</ele>
        <time>2012-08-29T11:05:42Z</time>
      </trkpt>
      <trkpt lat="45.50365" lon="3.23428">
        <ele>552.32385</ele>
        <time>2012-08-29T11:05:45Z</time>
      </trkpt>
      <trkpt lat="45.50372" lon="3.23403">
        <ele>552.3106</ele>
        <time>2012-08-29T11:05:48Z</time>
      </trkpt>
      <trkpt lat="45.50379" lon="3.23379">
        <ele>552.1456</ele>
        <time>2012-08-29T11:05:50Z</time>
      </trkpt>
      <trkpt lat="45.50387" lon="3.23352">
        <ele>552.151</ele>
        <time>2012-08-29T11:05:54Z</time>
      </trkpt>
      <trkpt lat="45.50397" lon="3.23329">
        <ele>552.27637</ele>
        <time>2012-08-29T11:05:56Z</time>
      </trkpt>
      <trkpt lat="45.50407" lon="3.23302">
        <ele>553.75146</ele>
        <time>2012-08-29T11:05:59Z</time>
      </trkpt>
      <trkpt lat="45.50412" lon="3.23277">
        <ele>554.4644</ele>
        <time>2012-08-29T11:06:02Z</time>
      </trkpt>
      <trkpt lat="45.5042" lon="3.23252">
        <ele>554.2652</ele>
        <time>2012-08-29T11:06:04Z</time>
      </trkpt>
      <trkpt lat="45.50427" lon="3.23225">
        <ele>554.1608</ele>
        <time>2012-08-29T11:06:08Z</time>
      </trkpt>
      <trkpt lat="45.50436" lon="3.23201">
        <ele>554.0934</ele>
        <time>2012-08-29T11:06:10Z</time>
      </trkpt>
      <trkpt lat="45.50446" lon="3.23174">
        <ele>553.829</ele>
        <time>2012-08-29T11:06:14Z</time>
      </trkpt>
      <trkpt lat="45.50454" lon="3.2315">
        <ele>554.4174</ele>
        <time>2012-08-29T11:06:17Z</time>
      </trkpt>
      <trkpt lat="45.50464" lon="3.23124">
        <ele>555.6516</ele>
        <time>2012-08-29T11:06:20Z</time>
      </trkpt>
      <trkpt lat="45.50472" lon="3.23097">
        <ele>556.45197</ele>
        <time>2012-08-29T11:06:23Z</time>
      </trkpt>
      <trkpt lat="45.50486" lon="3.23068">
        <ele>556.9148</ele>
        <time>2012-08-29T11:06:27Z</time>
      </trkpt>
      <trkpt lat="45.50495" lon="3.23039">
        <ele>556.9167</ele>
        <time>2012-08-29T11:06:30Z</time>
      </trkpt>
      <trkpt lat="45.50504" lon="3.23016">
        <ele>556.756</ele>
        <time>2012-08-29T11:06:34Z</time>
      </trkpt>
      <trkpt lat="45.50512" lon="3.22991">
        <ele>556.7648</ele>
        <time>2012-08-29T11:06:36Z</time>
      </trkpt>
      <trkpt lat="45.5052" lon="3.22964">
        <ele>556.2091</ele>
        <time>2012-08-29T11:06:40Z</time>
      </trkpt>
      <trkpt lat="45.50528" lon="3.22939">
        <ele>558.00433</ele>
        <time>2012-08-29T11:06:44Z</time>
      </trkpt>
      <trkpt lat="45.50524" lon="3.2291">
        <ele>558.7191</ele>
        <time>2012-08-29T11:06:49Z</time>
      </trkpt>
      <trkpt lat="45.50521" lon="3.22884">
        <ele>559.76434</ele>
        <time>2012-08-29T11:06:56Z</time>
      </trkpt>
    </trkseg>
  </trk>
</gpx>